<?xml version="1.0" encoding="UTF-8" standalone="no" ?>
<gpx xmlns="http://www.topografix.com/GPX/1/1" xmlns:xsi="http://www.w3.org/2001/XMLSchema-instance" xsi:schemaLocation="http://www.topografix.com/GPX/1/1 http://www.topografix.com/GPX/1/1/gpx.xsd" version="1.1" creator="VisuGPX - https://www.visugpx.com">
  <metadata>
    <name>COL DE LA COUILLOLE</name>
  </metadata>
  <trk>
    <name><![CDATA[ACTIVE LOG 001]]></name>
    <trkseg>
      <trkpt lat="44.10021" lon="7.02313">
        <ele>1640.146484375</ele>
        <time>2020-01-11T07:49:40Z</time>
      </trkpt>
      <trkpt lat="44.10021" lon="7.02316">
        <ele>1668.9860839844</ele>
        <time>2020-01-11T07:51:27Z</time>
      </trkpt>
      <trkpt lat="44.10029" lon="7.02317">
        <ele>1669.466796875</ele>
        <time>2020-01-11T07:51:44Z</time>
      </trkpt>
      <trkpt lat="44.10022" lon="7.02314">
        <ele>1668.9860839844</ele>
        <time>2020-01-11T07:51:56Z</time>
      </trkpt>
      <trkpt lat="44.10023" lon="7.02314">
        <ele>1669.466796875</ele>
        <time>2020-01-11T07:53:46Z</time>
      </trkpt>
      <trkpt lat="44.10021" lon="7.02309">
        <ele>1668.9860839844</ele>
        <time>2020-01-11T07:57:53Z</time>
      </trkpt>
      <trkpt lat="44.1002" lon="7.02309">
        <ele>1668.9860839844</ele>
        <time>2020-01-11T07:58:38Z</time>
      </trkpt>
      <trkpt lat="44.1002" lon="7.02296">
        <ele>1668.9860839844</ele>
        <time>2020-01-11T07:58:49Z</time>
      </trkpt>
      <trkpt lat="44.10022" lon="7.02283">
        <ele>1669.466796875</ele>
        <time>2020-01-11T07:58:59Z</time>
      </trkpt>
      <trkpt lat="44.10016" lon="7.02274">
        <ele>1669.466796875</ele>
        <time>2020-01-11T07:59:09Z</time>
      </trkpt>
      <trkpt lat="44.10007" lon="7.02272">
        <ele>1670.4279785156</ele>
        <time>2020-01-11T07:59:19Z</time>
      </trkpt>
      <trkpt lat="44.09998" lon="7.02268">
        <ele>1671.8698730469</ele>
        <time>2020-01-11T07:59:31Z</time>
      </trkpt>
      <trkpt lat="44.09989" lon="7.02267">
        <ele>1673.3120117188</ele>
        <time>2020-01-11T07:59:42Z</time>
      </trkpt>
      <trkpt lat="44.09979" lon="7.02266">
        <ele>1674.2731933594</ele>
        <time>2020-01-11T07:59:54Z</time>
      </trkpt>
      <trkpt lat="44.09968" lon="7.02262">
        <ele>1675.234375</ele>
        <time>2020-01-11T08:00:06Z</time>
      </trkpt>
      <trkpt lat="44.09962" lon="7.02255">
        <ele>1676.1960449219</ele>
        <time>2020-01-11T08:02:27Z</time>
      </trkpt>
      <trkpt lat="44.09959" lon="7.0226">
        <ele>1677.1574707031</ele>
        <time>2020-01-11T08:05:50Z</time>
      </trkpt>
      <trkpt lat="44.09949" lon="7.02251">
        <ele>1677.6379394531</ele>
        <time>2020-01-11T08:06:03Z</time>
      </trkpt>
      <trkpt lat="44.09942" lon="7.02242">
        <ele>1678.5993652344</ele>
        <time>2020-01-11T08:06:16Z</time>
      </trkpt>
      <trkpt lat="44.09934" lon="7.02235">
        <ele>1680.5219726562</ele>
        <time>2020-01-11T08:06:28Z</time>
      </trkpt>
      <trkpt lat="44.09927" lon="7.02229">
        <ele>1682.4445800781</ele>
        <time>2020-01-11T08:06:42Z</time>
      </trkpt>
      <trkpt lat="44.0992" lon="7.0222">
        <ele>1684.8479003906</ele>
        <time>2020-01-11T08:06:58Z</time>
      </trkpt>
      <trkpt lat="44.09913" lon="7.02208">
        <ele>1685.8090820312</ele>
        <time>2020-01-11T08:07:15Z</time>
      </trkpt>
      <trkpt lat="44.09907" lon="7.02199">
        <ele>1687.2509765625</ele>
        <time>2020-01-11T08:07:29Z</time>
      </trkpt>
      <trkpt lat="44.099" lon="7.02193">
        <ele>1688.2124023438</ele>
        <time>2020-01-11T08:07:45Z</time>
      </trkpt>
      <trkpt lat="44.09892" lon="7.02183">
        <ele>1688.6931152344</ele>
        <time>2020-01-11T08:07:58Z</time>
      </trkpt>
      <trkpt lat="44.09884" lon="7.02175">
        <ele>1688.6931152344</ele>
        <time>2020-01-11T08:08:10Z</time>
      </trkpt>
      <trkpt lat="44.09873" lon="7.02161">
        <ele>1689.1735839844</ele>
        <time>2020-01-11T08:08:23Z</time>
      </trkpt>
      <trkpt lat="44.09862" lon="7.0215">
        <ele>1690.6154785156</ele>
        <time>2020-01-11T08:08:39Z</time>
      </trkpt>
      <trkpt lat="44.09856" lon="7.02153">
        <ele>1692.0578613281</ele>
        <time>2020-01-11T08:08:52Z</time>
      </trkpt>
      <trkpt lat="44.09846" lon="7.02149">
        <ele>1693.4997558594</ele>
        <time>2020-01-11T08:09:04Z</time>
      </trkpt>
      <trkpt lat="44.09836" lon="7.0215">
        <ele>1695.4223632812</ele>
        <time>2020-01-11T08:09:20Z</time>
      </trkpt>
      <trkpt lat="44.09828" lon="7.02146">
        <ele>1697.3449707031</ele>
        <time>2020-01-11T08:09:36Z</time>
      </trkpt>
      <trkpt lat="44.09819" lon="7.02141">
        <ele>1698.7868652344</ele>
        <time>2020-01-11T08:09:50Z</time>
      </trkpt>
      <trkpt lat="44.0981" lon="7.02137">
        <ele>1700.7094726562</ele>
        <time>2020-01-11T08:10:07Z</time>
      </trkpt>
      <trkpt lat="44.09804" lon="7.02134">
        <ele>1702.6320800781</ele>
        <time>2020-01-11T08:10:37Z</time>
      </trkpt>
      <trkpt lat="44.09793" lon="7.02127">
        <ele>1704.5546875</ele>
        <time>2020-01-11T08:10:55Z</time>
      </trkpt>
      <trkpt lat="44.09784" lon="7.0212">
        <ele>1706.9580078125</ele>
        <time>2020-01-11T08:11:12Z</time>
      </trkpt>
      <trkpt lat="44.09774" lon="7.02112">
        <ele>1709.3615722656</ele>
        <time>2020-01-11T08:11:27Z</time>
      </trkpt>
      <trkpt lat="44.09767" lon="7.02113">
        <ele>1711.7648925781</ele>
        <time>2020-01-11T08:11:43Z</time>
      </trkpt>
      <trkpt lat="44.09756" lon="7.02106">
        <ele>1713.6872558594</ele>
        <time>2020-01-11T08:11:59Z</time>
      </trkpt>
      <trkpt lat="44.09748" lon="7.02102">
        <ele>1716.0905761719</ele>
        <time>2020-01-11T08:12:16Z</time>
      </trkpt>
      <trkpt lat="44.09744" lon="7.02099">
        <ele>1718.974609375</ele>
        <time>2020-01-11T08:12:38Z</time>
      </trkpt>
      <trkpt lat="44.09738" lon="7.02091">
        <ele>1720.8972167969</ele>
        <time>2020-01-11T08:12:53Z</time>
      </trkpt>
      <trkpt lat="44.09738" lon="7.02084">
        <ele>1722.3391113281</ele>
        <time>2020-01-11T08:13:07Z</time>
      </trkpt>
      <trkpt lat="44.09735" lon="7.02071">
        <ele>1724.2619628906</ele>
        <time>2020-01-11T08:13:22Z</time>
      </trkpt>
      <trkpt lat="44.09726" lon="7.0206">
        <ele>1725.2231445312</ele>
        <time>2020-01-11T08:13:36Z</time>
      </trkpt>
      <trkpt lat="44.09719" lon="7.0205">
        <ele>1727.1459960938</ele>
        <time>2020-01-11T08:13:51Z</time>
      </trkpt>
      <trkpt lat="44.09712" lon="7.0204">
        <ele>1728.587890625</ele>
        <time>2020-01-11T08:14:07Z</time>
      </trkpt>
      <trkpt lat="44.09708" lon="7.02037">
        <ele>1728.587890625</ele>
        <time>2020-01-11T08:14:33Z</time>
      </trkpt>
      <trkpt lat="44.09699" lon="7.02034">
        <ele>1728.1071777344</ele>
        <time>2020-01-11T08:17:51Z</time>
      </trkpt>
      <trkpt lat="44.0969" lon="7.02031">
        <ele>1727.1459960938</ele>
        <time>2020-01-11T08:18:01Z</time>
      </trkpt>
      <trkpt lat="44.09681" lon="7.02031">
        <ele>1725.7038574219</ele>
        <time>2020-01-11T08:18:11Z</time>
      </trkpt>
      <trkpt lat="44.09675" lon="7.02037">
        <ele>1723.7810058594</ele>
        <time>2020-01-11T08:18:21Z</time>
      </trkpt>
      <trkpt lat="44.09669" lon="7.0205">
        <ele>1722.8198242188</ele>
        <time>2020-01-11T08:18:33Z</time>
      </trkpt>
      <trkpt lat="44.09662" lon="7.02058">
        <ele>1721.3776855469</ele>
        <time>2020-01-11T08:18:43Z</time>
      </trkpt>
      <trkpt lat="44.09657" lon="7.02068">
        <ele>1719.9357910156</ele>
        <time>2020-01-11T08:18:52Z</time>
      </trkpt>
      <trkpt lat="44.0965" lon="7.02076">
        <ele>1717.5324707031</ele>
        <time>2020-01-11T08:19:05Z</time>
      </trkpt>
      <trkpt lat="44.09642" lon="7.02077">
        <ele>1716.5712890625</ele>
        <time>2020-01-11T08:19:29Z</time>
      </trkpt>
      <trkpt lat="44.09634" lon="7.02085">
        <ele>1716.0905761719</ele>
        <time>2020-01-11T08:19:44Z</time>
      </trkpt>
      <trkpt lat="44.09626" lon="7.02093">
        <ele>1715.6101074219</ele>
        <time>2020-01-11T08:19:53Z</time>
      </trkpt>
      <trkpt lat="44.09619" lon="7.02099">
        <ele>1716.0905761719</ele>
        <time>2020-01-11T08:20:03Z</time>
      </trkpt>
      <trkpt lat="44.09611" lon="7.02103">
        <ele>1717.0520019531</ele>
        <time>2020-01-11T08:20:14Z</time>
      </trkpt>
      <trkpt lat="44.096" lon="7.02107">
        <ele>1718.4938964844</ele>
        <time>2020-01-11T08:20:24Z</time>
      </trkpt>
      <trkpt lat="44.0959" lon="7.02113">
        <ele>1718.974609375</ele>
        <time>2020-01-11T08:20:34Z</time>
      </trkpt>
      <trkpt lat="44.09578" lon="7.02119">
        <ele>1719.9357910156</ele>
        <time>2020-01-11T08:20:45Z</time>
      </trkpt>
      <trkpt lat="44.09569" lon="7.02121">
        <ele>1721.3776855469</ele>
        <time>2020-01-11T08:20:58Z</time>
      </trkpt>
      <trkpt lat="44.0956" lon="7.02122">
        <ele>1723.3005371094</ele>
        <time>2020-01-11T08:21:12Z</time>
      </trkpt>
      <trkpt lat="44.09547" lon="7.02119">
        <ele>1725.2231445312</ele>
        <time>2020-01-11T08:21:31Z</time>
      </trkpt>
      <trkpt lat="44.09539" lon="7.02131">
        <ele>1728.1071777344</ele>
        <time>2020-01-11T08:21:49Z</time>
      </trkpt>
      <trkpt lat="44.0953" lon="7.02137">
        <ele>1730.5104980469</ele>
        <time>2020-01-11T08:22:05Z</time>
      </trkpt>
      <trkpt lat="44.09519" lon="7.02139">
        <ele>1733.875</ele>
        <time>2020-01-11T08:22:23Z</time>
      </trkpt>
      <trkpt lat="44.09509" lon="7.0214">
        <ele>1736.2783203125</ele>
        <time>2020-01-11T08:22:41Z</time>
      </trkpt>
      <trkpt lat="44.09501" lon="7.02145">
        <ele>1739.162109375</ele>
        <time>2020-01-11T08:22:57Z</time>
      </trkpt>
      <trkpt lat="44.09492" lon="7.02144">
        <ele>1741.5656738281</ele>
        <time>2020-01-11T08:23:14Z</time>
      </trkpt>
      <trkpt lat="44.09484" lon="7.02149">
        <ele>1742.5270996094</ele>
        <time>2020-01-11T08:23:34Z</time>
      </trkpt>
      <trkpt lat="44.09477" lon="7.02151">
        <ele>1743.48828125</ele>
        <time>2020-01-11T08:24:39Z</time>
      </trkpt>
      <trkpt lat="44.09469" lon="7.02152">
        <ele>1743.9689941406</ele>
        <time>2020-01-11T08:24:51Z</time>
      </trkpt>
      <trkpt lat="44.0946" lon="7.02145">
        <ele>1742.5270996094</ele>
        <time>2020-01-11T08:25:00Z</time>
      </trkpt>
      <trkpt lat="44.09451" lon="7.02141">
        <ele>1740.6042480469</ele>
        <time>2020-01-11T08:25:11Z</time>
      </trkpt>
      <trkpt lat="44.09442" lon="7.02137">
        <ele>1739.162109375</ele>
        <time>2020-01-11T08:25:21Z</time>
      </trkpt>
      <trkpt lat="44.09433" lon="7.02132">
        <ele>1738.681640625</ele>
        <time>2020-01-11T08:25:30Z</time>
      </trkpt>
      <trkpt lat="44.09425" lon="7.02127">
        <ele>1738.681640625</ele>
        <time>2020-01-11T08:25:39Z</time>
      </trkpt>
      <trkpt lat="44.09416" lon="7.02127">
        <ele>1738.681640625</ele>
        <time>2020-01-11T08:25:49Z</time>
      </trkpt>
      <trkpt lat="44.09404" lon="7.02124">
        <ele>1740.1237792969</ele>
        <time>2020-01-11T08:26:03Z</time>
      </trkpt>
      <trkpt lat="44.09394" lon="7.02122">
        <ele>1741.5656738281</ele>
        <time>2020-01-11T08:26:16Z</time>
      </trkpt>
      <trkpt lat="44.09382" lon="7.0212">
        <ele>1743.48828125</ele>
        <time>2020-01-11T08:26:31Z</time>
      </trkpt>
      <trkpt lat="44.09375" lon="7.02126">
        <ele>1746.3723144531</ele>
        <time>2020-01-11T08:26:51Z</time>
      </trkpt>
      <trkpt lat="44.09364" lon="7.02124">
        <ele>1749.2561035156</ele>
        <time>2020-01-11T08:27:09Z</time>
      </trkpt>
      <trkpt lat="44.09352" lon="7.02123">
        <ele>1751.1787109375</ele>
        <time>2020-01-11T08:27:27Z</time>
      </trkpt>
      <trkpt lat="44.09342" lon="7.0212">
        <ele>1753.58203125</ele>
        <time>2020-01-11T08:27:44Z</time>
      </trkpt>
      <trkpt lat="44.09333" lon="7.02116">
        <ele>1755.5046386719</ele>
        <time>2020-01-11T08:27:58Z</time>
      </trkpt>
      <trkpt lat="44.09325" lon="7.02112">
        <ele>1756.4660644531</ele>
        <time>2020-01-11T08:28:12Z</time>
      </trkpt>
      <trkpt lat="44.09317" lon="7.02106">
        <ele>1757.908203125</ele>
        <time>2020-01-11T08:28:25Z</time>
      </trkpt>
      <trkpt lat="44.0931" lon="7.021">
        <ele>1758.8693847656</ele>
        <time>2020-01-11T08:28:38Z</time>
      </trkpt>
      <trkpt lat="44.09304" lon="7.02095">
        <ele>1760.3112792969</ele>
        <time>2020-01-11T08:28:53Z</time>
      </trkpt>
      <trkpt lat="44.09296" lon="7.02088">
        <ele>1762.7145996094</ele>
        <time>2020-01-11T08:29:11Z</time>
      </trkpt>
      <trkpt lat="44.09286" lon="7.02078">
        <ele>1766.0791015625</ele>
        <time>2020-01-11T08:29:34Z</time>
      </trkpt>
      <trkpt lat="44.09276" lon="7.02072">
        <ele>1768.0017089844</ele>
        <time>2020-01-11T08:29:55Z</time>
      </trkpt>
      <trkpt lat="44.09265" lon="7.02075">
        <ele>1769.9243164062</ele>
        <time>2020-01-11T08:30:10Z</time>
      </trkpt>
      <trkpt lat="44.09261" lon="7.02069">
        <ele>1771.8469238281</ele>
        <time>2020-01-11T08:30:34Z</time>
      </trkpt>
      <trkpt lat="44.09254" lon="7.02056">
        <ele>1774.7312011719</ele>
        <time>2020-01-11T08:30:53Z</time>
      </trkpt>
      <trkpt lat="44.09249" lon="7.02043">
        <ele>1778.5764160156</ele>
        <time>2020-01-11T08:31:17Z</time>
      </trkpt>
      <trkpt lat="44.09245" lon="7.0203">
        <ele>1782.4216308594</ele>
        <time>2020-01-11T08:31:42Z</time>
      </trkpt>
      <trkpt lat="44.09244" lon="7.02019">
        <ele>1786.7473144531</ele>
        <time>2020-01-11T08:32:15Z</time>
      </trkpt>
      <trkpt lat="44.09243" lon="7.02006">
        <ele>1793.9575195312</ele>
        <time>2020-01-11T08:33:10Z</time>
      </trkpt>
      <trkpt lat="44.09228" lon="7.01983">
        <ele>1800.2060546875</ele>
        <time>2020-01-11T08:33:54Z</time>
      </trkpt>
      <trkpt lat="44.09224" lon="7.01965">
        <ele>1805.4934082031</ele>
        <time>2020-01-11T08:34:34Z</time>
      </trkpt>
      <trkpt lat="44.09212" lon="7.01959">
        <ele>1808.3771972656</ele>
        <time>2020-01-11T08:34:57Z</time>
      </trkpt>
      <trkpt lat="44.09201" lon="7.01943">
        <ele>1815.1064453125</ele>
        <time>2020-01-11T08:35:52Z</time>
      </trkpt>
      <trkpt lat="44.09196" lon="7.01927">
        <ele>1817.5095214844</ele>
        <time>2020-01-11T08:36:13Z</time>
      </trkpt>
      <trkpt lat="44.09187" lon="7.0192">
        <ele>1819.9128417969</ele>
        <time>2020-01-11T08:36:31Z</time>
      </trkpt>
      <trkpt lat="44.09178" lon="7.01915">
        <ele>1821.8356933594</ele>
        <time>2020-01-11T08:36:46Z</time>
      </trkpt>
      <trkpt lat="44.09179" lon="7.01917">
        <ele>1821.3549804688</ele>
        <time>2020-01-11T08:38:07Z</time>
      </trkpt>
      <trkpt lat="44.09188" lon="7.01909">
        <ele>1820.8745117188</ele>
        <time>2020-01-11T08:38:25Z</time>
      </trkpt>
      <trkpt lat="44.09199" lon="7.01905">
        <ele>1819.4323730469</ele>
        <time>2020-01-11T08:38:36Z</time>
      </trkpt>
      <trkpt lat="44.09203" lon="7.0191">
        <ele>1818.9516601562</ele>
        <time>2020-01-11T08:42:20Z</time>
      </trkpt>
      <trkpt lat="44.09191" lon="7.01907">
        <ele>1821.8356933594</ele>
        <time>2020-01-11T08:42:43Z</time>
      </trkpt>
      <trkpt lat="44.09183" lon="7.01914">
        <ele>1822.7971191406</ele>
        <time>2020-01-11T08:42:55Z</time>
      </trkpt>
      <trkpt lat="44.0917" lon="7.01912">
        <ele>1824.7197265625</ele>
        <time>2020-01-11T08:43:45Z</time>
      </trkpt>
      <trkpt lat="44.0916" lon="7.01913">
        <ele>1822.31640625</ele>
        <time>2020-01-11T08:43:53Z</time>
      </trkpt>
      <trkpt lat="44.09149" lon="7.01913">
        <ele>1822.31640625</ele>
        <time>2020-01-11T08:44:02Z</time>
      </trkpt>
      <trkpt lat="44.09142" lon="7.01915">
        <ele>1819.4323730469</ele>
        <time>2020-01-11T08:44:10Z</time>
      </trkpt>
      <trkpt lat="44.09132" lon="7.01914">
        <ele>1817.990234375</ele>
        <time>2020-01-11T08:44:18Z</time>
      </trkpt>
      <trkpt lat="44.09121" lon="7.01915">
        <ele>1816.5483398438</ele>
        <time>2020-01-11T08:44:26Z</time>
      </trkpt>
      <trkpt lat="44.09111" lon="7.01915">
        <ele>1817.5095214844</ele>
        <time>2020-01-11T08:44:34Z</time>
      </trkpt>
      <trkpt lat="44.09102" lon="7.01914">
        <ele>1817.5095214844</ele>
        <time>2020-01-11T08:44:43Z</time>
      </trkpt>
      <trkpt lat="44.09092" lon="7.01915">
        <ele>1818.9516601562</ele>
        <time>2020-01-11T08:44:52Z</time>
      </trkpt>
      <trkpt lat="44.09083" lon="7.01915">
        <ele>1819.9128417969</ele>
        <time>2020-01-11T08:45:02Z</time>
      </trkpt>
      <trkpt lat="44.09073" lon="7.01913">
        <ele>1820.3937988281</ele>
        <time>2020-01-11T08:45:13Z</time>
      </trkpt>
      <trkpt lat="44.09064" lon="7.01915">
        <ele>1821.8356933594</ele>
        <time>2020-01-11T08:45:23Z</time>
      </trkpt>
      <trkpt lat="44.09055" lon="7.01918">
        <ele>1822.7971191406</ele>
        <time>2020-01-11T08:45:33Z</time>
      </trkpt>
      <trkpt lat="44.09046" lon="7.01921">
        <ele>1823.2778320312</ele>
        <time>2020-01-11T08:45:43Z</time>
      </trkpt>
      <trkpt lat="44.09035" lon="7.01923">
        <ele>1823.7583007812</ele>
        <time>2020-01-11T08:45:52Z</time>
      </trkpt>
      <trkpt lat="44.09027" lon="7.01926">
        <ele>1824.2390136719</ele>
        <time>2020-01-11T08:46:01Z</time>
      </trkpt>
      <trkpt lat="44.09018" lon="7.01932">
        <ele>1824.7197265625</ele>
        <time>2020-01-11T08:46:12Z</time>
      </trkpt>
      <trkpt lat="44.0901" lon="7.01937">
        <ele>1826.1616210938</ele>
        <time>2020-01-11T08:50:03Z</time>
      </trkpt>
      <trkpt lat="44.09" lon="7.01943">
        <ele>1826.6423339844</ele>
        <time>2020-01-11T08:50:15Z</time>
      </trkpt>
      <trkpt lat="44.08991" lon="7.01948">
        <ele>1827.123046875</ele>
        <time>2020-01-11T08:50:25Z</time>
      </trkpt>
      <trkpt lat="44.08982" lon="7.01949">
        <ele>1827.603515625</ele>
        <time>2020-01-11T08:50:37Z</time>
      </trkpt>
      <trkpt lat="44.08973" lon="7.01955">
        <ele>1829.0454101562</ele>
        <time>2020-01-11T08:50:50Z</time>
      </trkpt>
      <trkpt lat="44.08962" lon="7.01958">
        <ele>1829.5261230469</ele>
        <time>2020-01-11T08:51:00Z</time>
      </trkpt>
      <trkpt lat="44.08954" lon="7.01963">
        <ele>1829.0454101562</ele>
        <time>2020-01-11T08:51:13Z</time>
      </trkpt>
      <trkpt lat="44.08945" lon="7.01969">
        <ele>1829.5261230469</ele>
        <time>2020-01-11T08:51:22Z</time>
      </trkpt>
      <trkpt lat="44.08936" lon="7.01973">
        <ele>1827.123046875</ele>
        <time>2020-01-11T08:51:32Z</time>
      </trkpt>
      <trkpt lat="44.08927" lon="7.01979">
        <ele>1824.7197265625</ele>
        <time>2020-01-11T08:51:42Z</time>
      </trkpt>
      <trkpt lat="44.08918" lon="7.01983">
        <ele>1824.7197265625</ele>
        <time>2020-01-11T08:51:51Z</time>
      </trkpt>
      <trkpt lat="44.08909" lon="7.01989">
        <ele>1822.7971191406</ele>
        <time>2020-01-11T08:52:00Z</time>
      </trkpt>
      <trkpt lat="44.089" lon="7.01993">
        <ele>1822.7971191406</ele>
        <time>2020-01-11T08:52:09Z</time>
      </trkpt>
      <trkpt lat="44.08892" lon="7.01998">
        <ele>1820.8745117188</ele>
        <time>2020-01-11T08:52:18Z</time>
      </trkpt>
      <trkpt lat="44.08884" lon="7.02003">
        <ele>1820.8745117188</ele>
        <time>2020-01-11T08:52:27Z</time>
      </trkpt>
      <trkpt lat="44.08875" lon="7.0201">
        <ele>1819.4323730469</ele>
        <time>2020-01-11T08:52:40Z</time>
      </trkpt>
      <trkpt lat="44.08866" lon="7.02014">
        <ele>1819.4323730469</ele>
        <time>2020-01-11T08:52:49Z</time>
      </trkpt>
      <trkpt lat="44.08856" lon="7.02017">
        <ele>1819.4323730469</ele>
        <time>2020-01-11T08:52:58Z</time>
      </trkpt>
      <trkpt lat="44.08848" lon="7.02022">
        <ele>1817.990234375</ele>
        <time>2020-01-11T08:53:06Z</time>
      </trkpt>
      <trkpt lat="44.08839" lon="7.02025">
        <ele>1817.0290527344</ele>
        <time>2020-01-11T08:53:15Z</time>
      </trkpt>
      <trkpt lat="44.08829" lon="7.02029">
        <ele>1816.5483398438</ele>
        <time>2020-01-11T08:53:24Z</time>
      </trkpt>
      <trkpt lat="44.08819" lon="7.02033">
        <ele>1816.0676269531</ele>
        <time>2020-01-11T08:53:33Z</time>
      </trkpt>
      <trkpt lat="44.08812" lon="7.0204">
        <ele>1816.0676269531</ele>
        <time>2020-01-11T08:53:42Z</time>
      </trkpt>
      <trkpt lat="44.08807" lon="7.0205">
        <ele>1814.6257324219</ele>
        <time>2020-01-11T08:53:51Z</time>
      </trkpt>
      <trkpt lat="44.088" lon="7.02059">
        <ele>1813.6643066406</ele>
        <time>2020-01-11T08:54:00Z</time>
      </trkpt>
      <trkpt lat="44.08793" lon="7.02067">
        <ele>1811.2612304688</ele>
        <time>2020-01-11T08:54:10Z</time>
      </trkpt>
      <trkpt lat="44.08785" lon="7.02072">
        <ele>1809.8190917969</ele>
        <time>2020-01-11T08:54:20Z</time>
      </trkpt>
      <trkpt lat="44.08777" lon="7.02079">
        <ele>1808.3771972656</ele>
        <time>2020-01-11T08:54:41Z</time>
      </trkpt>
      <trkpt lat="44.08767" lon="7.02082">
        <ele>1805.4934082031</ele>
        <time>2020-01-11T08:54:57Z</time>
      </trkpt>
      <trkpt lat="44.08759" lon="7.02092">
        <ele>1802.6091308594</ele>
        <time>2020-01-11T08:55:10Z</time>
      </trkpt>
      <trkpt lat="44.08755" lon="7.021">
        <ele>1802.1284179688</ele>
        <time>2020-01-11T08:55:20Z</time>
      </trkpt>
      <trkpt lat="44.08747" lon="7.02107">
        <ele>1800.6865234375</ele>
        <time>2020-01-11T08:55:31Z</time>
      </trkpt>
      <trkpt lat="44.08738" lon="7.02116">
        <ele>1799.7253417969</ele>
        <time>2020-01-11T08:55:42Z</time>
      </trkpt>
      <trkpt lat="44.08731" lon="7.02124">
        <ele>1798.7639160156</ele>
        <time>2020-01-11T08:55:52Z</time>
      </trkpt>
      <trkpt lat="44.08724" lon="7.02133">
        <ele>1798.283203125</ele>
        <time>2020-01-11T08:56:03Z</time>
      </trkpt>
      <trkpt lat="44.08717" lon="7.02143">
        <ele>1797.802734375</ele>
        <time>2020-01-11T08:56:15Z</time>
      </trkpt>
      <trkpt lat="44.0871" lon="7.02151">
        <ele>1795.8801269531</ele>
        <time>2020-01-11T08:56:26Z</time>
      </trkpt>
      <trkpt lat="44.08702" lon="7.02158">
        <ele>1792.99609375</ele>
        <time>2020-01-11T08:56:39Z</time>
      </trkpt>
      <trkpt lat="44.08695" lon="7.02166">
        <ele>1791.0734863281</ele>
        <time>2020-01-11T08:56:50Z</time>
      </trkpt>
      <trkpt lat="44.08688" lon="7.02179">
        <ele>1788.1896972656</ele>
        <time>2020-01-11T08:57:00Z</time>
      </trkpt>
      <trkpt lat="44.08683" lon="7.02191">
        <ele>1786.7473144531</ele>
        <time>2020-01-11T08:57:10Z</time>
      </trkpt>
      <trkpt lat="44.08681" lon="7.02206">
        <ele>1783.8635253906</ele>
        <time>2020-01-11T08:57:19Z</time>
      </trkpt>
      <trkpt lat="44.08679" lon="7.02218">
        <ele>1781.4602050781</ele>
        <time>2020-01-11T08:57:29Z</time>
      </trkpt>
      <trkpt lat="44.08676" lon="7.02231">
        <ele>1778.5764160156</ele>
        <time>2020-01-11T08:57:38Z</time>
      </trkpt>
      <trkpt lat="44.08673" lon="7.02245">
        <ele>1775.2116699219</ele>
        <time>2020-01-11T08:57:47Z</time>
      </trkpt>
      <trkpt lat="44.08671" lon="7.02257">
        <ele>1773.2893066406</ele>
        <time>2020-01-11T08:57:58Z</time>
      </trkpt>
      <trkpt lat="44.08671" lon="7.02269">
        <ele>1769.4438476562</ele>
        <time>2020-01-11T08:58:10Z</time>
      </trkpt>
      <trkpt lat="44.08672" lon="7.02282">
        <ele>1764.6372070312</ele>
        <time>2020-01-11T08:58:25Z</time>
      </trkpt>
      <trkpt lat="44.08671" lon="7.02297">
        <ele>1759.3500976562</ele>
        <time>2020-01-11T08:58:38Z</time>
      </trkpt>
      <trkpt lat="44.08672" lon="7.0231">
        <ele>1755.9851074219</ele>
        <time>2020-01-11T08:58:53Z</time>
      </trkpt>
      <trkpt lat="44.0868" lon="7.0232">
        <ele>1754.5432128906</ele>
        <time>2020-01-11T08:59:05Z</time>
      </trkpt>
      <trkpt lat="44.08683" lon="7.02329">
        <ele>1751.6594238281</ele>
        <time>2020-01-11T08:59:22Z</time>
      </trkpt>
      <trkpt lat="44.08676" lon="7.02317">
        <ele>1752.6206054688</ele>
        <time>2020-01-11T09:01:05Z</time>
      </trkpt>
      <trkpt lat="44.08668" lon="7.02306">
        <ele>1753.1013183594</ele>
        <time>2020-01-11T09:01:20Z</time>
      </trkpt>
      <trkpt lat="44.08658" lon="7.02296">
        <ele>1754.0627441406</ele>
        <time>2020-01-11T09:01:31Z</time>
      </trkpt>
      <trkpt lat="44.0865" lon="7.02289">
        <ele>1753.58203125</ele>
        <time>2020-01-11T09:01:42Z</time>
      </trkpt>
      <trkpt lat="44.08644" lon="7.02289">
        <ele>1754.5432128906</ele>
        <time>2020-01-11T09:02:14Z</time>
      </trkpt>
      <trkpt lat="44.08637" lon="7.023">
        <ele>1750.2175292969</ele>
        <time>2020-01-11T09:03:06Z</time>
      </trkpt>
      <trkpt lat="44.08633" lon="7.02316">
        <ele>1746.3723144531</ele>
        <time>2020-01-11T09:03:44Z</time>
      </trkpt>
      <trkpt lat="44.08626" lon="7.02321">
        <ele>1742.5270996094</ele>
        <time>2020-01-11T09:04:06Z</time>
      </trkpt>
      <trkpt lat="44.08617" lon="7.0232">
        <ele>1740.6042480469</ele>
        <time>2020-01-11T09:04:17Z</time>
      </trkpt>
      <trkpt lat="44.08608" lon="7.02319">
        <ele>1738.681640625</ele>
        <time>2020-01-11T09:04:28Z</time>
      </trkpt>
      <trkpt lat="44.08599" lon="7.02326">
        <ele>1736.2783203125</ele>
        <time>2020-01-11T09:04:40Z</time>
      </trkpt>
      <trkpt lat="44.08591" lon="7.02331">
        <ele>1733.875</ele>
        <time>2020-01-11T09:04:50Z</time>
      </trkpt>
      <trkpt lat="44.08581" lon="7.02328">
        <ele>1731.4716796875</ele>
        <time>2020-01-11T09:05:01Z</time>
      </trkpt>
      <trkpt lat="44.0857" lon="7.02328">
        <ele>1729.068359375</ele>
        <time>2020-01-11T09:05:12Z</time>
      </trkpt>
      <trkpt lat="44.08559" lon="7.02326">
        <ele>1727.1459960938</ele>
        <time>2020-01-11T09:05:23Z</time>
      </trkpt>
      <trkpt lat="44.08549" lon="7.02324">
        <ele>1726.1845703125</ele>
        <time>2020-01-11T09:05:33Z</time>
      </trkpt>
      <trkpt lat="44.08538" lon="7.02328">
        <ele>1725.7038574219</ele>
        <time>2020-01-11T09:05:43Z</time>
      </trkpt>
      <trkpt lat="44.08529" lon="7.02334">
        <ele>1724.7426757812</ele>
        <time>2020-01-11T09:05:52Z</time>
      </trkpt>
      <trkpt lat="44.08521" lon="7.02343">
        <ele>1722.3391113281</ele>
        <time>2020-01-11T09:06:02Z</time>
      </trkpt>
      <trkpt lat="44.08513" lon="7.0235">
        <ele>1722.3391113281</ele>
        <time>2020-01-11T09:06:14Z</time>
      </trkpt>
      <trkpt lat="44.08505" lon="7.02355">
        <ele>1723.3005371094</ele>
        <time>2020-01-11T09:06:55Z</time>
      </trkpt>
      <trkpt lat="44.08495" lon="7.02349">
        <ele>1723.3005371094</ele>
        <time>2020-01-11T09:07:08Z</time>
      </trkpt>
      <trkpt lat="44.08486" lon="7.02343">
        <ele>1724.2619628906</ele>
        <time>2020-01-11T09:07:19Z</time>
      </trkpt>
      <trkpt lat="44.08477" lon="7.02337">
        <ele>1725.2231445312</ele>
        <time>2020-01-11T09:07:31Z</time>
      </trkpt>
      <trkpt lat="44.08468" lon="7.02334">
        <ele>1727.6264648438</ele>
        <time>2020-01-11T09:07:46Z</time>
      </trkpt>
      <trkpt lat="44.08458" lon="7.02335">
        <ele>1729.068359375</ele>
        <time>2020-01-11T09:08:00Z</time>
      </trkpt>
      <trkpt lat="44.08447" lon="7.02332">
        <ele>1731.9523925781</ele>
        <time>2020-01-11T09:08:15Z</time>
      </trkpt>
      <trkpt lat="44.08438" lon="7.02333">
        <ele>1732.4331054688</ele>
        <time>2020-01-11T09:08:33Z</time>
      </trkpt>
      <trkpt lat="44.08429" lon="7.02328">
        <ele>1734.8364257812</ele>
        <time>2020-01-11T09:08:48Z</time>
      </trkpt>
      <trkpt lat="44.0842" lon="7.02324">
        <ele>1735.7976074219</ele>
        <time>2020-01-11T09:09:03Z</time>
      </trkpt>
      <trkpt lat="44.0841" lon="7.02318">
        <ele>1736.2783203125</ele>
        <time>2020-01-11T09:09:15Z</time>
      </trkpt>
      <trkpt lat="44.08401" lon="7.02315">
        <ele>1737.2395019531</ele>
        <time>2020-01-11T09:09:27Z</time>
      </trkpt>
      <trkpt lat="44.08391" lon="7.02313">
        <ele>1737.2395019531</ele>
        <time>2020-01-11T09:09:39Z</time>
      </trkpt>
      <trkpt lat="44.08383" lon="7.02314">
        <ele>1736.7587890625</ele>
        <time>2020-01-11T09:09:49Z</time>
      </trkpt>
      <trkpt lat="44.08374" lon="7.02312">
        <ele>1737.7202148438</ele>
        <time>2020-01-11T09:10:00Z</time>
      </trkpt>
      <trkpt lat="44.08364" lon="7.02314">
        <ele>1738.2009277344</ele>
        <time>2020-01-11T09:10:11Z</time>
      </trkpt>
      <trkpt lat="44.08355" lon="7.02313">
        <ele>1738.681640625</ele>
        <time>2020-01-11T09:10:22Z</time>
      </trkpt>
      <trkpt lat="44.08345" lon="7.02309">
        <ele>1739.6428222656</ele>
        <time>2020-01-11T09:10:52Z</time>
      </trkpt>
      <trkpt lat="44.08336" lon="7.02308">
        <ele>1739.6428222656</ele>
        <time>2020-01-11T09:11:01Z</time>
      </trkpt>
      <trkpt lat="44.08327" lon="7.02304">
        <ele>1738.2009277344</ele>
        <time>2020-01-11T09:11:10Z</time>
      </trkpt>
      <trkpt lat="44.08318" lon="7.02302">
        <ele>1737.2395019531</ele>
        <time>2020-01-11T09:11:19Z</time>
      </trkpt>
      <trkpt lat="44.08315" lon="7.02292">
        <ele>1736.7587890625</ele>
        <time>2020-01-11T09:11:31Z</time>
      </trkpt>
      <trkpt lat="44.08314" lon="7.02291">
        <ele>1736.7587890625</ele>
        <time>2020-01-11T09:11:52Z</time>
      </trkpt>
      <trkpt lat="44.08305" lon="7.02291">
        <ele>1735.7976074219</ele>
        <time>2020-01-11T09:12:01Z</time>
      </trkpt>
      <trkpt lat="44.08297" lon="7.02287">
        <ele>1734.8364257812</ele>
        <time>2020-01-11T09:12:10Z</time>
      </trkpt>
      <trkpt lat="44.08287" lon="7.02288">
        <ele>1733.875</ele>
        <time>2020-01-11T09:12:19Z</time>
      </trkpt>
      <trkpt lat="44.08278" lon="7.02285">
        <ele>1732.4331054688</ele>
        <time>2020-01-11T09:12:29Z</time>
      </trkpt>
      <trkpt lat="44.08268" lon="7.02286">
        <ele>1731.4716796875</ele>
        <time>2020-01-11T09:12:39Z</time>
      </trkpt>
      <trkpt lat="44.0826" lon="7.02281">
        <ele>1730.0297851562</ele>
        <time>2020-01-11T09:12:48Z</time>
      </trkpt>
      <trkpt lat="44.08252" lon="7.02276">
        <ele>1729.068359375</ele>
        <time>2020-01-11T09:12:57Z</time>
      </trkpt>
      <trkpt lat="44.08243" lon="7.02273">
        <ele>1727.1459960938</ele>
        <time>2020-01-11T09:13:07Z</time>
      </trkpt>
      <trkpt lat="44.08233" lon="7.02272">
        <ele>1725.7038574219</ele>
        <time>2020-01-11T09:13:38Z</time>
      </trkpt>
      <trkpt lat="44.08223" lon="7.02275">
        <ele>1723.7810058594</ele>
        <time>2020-01-11T09:13:48Z</time>
      </trkpt>
      <trkpt lat="44.08214" lon="7.0228">
        <ele>1720.8972167969</ele>
        <time>2020-01-11T09:13:59Z</time>
      </trkpt>
      <trkpt lat="44.08206" lon="7.02282">
        <ele>1718.0131835938</ele>
        <time>2020-01-11T09:14:18Z</time>
      </trkpt>
      <trkpt lat="44.08194" lon="7.02282">
        <ele>1715.6101074219</ele>
        <time>2020-01-11T09:14:30Z</time>
      </trkpt>
      <trkpt lat="44.08187" lon="7.02273">
        <ele>1713.6872558594</ele>
        <time>2020-01-11T09:14:43Z</time>
      </trkpt>
      <trkpt lat="44.08179" lon="7.02267">
        <ele>1711.7648925781</ele>
        <time>2020-01-11T09:15:06Z</time>
      </trkpt>
      <trkpt lat="44.08168" lon="7.02262">
        <ele>1709.8420410156</ele>
        <time>2020-01-11T09:15:17Z</time>
      </trkpt>
      <trkpt lat="44.08161" lon="7.02269">
        <ele>1707.9194335938</ele>
        <time>2020-01-11T09:15:54Z</time>
      </trkpt>
      <trkpt lat="44.08153" lon="7.02281">
        <ele>1705.0354003906</ele>
        <time>2020-01-11T09:16:15Z</time>
      </trkpt>
      <trkpt lat="44.08147" lon="7.02294">
        <ele>1704.5546875</ele>
        <time>2020-01-11T09:16:33Z</time>
      </trkpt>
      <trkpt lat="44.08139" lon="7.0231">
        <ele>1703.1127929688</ele>
        <time>2020-01-11T09:16:57Z</time>
      </trkpt>
      <trkpt lat="44.08134" lon="7.02319">
        <ele>1702.6320800781</ele>
        <time>2020-01-11T09:17:12Z</time>
      </trkpt>
      <trkpt lat="44.08123" lon="7.0232">
        <ele>1702.6320800781</ele>
        <time>2020-01-11T09:17:26Z</time>
      </trkpt>
      <trkpt lat="44.08113" lon="7.02319">
        <ele>1702.6320800781</ele>
        <time>2020-01-11T09:17:39Z</time>
      </trkpt>
      <trkpt lat="44.08105" lon="7.02313">
        <ele>1703.1127929688</ele>
        <time>2020-01-11T09:17:53Z</time>
      </trkpt>
      <trkpt lat="44.08097" lon="7.02302">
        <ele>1703.5935058594</ele>
        <time>2020-01-11T09:18:06Z</time>
      </trkpt>
      <trkpt lat="44.0809" lon="7.02294">
        <ele>1703.5935058594</ele>
        <time>2020-01-11T09:18:19Z</time>
      </trkpt>
      <trkpt lat="44.08079" lon="7.0229">
        <ele>1705.0354003906</ele>
        <time>2020-01-11T09:18:35Z</time>
      </trkpt>
      <trkpt lat="44.0807" lon="7.02292">
        <ele>1706.4772949219</ele>
        <time>2020-01-11T09:18:55Z</time>
      </trkpt>
      <trkpt lat="44.08061" lon="7.02287">
        <ele>1707.9194335938</ele>
        <time>2020-01-11T09:19:13Z</time>
      </trkpt>
      <trkpt lat="44.08052" lon="7.02281">
        <ele>1708.880859375</ele>
        <time>2020-01-11T09:19:27Z</time>
      </trkpt>
      <trkpt lat="44.08042" lon="7.02271">
        <ele>1710.8034667969</ele>
        <time>2020-01-11T09:19:42Z</time>
      </trkpt>
      <trkpt lat="44.08037" lon="7.02263">
        <ele>1711.7648925781</ele>
        <time>2020-01-11T09:19:55Z</time>
      </trkpt>
      <trkpt lat="44.0803" lon="7.02254">
        <ele>1713.2067871094</ele>
        <time>2020-01-11T09:20:10Z</time>
      </trkpt>
      <trkpt lat="44.08024" lon="7.02244">
        <ele>1715.1293945312</ele>
        <time>2020-01-11T09:20:24Z</time>
      </trkpt>
      <trkpt lat="44.08017" lon="7.02233">
        <ele>1716.0905761719</ele>
        <time>2020-01-11T09:20:39Z</time>
      </trkpt>
      <trkpt lat="44.08011" lon="7.02223">
        <ele>1717.5324707031</ele>
        <time>2020-01-11T09:20:52Z</time>
      </trkpt>
      <trkpt lat="44.08004" lon="7.02215">
        <ele>1718.4938964844</ele>
        <time>2020-01-11T09:21:04Z</time>
      </trkpt>
      <trkpt lat="44.07997" lon="7.02207">
        <ele>1718.974609375</ele>
        <time>2020-01-11T09:21:16Z</time>
      </trkpt>
      <trkpt lat="44.07988" lon="7.02199">
        <ele>1719.9357910156</ele>
        <time>2020-01-11T09:21:28Z</time>
      </trkpt>
      <trkpt lat="44.07981" lon="7.02191">
        <ele>1721.3776855469</ele>
        <time>2020-01-11T09:21:42Z</time>
      </trkpt>
      <trkpt lat="44.07973" lon="7.02181">
        <ele>1722.8198242188</ele>
        <time>2020-01-11T09:21:56Z</time>
      </trkpt>
      <trkpt lat="44.07965" lon="7.02173">
        <ele>1724.2619628906</ele>
        <time>2020-01-11T09:22:10Z</time>
      </trkpt>
      <trkpt lat="44.07957" lon="7.02163">
        <ele>1725.7038574219</ele>
        <time>2020-01-11T09:22:24Z</time>
      </trkpt>
      <trkpt lat="44.07948" lon="7.02155">
        <ele>1726.6652832031</ele>
        <time>2020-01-11T09:22:37Z</time>
      </trkpt>
      <trkpt lat="44.07939" lon="7.02146">
        <ele>1728.1071777344</ele>
        <time>2020-01-11T09:22:51Z</time>
      </trkpt>
      <trkpt lat="44.07933" lon="7.02137">
        <ele>1728.587890625</ele>
        <time>2020-01-11T09:23:03Z</time>
      </trkpt>
      <trkpt lat="44.07926" lon="7.02127">
        <ele>1730.5104980469</ele>
        <time>2020-01-11T09:23:16Z</time>
      </trkpt>
      <trkpt lat="44.07918" lon="7.02121">
        <ele>1731.9523925781</ele>
        <time>2020-01-11T09:23:29Z</time>
      </trkpt>
      <trkpt lat="44.07912" lon="7.02115">
        <ele>1733.875</ele>
        <time>2020-01-11T09:23:45Z</time>
      </trkpt>
      <trkpt lat="44.07902" lon="7.02109">
        <ele>1735.7976074219</ele>
        <time>2020-01-11T09:24:01Z</time>
      </trkpt>
      <trkpt lat="44.07893" lon="7.02098">
        <ele>1738.2009277344</ele>
        <time>2020-01-11T09:24:17Z</time>
      </trkpt>
      <trkpt lat="44.07885" lon="7.02089">
        <ele>1740.1237792969</ele>
        <time>2020-01-11T09:24:33Z</time>
      </trkpt>
      <trkpt lat="44.07879" lon="7.02078">
        <ele>1741.5656738281</ele>
        <time>2020-01-11T09:24:46Z</time>
      </trkpt>
      <trkpt lat="44.07872" lon="7.0207">
        <ele>1742.5270996094</ele>
        <time>2020-01-11T09:24:59Z</time>
      </trkpt>
      <trkpt lat="44.07863" lon="7.02061">
        <ele>1743.9689941406</ele>
        <time>2020-01-11T09:25:11Z</time>
      </trkpt>
      <trkpt lat="44.07856" lon="7.02054">
        <ele>1745.4108886719</ele>
        <time>2020-01-11T09:25:24Z</time>
      </trkpt>
      <trkpt lat="44.07847" lon="7.02047">
        <ele>1746.8527832031</ele>
        <time>2020-01-11T09:25:39Z</time>
      </trkpt>
      <trkpt lat="44.07839" lon="7.02039">
        <ele>1748.2946777344</ele>
        <time>2020-01-11T09:25:52Z</time>
      </trkpt>
      <trkpt lat="44.07831" lon="7.02031">
        <ele>1749.7368164062</ele>
        <time>2020-01-11T09:26:05Z</time>
      </trkpt>
      <trkpt lat="44.07822" lon="7.02028">
        <ele>1751.6594238281</ele>
        <time>2020-01-11T09:26:18Z</time>
      </trkpt>
      <trkpt lat="44.07813" lon="7.02023">
        <ele>1753.58203125</ele>
        <time>2020-01-11T09:26:31Z</time>
      </trkpt>
      <trkpt lat="44.07804" lon="7.02019">
        <ele>1755.5046386719</ele>
        <time>2020-01-11T09:26:47Z</time>
      </trkpt>
      <trkpt lat="44.07793" lon="7.02017">
        <ele>1757.4274902344</ele>
        <time>2020-01-11T09:27:00Z</time>
      </trkpt>
      <trkpt lat="44.07782" lon="7.02013">
        <ele>1758.8693847656</ele>
        <time>2020-01-11T09:27:14Z</time>
      </trkpt>
      <trkpt lat="44.07775" lon="7.02009">
        <ele>1760.7919921875</ele>
        <time>2020-01-11T09:27:30Z</time>
      </trkpt>
      <trkpt lat="44.07766" lon="7.0201">
        <ele>1762.2338867188</ele>
        <time>2020-01-11T09:27:44Z</time>
      </trkpt>
      <trkpt lat="44.07757" lon="7.02013">
        <ele>1763.67578125</ele>
        <time>2020-01-11T09:27:56Z</time>
      </trkpt>
      <trkpt lat="44.07751" lon="7.02029">
        <ele>1765.5986328125</ele>
        <time>2020-01-11T09:28:10Z</time>
      </trkpt>
      <trkpt lat="44.07742" lon="7.02043">
        <ele>1767.0405273438</ele>
        <time>2020-01-11T09:28:25Z</time>
      </trkpt>
      <trkpt lat="44.07735" lon="7.02049">
        <ele>1768.482421875</ele>
        <time>2020-01-11T09:28:38Z</time>
      </trkpt>
      <trkpt lat="44.07727" lon="7.02058">
        <ele>1769.4438476562</ele>
        <time>2020-01-11T09:28:51Z</time>
      </trkpt>
      <trkpt lat="44.07719" lon="7.02068">
        <ele>1769.9243164062</ele>
        <time>2020-01-11T09:29:02Z</time>
      </trkpt>
      <trkpt lat="44.0771" lon="7.02081">
        <ele>1770.4050292969</ele>
        <time>2020-01-11T09:29:14Z</time>
      </trkpt>
      <trkpt lat="44.07702" lon="7.02094">
        <ele>1770.8857421875</ele>
        <time>2020-01-11T09:29:25Z</time>
      </trkpt>
      <trkpt lat="44.07695" lon="7.02108">
        <ele>1770.8857421875</ele>
        <time>2020-01-11T09:29:36Z</time>
      </trkpt>
      <trkpt lat="44.07694" lon="7.02117">
        <ele>1771.3662109375</ele>
        <time>2020-01-11T09:29:56Z</time>
      </trkpt>
      <trkpt lat="44.07689" lon="7.02132">
        <ele>1771.3662109375</ele>
        <time>2020-01-11T09:30:09Z</time>
      </trkpt>
      <trkpt lat="44.07684" lon="7.02146">
        <ele>1771.3662109375</ele>
        <time>2020-01-11T09:30:19Z</time>
      </trkpt>
      <trkpt lat="44.07677" lon="7.02158">
        <ele>1770.8857421875</ele>
        <time>2020-01-11T09:30:29Z</time>
      </trkpt>
      <trkpt lat="44.07674" lon="7.02169">
        <ele>1770.8857421875</ele>
        <time>2020-01-11T09:30:40Z</time>
      </trkpt>
      <trkpt lat="44.07666" lon="7.02183">
        <ele>1770.8857421875</ele>
        <time>2020-01-11T09:30:52Z</time>
      </trkpt>
      <trkpt lat="44.0766" lon="7.02193">
        <ele>1770.8857421875</ele>
        <time>2020-01-11T09:31:03Z</time>
      </trkpt>
      <trkpt lat="44.07654" lon="7.02204">
        <ele>1770.8857421875</ele>
        <time>2020-01-11T09:31:13Z</time>
      </trkpt>
      <trkpt lat="44.07647" lon="7.02212">
        <ele>1770.8857421875</ele>
        <time>2020-01-11T09:31:26Z</time>
      </trkpt>
      <trkpt lat="44.07639" lon="7.02225">
        <ele>1770.8857421875</ele>
        <time>2020-01-11T09:31:38Z</time>
      </trkpt>
      <trkpt lat="44.0763" lon="7.02233">
        <ele>1770.8857421875</ele>
        <time>2020-01-11T09:31:49Z</time>
      </trkpt>
      <trkpt lat="44.07622" lon="7.02243">
        <ele>1770.4050292969</ele>
        <time>2020-01-11T09:31:59Z</time>
      </trkpt>
      <trkpt lat="44.07613" lon="7.02251">
        <ele>1769.9243164062</ele>
        <time>2020-01-11T09:32:10Z</time>
      </trkpt>
      <trkpt lat="44.07605" lon="7.02259">
        <ele>1770.4050292969</ele>
        <time>2020-01-11T09:32:22Z</time>
      </trkpt>
      <trkpt lat="44.07597" lon="7.02264">
        <ele>1769.9243164062</ele>
        <time>2020-01-11T09:32:34Z</time>
      </trkpt>
      <trkpt lat="44.07587" lon="7.0227">
        <ele>1769.9243164062</ele>
        <time>2020-01-11T09:32:44Z</time>
      </trkpt>
      <trkpt lat="44.07578" lon="7.02275">
        <ele>1769.4438476562</ele>
        <time>2020-01-11T09:32:55Z</time>
      </trkpt>
      <trkpt lat="44.07569" lon="7.02281">
        <ele>1769.4438476562</ele>
        <time>2020-01-11T09:33:05Z</time>
      </trkpt>
      <trkpt lat="44.07561" lon="7.02288">
        <ele>1768.9631347656</ele>
        <time>2020-01-11T09:33:16Z</time>
      </trkpt>
      <trkpt lat="44.07549" lon="7.02293">
        <ele>1768.482421875</ele>
        <time>2020-01-11T09:33:27Z</time>
      </trkpt>
      <trkpt lat="44.07541" lon="7.02301">
        <ele>1768.482421875</ele>
        <time>2020-01-11T09:33:37Z</time>
      </trkpt>
      <trkpt lat="44.07533" lon="7.02307">
        <ele>1768.9631347656</ele>
        <time>2020-01-11T09:33:48Z</time>
      </trkpt>
      <trkpt lat="44.07523" lon="7.02322">
        <ele>1768.9631347656</ele>
        <time>2020-01-11T09:34:00Z</time>
      </trkpt>
      <trkpt lat="44.07513" lon="7.02334">
        <ele>1769.4438476562</ele>
        <time>2020-01-11T09:34:12Z</time>
      </trkpt>
      <trkpt lat="44.07504" lon="7.02334">
        <ele>1770.8857421875</ele>
        <time>2020-01-11T09:34:25Z</time>
      </trkpt>
      <trkpt lat="44.07494" lon="7.02331">
        <ele>1773.2893066406</ele>
        <time>2020-01-11T09:34:39Z</time>
      </trkpt>
      <trkpt lat="44.07485" lon="7.02333">
        <ele>1775.2116699219</ele>
        <time>2020-01-11T09:34:53Z</time>
      </trkpt>
      <trkpt lat="44.07477" lon="7.02332">
        <ele>1775.6923828125</ele>
        <time>2020-01-11T09:39:18Z</time>
      </trkpt>
      <trkpt lat="44.07466" lon="7.0234">
        <ele>1776.1730957031</ele>
        <time>2020-01-11T09:40:52Z</time>
      </trkpt>
      <trkpt lat="44.07457" lon="7.02349">
        <ele>1776.1730957031</ele>
        <time>2020-01-11T09:41:02Z</time>
      </trkpt>
      <trkpt lat="44.07448" lon="7.02358">
        <ele>1776.6538085938</ele>
        <time>2020-01-11T09:41:11Z</time>
      </trkpt>
      <trkpt lat="44.07439" lon="7.02368">
        <ele>1776.1730957031</ele>
        <time>2020-01-11T09:41:20Z</time>
      </trkpt>
      <trkpt lat="44.07429" lon="7.02377">
        <ele>1776.6538085938</ele>
        <time>2020-01-11T09:41:36Z</time>
      </trkpt>
      <trkpt lat="44.07421" lon="7.02385">
        <ele>1776.1730957031</ele>
        <time>2020-01-11T09:41:46Z</time>
      </trkpt>
      <trkpt lat="44.07414" lon="7.02394">
        <ele>1776.6538085938</ele>
        <time>2020-01-11T09:41:57Z</time>
      </trkpt>
      <trkpt lat="44.07405" lon="7.02402">
        <ele>1778.095703125</ele>
        <time>2020-01-11T09:42:06Z</time>
      </trkpt>
      <trkpt lat="44.07398" lon="7.0241">
        <ele>1777.6149902344</ele>
        <time>2020-01-11T09:42:16Z</time>
      </trkpt>
      <trkpt lat="44.0739" lon="7.02419">
        <ele>1777.1345214844</ele>
        <time>2020-01-11T09:42:26Z</time>
      </trkpt>
      <trkpt lat="44.07382" lon="7.02425">
        <ele>1776.6538085938</ele>
        <time>2020-01-11T09:42:36Z</time>
      </trkpt>
      <trkpt lat="44.07374" lon="7.02434">
        <ele>1778.095703125</ele>
        <time>2020-01-11T09:42:46Z</time>
      </trkpt>
      <trkpt lat="44.07366" lon="7.02442">
        <ele>1777.6149902344</ele>
        <time>2020-01-11T09:42:56Z</time>
      </trkpt>
      <trkpt lat="44.07358" lon="7.02449">
        <ele>1778.095703125</ele>
        <time>2020-01-11T09:43:07Z</time>
      </trkpt>
      <trkpt lat="44.0735" lon="7.02455">
        <ele>1779.5375976562</ele>
        <time>2020-01-11T09:43:17Z</time>
      </trkpt>
      <trkpt lat="44.07343" lon="7.02461">
        <ele>1779.0568847656</ele>
        <time>2020-01-11T09:43:27Z</time>
      </trkpt>
      <trkpt lat="44.07334" lon="7.02469">
        <ele>1780.0183105469</ele>
        <time>2020-01-11T09:43:57Z</time>
      </trkpt>
      <trkpt lat="44.07323" lon="7.02472">
        <ele>1780.0183105469</ele>
        <time>2020-01-11T09:44:07Z</time>
      </trkpt>
      <trkpt lat="44.07315" lon="7.02472">
        <ele>1780.4990234375</ele>
        <time>2020-01-11T09:44:17Z</time>
      </trkpt>
      <trkpt lat="44.07305" lon="7.02475">
        <ele>1780.9797363281</ele>
        <time>2020-01-11T09:44:28Z</time>
      </trkpt>
      <trkpt lat="44.07297" lon="7.02477">
        <ele>1781.4602050781</ele>
        <time>2020-01-11T09:44:39Z</time>
      </trkpt>
      <trkpt lat="44.07287" lon="7.02482">
        <ele>1781.4602050781</ele>
        <time>2020-01-11T09:44:52Z</time>
      </trkpt>
      <trkpt lat="44.07277" lon="7.02486">
        <ele>1781.4602050781</ele>
        <time>2020-01-11T09:45:04Z</time>
      </trkpt>
      <trkpt lat="44.07269" lon="7.02491">
        <ele>1783.3828125</ele>
        <time>2020-01-11T09:45:16Z</time>
      </trkpt>
      <trkpt lat="44.0726" lon="7.02498">
        <ele>1785.3054199219</ele>
        <time>2020-01-11T09:45:27Z</time>
      </trkpt>
      <trkpt lat="44.07251" lon="7.02504">
        <ele>1785.3054199219</ele>
        <time>2020-01-11T09:45:40Z</time>
      </trkpt>
      <trkpt lat="44.07242" lon="7.02509">
        <ele>1785.7861328125</ele>
        <time>2020-01-11T09:45:53Z</time>
      </trkpt>
      <trkpt lat="44.07232" lon="7.02516">
        <ele>1786.2668457031</ele>
        <time>2020-01-11T09:46:03Z</time>
      </trkpt>
      <trkpt lat="44.07224" lon="7.02522">
        <ele>1786.2668457031</ele>
        <time>2020-01-11T09:46:14Z</time>
      </trkpt>
      <trkpt lat="44.07216" lon="7.02526">
        <ele>1788.1896972656</ele>
        <time>2020-01-11T09:46:25Z</time>
      </trkpt>
      <trkpt lat="44.07208" lon="7.02533">
        <ele>1789.1508789062</ele>
        <time>2020-01-11T09:46:39Z</time>
      </trkpt>
      <trkpt lat="44.07197" lon="7.02538">
        <ele>1788.6704101562</ele>
        <time>2020-01-11T09:46:50Z</time>
      </trkpt>
      <trkpt lat="44.07188" lon="7.02542">
        <ele>1791.0734863281</ele>
        <time>2020-01-11T09:47:03Z</time>
      </trkpt>
      <trkpt lat="44.07179" lon="7.02547">
        <ele>1791.5541992188</ele>
        <time>2020-01-11T09:47:15Z</time>
      </trkpt>
      <trkpt lat="44.0717" lon="7.02557">
        <ele>1792.0349121094</ele>
        <time>2020-01-11T09:47:28Z</time>
      </trkpt>
      <trkpt lat="44.07163" lon="7.0256">
        <ele>1793.4768066406</ele>
        <time>2020-01-11T09:47:39Z</time>
      </trkpt>
      <trkpt lat="44.07153" lon="7.02567">
        <ele>1793.9575195312</ele>
        <time>2020-01-11T09:47:49Z</time>
      </trkpt>
      <trkpt lat="44.07144" lon="7.02571">
        <ele>1792.99609375</ele>
        <time>2020-01-11T09:47:59Z</time>
      </trkpt>
      <trkpt lat="44.07136" lon="7.02578">
        <ele>1793.4768066406</ele>
        <time>2020-01-11T09:48:09Z</time>
      </trkpt>
      <trkpt lat="44.07127" lon="7.02581">
        <ele>1792.515625</ele>
        <time>2020-01-11T09:48:19Z</time>
      </trkpt>
      <trkpt lat="44.07118" lon="7.02581">
        <ele>1792.515625</ele>
        <time>2020-01-11T09:48:29Z</time>
      </trkpt>
      <trkpt lat="44.0711" lon="7.02587">
        <ele>1793.4768066406</ele>
        <time>2020-01-11T09:48:40Z</time>
      </trkpt>
      <trkpt lat="44.07098" lon="7.02594">
        <ele>1794.4379882812</ele>
        <time>2020-01-11T09:48:51Z</time>
      </trkpt>
      <trkpt lat="44.07088" lon="7.02596">
        <ele>1794.9187011719</ele>
        <time>2020-01-11T09:49:05Z</time>
      </trkpt>
      <trkpt lat="44.07093" lon="7.02581">
        <ele>1794.9187011719</ele>
        <time>2020-01-11T09:49:55Z</time>
      </trkpt>
      <trkpt lat="44.07093" lon="7.02587">
        <ele>1794.4379882812</ele>
        <time>2020-01-11T09:54:24Z</time>
      </trkpt>
      <trkpt lat="44.07083" lon="7.02581">
        <ele>1795.3994140625</ele>
        <time>2020-01-11T09:54:37Z</time>
      </trkpt>
      <trkpt lat="44.07074" lon="7.02574">
        <ele>1796.8413085938</ele>
        <time>2020-01-11T09:54:50Z</time>
      </trkpt>
      <trkpt lat="44.07065" lon="7.02561">
        <ele>1798.7639160156</ele>
        <time>2020-01-11T09:55:06Z</time>
      </trkpt>
      <trkpt lat="44.07057" lon="7.02549">
        <ele>1801.1672363281</ele>
        <time>2020-01-11T09:55:22Z</time>
      </trkpt>
      <trkpt lat="44.0705" lon="7.02538">
        <ele>1803.5705566406</ele>
        <time>2020-01-11T09:55:40Z</time>
      </trkpt>
      <trkpt lat="44.07042" lon="7.02529">
        <ele>1806.9353027344</ele>
        <time>2020-01-11T09:56:03Z</time>
      </trkpt>
      <trkpt lat="44.07037" lon="7.02514">
        <ele>1809.8190917969</ele>
        <time>2020-01-11T09:56:26Z</time>
      </trkpt>
      <trkpt lat="44.07032" lon="7.02502">
        <ele>1811.2612304688</ele>
        <time>2020-01-11T09:56:46Z</time>
      </trkpt>
      <trkpt lat="44.0703" lon="7.02489">
        <ele>1815.1064453125</ele>
        <time>2020-01-11T09:57:06Z</time>
      </trkpt>
      <trkpt lat="44.0703" lon="7.02479">
        <ele>1815.5871582031</ele>
        <time>2020-01-11T09:57:20Z</time>
      </trkpt>
      <trkpt lat="44.07027" lon="7.02466">
        <ele>1816.0676269531</ele>
        <time>2020-01-11T09:57:35Z</time>
      </trkpt>
      <trkpt lat="44.07025" lon="7.02454">
        <ele>1818.4709472656</ele>
        <time>2020-01-11T09:57:50Z</time>
      </trkpt>
      <trkpt lat="44.07022" lon="7.02439">
        <ele>1819.9128417969</ele>
        <time>2020-01-11T09:58:06Z</time>
      </trkpt>
      <trkpt lat="44.07019" lon="7.02427">
        <ele>1821.3549804688</ele>
        <time>2020-01-11T09:58:23Z</time>
      </trkpt>
      <trkpt lat="44.07016" lon="7.02416">
        <ele>1822.7971191406</ele>
        <time>2020-01-11T09:58:38Z</time>
      </trkpt>
      <trkpt lat="44.07012" lon="7.02403">
        <ele>1826.6423339844</ele>
        <time>2020-01-11T09:58:54Z</time>
      </trkpt>
      <trkpt lat="44.07006" lon="7.02389">
        <ele>1825.6809082031</ele>
        <time>2020-01-11T09:59:16Z</time>
      </trkpt>
      <trkpt lat="44.06999" lon="7.02373">
        <ele>1829.5261230469</ele>
        <time>2020-01-11T09:59:33Z</time>
      </trkpt>
      <trkpt lat="44.06998" lon="7.02358">
        <ele>1830.4875488281</ele>
        <time>2020-01-11T09:59:49Z</time>
      </trkpt>
      <trkpt lat="44.06999" lon="7.02348">
        <ele>1832.890625</ele>
        <time>2020-01-11T10:00:06Z</time>
      </trkpt>
      <trkpt lat="44.07002" lon="7.02335">
        <ele>1837.6975097656</ele>
        <time>2020-01-11T10:00:28Z</time>
      </trkpt>
      <trkpt lat="44.07002" lon="7.02324">
        <ele>1840.1008300781</ele>
        <time>2020-01-11T10:00:44Z</time>
      </trkpt>
      <trkpt lat="44.06997" lon="7.02308">
        <ele>1843.4653320312</ele>
        <time>2020-01-11T10:01:05Z</time>
      </trkpt>
      <trkpt lat="44.06996" lon="7.02295">
        <ele>1844.4265136719</ele>
        <time>2020-01-11T10:01:22Z</time>
      </trkpt>
      <trkpt lat="44.06989" lon="7.02288">
        <ele>1847.7912597656</ele>
        <time>2020-01-11T10:01:44Z</time>
      </trkpt>
      <trkpt lat="44.06983" lon="7.02278">
        <ele>1850.1945800781</ele>
        <time>2020-01-11T10:02:05Z</time>
      </trkpt>
      <trkpt lat="44.06978" lon="7.02263">
        <ele>1854.5205078125</ele>
        <time>2020-01-11T10:02:30Z</time>
      </trkpt>
      <trkpt lat="44.06972" lon="7.0225">
        <ele>1856.923828125</ele>
        <time>2020-01-11T10:02:56Z</time>
      </trkpt>
      <trkpt lat="44.06969" lon="7.02236">
        <ele>1859.8076171875</ele>
        <time>2020-01-11T10:03:17Z</time>
      </trkpt>
      <trkpt lat="44.06967" lon="7.02225">
        <ele>1862.6916503906</ele>
        <time>2020-01-11T10:03:45Z</time>
      </trkpt>
      <trkpt lat="44.0696" lon="7.02211">
        <ele>1864.6142578125</ele>
        <time>2020-01-11T10:04:05Z</time>
      </trkpt>
      <trkpt lat="44.06955" lon="7.02199">
        <ele>1865.5756835938</ele>
        <time>2020-01-11T10:04:23Z</time>
      </trkpt>
      <trkpt lat="44.06952" lon="7.02189">
        <ele>1867.498046875</ele>
        <time>2020-01-11T10:04:40Z</time>
      </trkpt>
      <trkpt lat="44.06946" lon="7.02181">
        <ele>1871.3435058594</ele>
        <time>2020-01-11T10:04:57Z</time>
      </trkpt>
      <trkpt lat="44.06941" lon="7.02166">
        <ele>1870.3823242188</ele>
        <time>2020-01-11T10:05:12Z</time>
      </trkpt>
      <trkpt lat="44.06934" lon="7.02158">
        <ele>1873.2663574219</ele>
        <time>2020-01-11T10:05:29Z</time>
      </trkpt>
      <trkpt lat="44.06927" lon="7.02151">
        <ele>1875.6694335938</ele>
        <time>2020-01-11T10:05:46Z</time>
      </trkpt>
      <trkpt lat="44.06919" lon="7.02144">
        <ele>1877.1115722656</ele>
        <time>2020-01-11T10:06:20Z</time>
      </trkpt>
      <trkpt lat="44.06908" lon="7.02137">
        <ele>1879.9953613281</ele>
        <time>2020-01-11T10:09:09Z</time>
      </trkpt>
      <trkpt lat="44.06898" lon="7.02132">
        <ele>1881.4372558594</ele>
        <time>2020-01-11T10:09:22Z</time>
      </trkpt>
      <trkpt lat="44.06888" lon="7.02127">
        <ele>1883.3598632812</ele>
        <time>2020-01-11T10:09:34Z</time>
      </trkpt>
      <trkpt lat="44.06878" lon="7.02119">
        <ele>1883.8405761719</ele>
        <time>2020-01-11T10:10:04Z</time>
      </trkpt>
      <trkpt lat="44.06871" lon="7.02111">
        <ele>1884.3215332031</ele>
        <time>2020-01-11T10:10:17Z</time>
      </trkpt>
      <trkpt lat="44.06863" lon="7.02101">
        <ele>1883.8405761719</ele>
        <time>2020-01-11T10:10:26Z</time>
      </trkpt>
      <trkpt lat="44.06856" lon="7.02094">
        <ele>1882.8791503906</ele>
        <time>2020-01-11T10:10:35Z</time>
      </trkpt>
      <trkpt lat="44.06847" lon="7.02089">
        <ele>1881.91796875</ele>
        <time>2020-01-11T10:10:44Z</time>
      </trkpt>
      <trkpt lat="44.06838" lon="7.02082">
        <ele>1882.3986816406</ele>
        <time>2020-01-11T10:10:54Z</time>
      </trkpt>
      <trkpt lat="44.06831" lon="7.02075">
        <ele>1883.3598632812</ele>
        <time>2020-01-11T10:11:04Z</time>
      </trkpt>
      <trkpt lat="44.06823" lon="7.02063">
        <ele>1883.8405761719</ele>
        <time>2020-01-11T10:11:14Z</time>
      </trkpt>
      <trkpt lat="44.06815" lon="7.02058">
        <ele>1884.3215332031</ele>
        <time>2020-01-11T10:11:24Z</time>
      </trkpt>
      <trkpt lat="44.06805" lon="7.02055">
        <ele>1885.7634277344</ele>
        <time>2020-01-11T10:11:35Z</time>
      </trkpt>
      <trkpt lat="44.06796" lon="7.02051">
        <ele>1886.244140625</ele>
        <time>2020-01-11T10:11:47Z</time>
      </trkpt>
      <trkpt lat="44.06785" lon="7.02048">
        <ele>1886.724609375</ele>
        <time>2020-01-11T10:11:58Z</time>
      </trkpt>
      <trkpt lat="44.06776" lon="7.02045">
        <ele>1887.2053222656</ele>
        <time>2020-01-11T10:12:09Z</time>
      </trkpt>
      <trkpt lat="44.06768" lon="7.0204">
        <ele>1888.6474609375</ele>
        <time>2020-01-11T10:12:19Z</time>
      </trkpt>
      <trkpt lat="44.06759" lon="7.02036">
        <ele>1889.1279296875</ele>
        <time>2020-01-11T10:12:31Z</time>
      </trkpt>
      <trkpt lat="44.06752" lon="7.02031">
        <ele>1890.5698242188</ele>
        <time>2020-01-11T10:12:42Z</time>
      </trkpt>
      <trkpt lat="44.06742" lon="7.02029">
        <ele>1889.6086425781</ele>
        <time>2020-01-11T10:12:52Z</time>
      </trkpt>
      <trkpt lat="44.06732" lon="7.02025">
        <ele>1888.6474609375</ele>
        <time>2020-01-11T10:13:01Z</time>
      </trkpt>
      <trkpt lat="44.06721" lon="7.02022">
        <ele>1889.1279296875</ele>
        <time>2020-01-11T10:13:10Z</time>
      </trkpt>
      <trkpt lat="44.06711" lon="7.02023">
        <ele>1889.6086425781</ele>
        <time>2020-01-11T10:13:19Z</time>
      </trkpt>
      <trkpt lat="44.06701" lon="7.02026">
        <ele>1890.0893554688</ele>
        <time>2020-01-11T10:13:28Z</time>
      </trkpt>
      <trkpt lat="44.06696" lon="7.02033">
        <ele>1889.1279296875</ele>
        <time>2020-01-11T10:13:38Z</time>
      </trkpt>
      <trkpt lat="44.06688" lon="7.02035">
        <ele>1889.6086425781</ele>
        <time>2020-01-11T10:13:49Z</time>
      </trkpt>
      <trkpt lat="44.06677" lon="7.02037">
        <ele>1888.1667480469</ele>
        <time>2020-01-11T10:14:01Z</time>
      </trkpt>
      <trkpt lat="44.06668" lon="7.02038">
        <ele>1885.2827148438</ele>
        <time>2020-01-11T10:14:14Z</time>
      </trkpt>
      <trkpt lat="44.0666" lon="7.0204">
        <ele>1883.8405761719</ele>
        <time>2020-01-11T10:14:24Z</time>
      </trkpt>
      <trkpt lat="44.06654" lon="7.02046">
        <ele>1883.3598632812</ele>
        <time>2020-01-11T10:15:23Z</time>
      </trkpt>
      <trkpt lat="44.06643" lon="7.02051">
        <ele>1882.8791503906</ele>
        <time>2020-01-11T10:15:32Z</time>
      </trkpt>
      <trkpt lat="44.06633" lon="7.02056">
        <ele>1882.3986816406</ele>
        <time>2020-01-11T10:15:40Z</time>
      </trkpt>
      <trkpt lat="44.06624" lon="7.0206">
        <ele>1882.8791503906</ele>
        <time>2020-01-11T10:15:49Z</time>
      </trkpt>
      <trkpt lat="44.06615" lon="7.02066">
        <ele>1880.4760742188</ele>
        <time>2020-01-11T10:15:58Z</time>
      </trkpt>
      <trkpt lat="44.06607" lon="7.0207">
        <ele>1881.91796875</ele>
        <time>2020-01-11T10:16:07Z</time>
      </trkpt>
      <trkpt lat="44.06599" lon="7.02078">
        <ele>1880.9567871094</ele>
        <time>2020-01-11T10:16:16Z</time>
      </trkpt>
      <trkpt lat="44.06591" lon="7.02083">
        <ele>1880.4760742188</ele>
        <time>2020-01-11T10:16:25Z</time>
      </trkpt>
      <trkpt lat="44.0658" lon="7.02087">
        <ele>1881.4372558594</ele>
        <time>2020-01-11T10:16:34Z</time>
      </trkpt>
      <trkpt lat="44.0657" lon="7.02092">
        <ele>1880.4760742188</ele>
        <time>2020-01-11T10:16:44Z</time>
      </trkpt>
      <trkpt lat="44.0656" lon="7.02093">
        <ele>1877.5920410156</ele>
        <time>2020-01-11T10:16:54Z</time>
      </trkpt>
      <trkpt lat="44.06551" lon="7.02094">
        <ele>1876.630859375</ele>
        <time>2020-01-11T10:17:04Z</time>
      </trkpt>
      <trkpt lat="44.06541" lon="7.02094">
        <ele>1874.7082519531</ele>
        <time>2020-01-11T10:17:15Z</time>
      </trkpt>
      <trkpt lat="44.06533" lon="7.02096">
        <ele>1874.7082519531</ele>
        <time>2020-01-11T10:21:31Z</time>
      </trkpt>
      <trkpt lat="44.06522" lon="7.02094">
        <ele>1874.2275390625</ele>
        <time>2020-01-11T10:21:41Z</time>
      </trkpt>
      <trkpt lat="44.06512" lon="7.0209">
        <ele>1872.7856445312</ele>
        <time>2020-01-11T10:21:50Z</time>
      </trkpt>
      <trkpt lat="44.06504" lon="7.02088">
        <ele>1872.3049316406</ele>
        <time>2020-01-11T10:22:04Z</time>
      </trkpt>
      <trkpt lat="44.06494" lon="7.02085">
        <ele>1872.3049316406</ele>
        <time>2020-01-11T10:22:13Z</time>
      </trkpt>
      <trkpt lat="44.06485" lon="7.02081">
        <ele>1872.3049316406</ele>
        <time>2020-01-11T10:22:24Z</time>
      </trkpt>
      <trkpt lat="44.06475" lon="7.02078">
        <ele>1872.7856445312</ele>
        <time>2020-01-11T10:22:35Z</time>
      </trkpt>
      <trkpt lat="44.06465" lon="7.02076">
        <ele>1872.3049316406</ele>
        <time>2020-01-11T10:22:47Z</time>
      </trkpt>
      <trkpt lat="44.06457" lon="7.02072">
        <ele>1872.3049316406</ele>
        <time>2020-01-11T10:22:56Z</time>
      </trkpt>
      <trkpt lat="44.0645" lon="7.0207">
        <ele>1871.82421875</ele>
        <time>2020-01-11T10:23:05Z</time>
      </trkpt>
      <trkpt lat="44.06441" lon="7.02065">
        <ele>1872.3049316406</ele>
        <time>2020-01-11T10:23:14Z</time>
      </trkpt>
      <trkpt lat="44.06432" lon="7.02062">
        <ele>1871.82421875</ele>
        <time>2020-01-11T10:23:23Z</time>
      </trkpt>
      <trkpt lat="44.06421" lon="7.02059">
        <ele>1871.3435058594</ele>
        <time>2020-01-11T10:23:31Z</time>
      </trkpt>
      <trkpt lat="44.06412" lon="7.02056">
        <ele>1871.3435058594</ele>
        <time>2020-01-11T10:24:12Z</time>
      </trkpt>
      <trkpt lat="44.06408" lon="7.02041">
        <ele>1870.3823242188</ele>
        <time>2020-01-11T10:26:26Z</time>
      </trkpt>
      <trkpt lat="44.06404" lon="7.02029">
        <ele>1870.8630371094</ele>
        <time>2020-01-11T10:26:36Z</time>
      </trkpt>
      <trkpt lat="44.06399" lon="7.02016">
        <ele>1872.3049316406</ele>
        <time>2020-01-11T10:26:46Z</time>
      </trkpt>
      <trkpt lat="44.06394" lon="7.02005">
        <ele>1873.7468261719</ele>
        <time>2020-01-11T10:26:56Z</time>
      </trkpt>
      <trkpt lat="44.06389" lon="7.01994">
        <ele>1873.2663574219</ele>
        <time>2020-01-11T10:27:07Z</time>
      </trkpt>
      <trkpt lat="44.06382" lon="7.01984">
        <ele>1874.2275390625</ele>
        <time>2020-01-11T10:27:19Z</time>
      </trkpt>
      <trkpt lat="44.06378" lon="7.01972">
        <ele>1875.6694335938</ele>
        <time>2020-01-11T10:27:31Z</time>
      </trkpt>
      <trkpt lat="44.06372" lon="7.01963">
        <ele>1876.1501464844</ele>
        <time>2020-01-11T10:27:44Z</time>
      </trkpt>
      <trkpt lat="44.06366" lon="7.01952">
        <ele>1878.5534667969</ele>
        <time>2020-01-11T10:27:57Z</time>
      </trkpt>
      <trkpt lat="44.06362" lon="7.01939">
        <ele>1879.0339355469</ele>
        <time>2020-01-11T10:28:10Z</time>
      </trkpt>
      <trkpt lat="44.06358" lon="7.01928">
        <ele>1879.9953613281</ele>
        <time>2020-01-11T10:28:23Z</time>
      </trkpt>
      <trkpt lat="44.06353" lon="7.01916">
        <ele>1881.4372558594</ele>
        <time>2020-01-11T10:28:35Z</time>
      </trkpt>
      <trkpt lat="44.06349" lon="7.01902">
        <ele>1881.4372558594</ele>
        <time>2020-01-11T10:28:46Z</time>
      </trkpt>
      <trkpt lat="44.06344" lon="7.01892">
        <ele>1882.8791503906</ele>
        <time>2020-01-11T10:28:57Z</time>
      </trkpt>
      <trkpt lat="44.06337" lon="7.01883">
        <ele>1885.7634277344</ele>
        <time>2020-01-11T10:29:10Z</time>
      </trkpt>
      <trkpt lat="44.0633" lon="7.01873">
        <ele>1886.244140625</ele>
        <time>2020-01-11T10:29:24Z</time>
      </trkpt>
      <trkpt lat="44.06324" lon="7.01863">
        <ele>1888.1667480469</ele>
        <time>2020-01-11T10:29:37Z</time>
      </trkpt>
      <trkpt lat="44.06317" lon="7.01852">
        <ele>1890.0893554688</ele>
        <time>2020-01-11T10:29:51Z</time>
      </trkpt>
      <trkpt lat="44.06312" lon="7.01844">
        <ele>1891.0505371094</ele>
        <time>2020-01-11T10:30:04Z</time>
      </trkpt>
      <trkpt lat="44.06306" lon="7.01834">
        <ele>1893.4538574219</ele>
        <time>2020-01-11T10:30:30Z</time>
      </trkpt>
      <trkpt lat="44.06301" lon="7.01821">
        <ele>1893.9345703125</ele>
        <time>2020-01-11T10:30:42Z</time>
      </trkpt>
      <trkpt lat="44.06296" lon="7.01811">
        <ele>1894.4150390625</ele>
        <time>2020-01-11T10:30:52Z</time>
      </trkpt>
      <trkpt lat="44.06293" lon="7.01799">
        <ele>1895.3764648438</ele>
        <time>2020-01-11T10:31:02Z</time>
      </trkpt>
      <trkpt lat="44.06289" lon="7.01788">
        <ele>1894.8957519531</ele>
        <time>2020-01-11T10:31:11Z</time>
      </trkpt>
      <trkpt lat="44.06284" lon="7.01777">
        <ele>1894.4150390625</ele>
        <time>2020-01-11T10:31:21Z</time>
      </trkpt>
      <trkpt lat="44.06278" lon="7.01768">
        <ele>1894.8957519531</ele>
        <time>2020-01-11T10:31:31Z</time>
      </trkpt>
      <trkpt lat="44.06271" lon="7.01759">
        <ele>1895.3764648438</ele>
        <time>2020-01-11T10:31:41Z</time>
      </trkpt>
      <trkpt lat="44.06263" lon="7.0175">
        <ele>1894.8957519531</ele>
        <time>2020-01-11T10:31:51Z</time>
      </trkpt>
      <trkpt lat="44.06255" lon="7.01742">
        <ele>1896.337890625</ele>
        <time>2020-01-11T10:32:01Z</time>
      </trkpt>
      <trkpt lat="44.06248" lon="7.01736">
        <ele>1896.818359375</ele>
        <time>2020-01-11T10:32:11Z</time>
      </trkpt>
      <trkpt lat="44.06241" lon="7.0173">
        <ele>1897.7797851562</ele>
        <time>2020-01-11T10:32:22Z</time>
      </trkpt>
      <trkpt lat="44.06236" lon="7.01719">
        <ele>1898.7409667969</ele>
        <time>2020-01-11T10:32:39Z</time>
      </trkpt>
      <trkpt lat="44.0623" lon="7.01708">
        <ele>1900.1833496094</ele>
        <time>2020-01-11T10:32:50Z</time>
      </trkpt>
      <trkpt lat="44.06225" lon="7.01698">
        <ele>1899.2216796875</ele>
        <time>2020-01-11T10:33:01Z</time>
      </trkpt>
      <trkpt lat="44.06217" lon="7.01689">
        <ele>1900.6638183594</ele>
        <time>2020-01-11T10:33:12Z</time>
      </trkpt>
      <trkpt lat="44.0621" lon="7.01679">
        <ele>1899.2216796875</ele>
        <time>2020-01-11T10:33:23Z</time>
      </trkpt>
      <trkpt lat="44.06204" lon="7.01671">
        <ele>1901.14453125</ele>
        <time>2020-01-11T10:33:35Z</time>
      </trkpt>
      <trkpt lat="44.06199" lon="7.01659">
        <ele>1903.0671386719</ele>
        <time>2020-01-11T10:33:47Z</time>
      </trkpt>
      <trkpt lat="44.06191" lon="7.01651">
        <ele>1902.5864257812</ele>
        <time>2020-01-11T10:33:59Z</time>
      </trkpt>
      <trkpt lat="44.06183" lon="7.01646">
        <ele>1904.0285644531</ele>
        <time>2020-01-11T10:34:11Z</time>
      </trkpt>
      <trkpt lat="44.06173" lon="7.01642">
        <ele>1904.9897460938</ele>
        <time>2020-01-11T10:34:24Z</time>
      </trkpt>
      <trkpt lat="44.06169" lon="7.01634">
        <ele>1906.431640625</ele>
        <time>2020-01-11T10:34:38Z</time>
      </trkpt>
      <trkpt lat="44.06172" lon="7.01624">
        <ele>1907.8737792969</ele>
        <time>2020-01-11T10:34:53Z</time>
      </trkpt>
      <trkpt lat="44.06171" lon="7.01611">
        <ele>1910.2768554688</ele>
        <time>2020-01-11T10:35:12Z</time>
      </trkpt>
      <trkpt lat="44.06168" lon="7.01598">
        <ele>1915.0834960938</ele>
        <time>2020-01-11T10:35:36Z</time>
      </trkpt>
      <trkpt lat="44.06164" lon="7.01588">
        <ele>1916.5256347656</ele>
        <time>2020-01-11T10:35:58Z</time>
      </trkpt>
      <trkpt lat="44.06163" lon="7.01576">
        <ele>1919.4096679688</ele>
        <time>2020-01-11T10:36:19Z</time>
      </trkpt>
      <trkpt lat="44.0616" lon="7.01562">
        <ele>1922.7741699219</ele>
        <time>2020-01-11T10:36:42Z</time>
      </trkpt>
      <trkpt lat="44.06157" lon="7.01551">
        <ele>1924.6967773438</ele>
        <time>2020-01-11T10:37:04Z</time>
      </trkpt>
      <trkpt lat="44.06153" lon="7.01539">
        <ele>1928.0612792969</ele>
        <time>2020-01-11T10:37:25Z</time>
      </trkpt>
      <trkpt lat="44.06152" lon="7.01526">
        <ele>1929.5031738281</ele>
        <time>2020-01-11T10:37:54Z</time>
      </trkpt>
      <trkpt lat="44.06148" lon="7.01513">
        <ele>1930.9453125</ele>
        <time>2020-01-11T10:38:15Z</time>
      </trkpt>
      <trkpt lat="44.0614" lon="7.01503">
        <ele>1930.9453125</ele>
        <time>2020-01-11T10:38:28Z</time>
      </trkpt>
      <trkpt lat="44.06135" lon="7.01493">
        <ele>1932.3874511719</ele>
        <time>2020-01-11T10:38:41Z</time>
      </trkpt>
      <trkpt lat="44.06133" lon="7.01481">
        <ele>1932.8679199219</ele>
        <time>2020-01-11T10:38:55Z</time>
      </trkpt>
      <trkpt lat="44.06134" lon="7.0147">
        <ele>1933.8293457031</ele>
        <time>2020-01-11T10:39:08Z</time>
      </trkpt>
      <trkpt lat="44.06133" lon="7.01456">
        <ele>1935.2712402344</ele>
        <time>2020-01-11T10:39:29Z</time>
      </trkpt>
      <trkpt lat="44.06136" lon="7.01445">
        <ele>1937.6745605469</ele>
        <time>2020-01-11T10:39:46Z</time>
      </trkpt>
      <trkpt lat="44.06138" lon="7.01432">
        <ele>1940.5583496094</ele>
        <time>2020-01-11T10:40:07Z</time>
      </trkpt>
      <trkpt lat="44.06143" lon="7.01422">
        <ele>1944.4035644531</ele>
        <time>2020-01-11T10:40:30Z</time>
      </trkpt>
      <trkpt lat="44.0615" lon="7.01423">
        <ele>1946.3264160156</ele>
        <time>2020-01-11T10:43:50Z</time>
      </trkpt>
      <trkpt lat="44.06151" lon="7.01434">
        <ele>1945.845703125</ele>
        <time>2020-01-11T10:44:30Z</time>
      </trkpt>
      <trkpt lat="44.06158" lon="7.01445">
        <ele>1942.0004882812</ele>
        <time>2020-01-11T10:44:40Z</time>
      </trkpt>
      <trkpt lat="44.06163" lon="7.01456">
        <ele>1940.5583496094</ele>
        <time>2020-01-11T10:44:52Z</time>
      </trkpt>
      <trkpt lat="44.06168" lon="7.01469">
        <ele>1938.1552734375</ele>
        <time>2020-01-11T10:45:04Z</time>
      </trkpt>
      <trkpt lat="44.06169" lon="7.01478">
        <ele>1934.3100585938</ele>
        <time>2020-01-11T10:45:33Z</time>
      </trkpt>
      <trkpt lat="44.06171" lon="7.01468">
        <ele>1937.6745605469</ele>
        <time>2020-01-11T10:46:08Z</time>
      </trkpt>
      <trkpt lat="44.06173" lon="7.01453">
        <ele>1940.5583496094</ele>
        <time>2020-01-11T10:46:38Z</time>
      </trkpt>
      <trkpt lat="44.06173" lon="7.01443">
        <ele>1943.4423828125</ele>
        <time>2020-01-11T10:46:57Z</time>
      </trkpt>
      <trkpt lat="44.06171" lon="7.01428">
        <ele>1946.8068847656</ele>
        <time>2020-01-11T10:47:17Z</time>
      </trkpt>
      <trkpt lat="44.06173" lon="7.01418">
        <ele>1947.7683105469</ele>
        <time>2020-01-11T10:47:33Z</time>
      </trkpt>
      <trkpt lat="44.06172" lon="7.01407">
        <ele>1950.65234375</ele>
        <time>2020-01-11T10:47:47Z</time>
      </trkpt>
      <trkpt lat="44.0617" lon="7.01397">
        <ele>1951.6137695312</ele>
        <time>2020-01-11T10:48:02Z</time>
      </trkpt>
      <trkpt lat="44.06167" lon="7.01385">
        <ele>1952.0942382812</ele>
        <time>2020-01-11T10:48:20Z</time>
      </trkpt>
      <trkpt lat="44.06166" lon="7.01375">
        <ele>1956.4201660156</ele>
        <time>2020-01-11T10:48:39Z</time>
      </trkpt>
      <trkpt lat="44.06162" lon="7.01365">
        <ele>1959.3041992188</ele>
        <time>2020-01-11T10:48:59Z</time>
      </trkpt>
      <trkpt lat="44.06158" lon="7.01353">
        <ele>1962.1879882812</ele>
        <time>2020-01-11T10:49:19Z</time>
      </trkpt>
      <trkpt lat="44.06156" lon="7.01341">
        <ele>1964.5915527344</ele>
        <time>2020-01-11T10:49:38Z</time>
      </trkpt>
      <trkpt lat="44.06153" lon="7.01333">
        <ele>1967.4753417969</ele>
        <time>2020-01-11T10:50:01Z</time>
      </trkpt>
      <trkpt lat="44.06148" lon="7.01326">
        <ele>1971.3205566406</ele>
        <time>2020-01-11T10:50:40Z</time>
      </trkpt>
      <trkpt lat="44.06137" lon="7.01315">
        <ele>1973.2434082031</ele>
        <time>2020-01-11T10:50:53Z</time>
      </trkpt>
      <trkpt lat="44.06129" lon="7.01312">
        <ele>1973.7238769531</ele>
        <time>2020-01-11T10:51:05Z</time>
      </trkpt>
      <trkpt lat="44.06124" lon="7.01305">
        <ele>1976.1271972656</ele>
        <time>2020-01-11T10:51:21Z</time>
      </trkpt>
      <trkpt lat="44.06121" lon="7.01294">
        <ele>1976.6079101562</ele>
        <time>2020-01-11T10:52:49Z</time>
      </trkpt>
      <trkpt lat="44.06116" lon="7.0128">
        <ele>1977.0886230469</ele>
        <time>2020-01-11T10:53:00Z</time>
      </trkpt>
      <trkpt lat="44.06108" lon="7.01273">
        <ele>1977.0886230469</ele>
        <time>2020-01-11T10:53:10Z</time>
      </trkpt>
      <trkpt lat="44.061" lon="7.01265">
        <ele>1977.5690917969</ele>
        <time>2020-01-11T10:53:19Z</time>
      </trkpt>
      <trkpt lat="44.06092" lon="7.0126">
        <ele>1977.5690917969</ele>
        <time>2020-01-11T10:53:35Z</time>
      </trkpt>
      <trkpt lat="44.06083" lon="7.01255">
        <ele>1977.5690917969</ele>
        <time>2020-01-11T10:53:45Z</time>
      </trkpt>
      <trkpt lat="44.06073" lon="7.01251">
        <ele>1976.6079101562</ele>
        <time>2020-01-11T10:53:55Z</time>
      </trkpt>
      <trkpt lat="44.06065" lon="7.01248">
        <ele>1977.0886230469</ele>
        <time>2020-01-11T10:54:05Z</time>
      </trkpt>
      <trkpt lat="44.06055" lon="7.01245">
        <ele>1979.9724121094</ele>
        <time>2020-01-11T10:54:18Z</time>
      </trkpt>
      <trkpt lat="44.06045" lon="7.01242">
        <ele>1979.9724121094</ele>
        <time>2020-01-11T10:54:30Z</time>
      </trkpt>
      <trkpt lat="44.06036" lon="7.01237">
        <ele>1981.4145507812</ele>
        <time>2020-01-11T10:54:41Z</time>
      </trkpt>
      <trkpt lat="44.06028" lon="7.01236">
        <ele>1981.4145507812</ele>
        <time>2020-01-11T10:54:53Z</time>
      </trkpt>
      <trkpt lat="44.06019" lon="7.01229">
        <ele>1981.8952636719</ele>
        <time>2020-01-11T10:55:03Z</time>
      </trkpt>
      <trkpt lat="44.06009" lon="7.01229">
        <ele>1982.8564453125</ele>
        <time>2020-01-11T10:55:13Z</time>
      </trkpt>
      <trkpt lat="44.06001" lon="7.0123">
        <ele>1982.8564453125</ele>
        <time>2020-01-11T10:55:31Z</time>
      </trkpt>
      <trkpt lat="44.05992" lon="7.01227">
        <ele>1984.2985839844</ele>
        <time>2020-01-11T10:55:42Z</time>
      </trkpt>
      <trkpt lat="44.05982" lon="7.01224">
        <ele>1983.8178710938</ele>
        <time>2020-01-11T10:55:52Z</time>
      </trkpt>
      <trkpt lat="44.05974" lon="7.01222">
        <ele>1983.3371582031</ele>
        <time>2020-01-11T10:57:20Z</time>
      </trkpt>
      <trkpt lat="44.05961" lon="7.01214">
        <ele>1985.259765625</ele>
        <time>2020-01-11T10:57:34Z</time>
      </trkpt>
      <trkpt lat="44.0595" lon="7.01202">
        <ele>1986.7016601562</ele>
        <time>2020-01-11T10:57:52Z</time>
      </trkpt>
      <trkpt lat="44.05939" lon="7.01192">
        <ele>1985.7404785156</ele>
        <time>2020-01-11T10:58:09Z</time>
      </trkpt>
      <trkpt lat="44.05931" lon="7.01182">
        <ele>1988.6245117188</ele>
        <time>2020-01-11T10:58:25Z</time>
      </trkpt>
      <trkpt lat="44.05925" lon="7.01172">
        <ele>1990.06640625</ele>
        <time>2020-01-11T10:58:38Z</time>
      </trkpt>
      <trkpt lat="44.05917" lon="7.01161">
        <ele>1993.9116210938</ele>
        <time>2020-01-11T10:58:57Z</time>
      </trkpt>
      <trkpt lat="44.05909" lon="7.01151">
        <ele>1993.9116210938</ele>
        <time>2020-01-11T10:59:15Z</time>
      </trkpt>
      <trkpt lat="44.05898" lon="7.01139">
        <ele>1997.2763671875</ele>
        <time>2020-01-11T10:59:35Z</time>
      </trkpt>
      <trkpt lat="44.05892" lon="7.0113">
        <ele>1998.7182617188</ele>
        <time>2020-01-11T10:59:52Z</time>
      </trkpt>
      <trkpt lat="44.05888" lon="7.01118">
        <ele>1999.6796875</ele>
        <time>2020-01-11T11:00:08Z</time>
      </trkpt>
      <trkpt lat="44.05883" lon="7.01108">
        <ele>2001.6022949219</ele>
        <time>2020-01-11T11:00:22Z</time>
      </trkpt>
      <trkpt lat="44.05879" lon="7.01096">
        <ele>2003.5249023438</ele>
        <time>2020-01-11T11:00:35Z</time>
      </trkpt>
      <trkpt lat="44.05872" lon="7.01084">
        <ele>2004.966796875</ele>
        <time>2020-01-11T11:00:49Z</time>
      </trkpt>
      <trkpt lat="44.05868" lon="7.01072">
        <ele>2006.4086914062</ele>
        <time>2020-01-11T11:01:02Z</time>
      </trkpt>
      <trkpt lat="44.05861" lon="7.01065">
        <ele>2007.3701171875</ele>
        <time>2020-01-11T11:01:15Z</time>
      </trkpt>
      <trkpt lat="44.05852" lon="7.01056">
        <ele>2009.2927246094</ele>
        <time>2020-01-11T11:01:27Z</time>
      </trkpt>
      <trkpt lat="44.0585" lon="7.01045">
        <ele>2010.25390625</ele>
        <time>2020-01-11T11:01:38Z</time>
      </trkpt>
      <trkpt lat="44.05842" lon="7.01034">
        <ele>2010.7346191406</ele>
        <time>2020-01-11T11:01:54Z</time>
      </trkpt>
      <trkpt lat="44.05834" lon="7.01026">
        <ele>2010.7346191406</ele>
        <time>2020-01-11T11:02:04Z</time>
      </trkpt>
      <trkpt lat="44.0583" lon="7.01017">
        <ele>2010.7346191406</ele>
        <time>2020-01-11T11:02:13Z</time>
      </trkpt>
      <trkpt lat="44.05824" lon="7.01006">
        <ele>2009.2927246094</ele>
        <time>2020-01-11T11:02:22Z</time>
      </trkpt>
      <trkpt lat="44.05821" lon="7.00996">
        <ele>2008.3312988281</ele>
        <time>2020-01-11T11:02:31Z</time>
      </trkpt>
      <trkpt lat="44.05818" lon="7.00984">
        <ele>2006.8894042969</ele>
        <time>2020-01-11T11:02:41Z</time>
      </trkpt>
      <trkpt lat="44.05811" lon="7.00976">
        <ele>2006.4086914062</ele>
        <time>2020-01-11T11:02:50Z</time>
      </trkpt>
      <trkpt lat="44.05808" lon="7.00964">
        <ele>2005.9279785156</ele>
        <time>2020-01-11T11:02:58Z</time>
      </trkpt>
      <trkpt lat="44.05805" lon="7.00953">
        <ele>2005.4475097656</ele>
        <time>2020-01-11T11:03:07Z</time>
      </trkpt>
      <trkpt lat="44.05801" lon="7.00943">
        <ele>2007.3701171875</ele>
        <time>2020-01-11T11:03:17Z</time>
      </trkpt>
      <trkpt lat="44.05796" lon="7.00932">
        <ele>2008.3312988281</ele>
        <time>2020-01-11T11:03:27Z</time>
      </trkpt>
      <trkpt lat="44.0579" lon="7.00922">
        <ele>2008.3312988281</ele>
        <time>2020-01-11T11:03:39Z</time>
      </trkpt>
      <trkpt lat="44.05785" lon="7.00912">
        <ele>2008.8120117188</ele>
        <time>2020-01-11T11:03:52Z</time>
      </trkpt>
      <trkpt lat="44.05781" lon="7.00902">
        <ele>2011.2153320312</ele>
        <time>2020-01-11T11:04:06Z</time>
      </trkpt>
      <trkpt lat="44.05773" lon="7.00893">
        <ele>2015.5415039062</ele>
        <time>2020-01-11T11:04:20Z</time>
      </trkpt>
      <trkpt lat="44.05769" lon="7.00884">
        <ele>2016.9833984375</ele>
        <time>2020-01-11T11:04:32Z</time>
      </trkpt>
      <trkpt lat="44.05768" lon="7.00873">
        <ele>2017.9445800781</ele>
        <time>2020-01-11T11:04:45Z</time>
      </trkpt>
      <trkpt lat="44.05766" lon="7.00863">
        <ele>2020.8286132812</ele>
        <time>2020-01-11T11:04:59Z</time>
      </trkpt>
      <trkpt lat="44.05761" lon="7.00852">
        <ele>2021.7897949219</ele>
        <time>2020-01-11T11:05:11Z</time>
      </trkpt>
      <trkpt lat="44.05758" lon="7.0084">
        <ele>2021.7897949219</ele>
        <time>2020-01-11T11:05:22Z</time>
      </trkpt>
      <trkpt lat="44.05755" lon="7.00831">
        <ele>2022.7512207031</ele>
        <time>2020-01-11T11:05:33Z</time>
      </trkpt>
      <trkpt lat="44.05749" lon="7.00822">
        <ele>2023.7124023438</ele>
        <time>2020-01-11T11:05:47Z</time>
      </trkpt>
      <trkpt lat="44.05745" lon="7.00812">
        <ele>2024.673828125</ele>
        <time>2020-01-11T11:05:58Z</time>
      </trkpt>
      <trkpt lat="44.0574" lon="7.00806">
        <ele>2025.154296875</ele>
        <time>2020-01-11T11:06:08Z</time>
      </trkpt>
      <trkpt lat="44.05733" lon="7.00797">
        <ele>2027.5576171875</ele>
        <time>2020-01-11T11:06:19Z</time>
      </trkpt>
      <trkpt lat="44.05732" lon="7.00787">
        <ele>2026.5964355469</ele>
        <time>2020-01-11T11:06:29Z</time>
      </trkpt>
      <trkpt lat="44.05727" lon="7.00778">
        <ele>2029.48046875</ele>
        <time>2020-01-11T11:06:40Z</time>
      </trkpt>
      <trkpt lat="44.05724" lon="7.00767">
        <ele>2029.48046875</ele>
        <time>2020-01-11T11:06:52Z</time>
      </trkpt>
      <trkpt lat="44.05725" lon="7.00774">
        <ele>2032.3645019531</ele>
        <time>2020-01-11T11:12:19Z</time>
      </trkpt>
      <trkpt lat="44.05721" lon="7.00785">
        <ele>2031.4030761719</ele>
        <time>2020-01-11T11:12:29Z</time>
      </trkpt>
      <trkpt lat="44.05718" lon="7.00794">
        <ele>2029.48046875</ele>
        <time>2020-01-11T11:12:39Z</time>
      </trkpt>
      <trkpt lat="44.05714" lon="7.00805">
        <ele>2028.0385742188</ele>
        <time>2020-01-11T11:12:55Z</time>
      </trkpt>
      <trkpt lat="44.0571" lon="7.00818">
        <ele>2026.1157226562</ele>
        <time>2020-01-11T11:13:05Z</time>
      </trkpt>
      <trkpt lat="44.0571" lon="7.0083">
        <ele>2024.1931152344</ele>
        <time>2020-01-11T11:13:15Z</time>
      </trkpt>
      <trkpt lat="44.05708" lon="7.0084">
        <ele>2023.2319335938</ele>
        <time>2020-01-11T11:13:24Z</time>
      </trkpt>
      <trkpt lat="44.05705" lon="7.00848">
        <ele>2021.3090820312</ele>
        <time>2020-01-11T11:13:34Z</time>
      </trkpt>
      <trkpt lat="44.05706" lon="7.00857">
        <ele>2019.38671875</ele>
        <time>2020-01-11T11:13:43Z</time>
      </trkpt>
      <trkpt lat="44.05706" lon="7.0087">
        <ele>2017.4638671875</ele>
        <time>2020-01-11T11:14:11Z</time>
      </trkpt>
      <trkpt lat="44.05706" lon="7.00881">
        <ele>2015.5415039062</ele>
        <time>2020-01-11T11:14:21Z</time>
      </trkpt>
      <trkpt lat="44.05704" lon="7.00893">
        <ele>2014.0993652344</ele>
        <time>2020-01-11T11:14:30Z</time>
      </trkpt>
      <trkpt lat="44.05702" lon="7.00903">
        <ele>2013.1381835938</ele>
        <time>2020-01-11T11:14:39Z</time>
      </trkpt>
      <trkpt lat="44.05703" lon="7.00915">
        <ele>2011.6960449219</ele>
        <time>2020-01-11T11:14:48Z</time>
      </trkpt>
      <trkpt lat="44.05703" lon="7.00926">
        <ele>2011.6960449219</ele>
        <time>2020-01-11T11:14:58Z</time>
      </trkpt>
      <trkpt lat="44.05704" lon="7.00937">
        <ele>2010.25390625</ele>
        <time>2020-01-11T11:15:07Z</time>
      </trkpt>
      <trkpt lat="44.05707" lon="7.00946">
        <ele>2008.8120117188</ele>
        <time>2020-01-11T11:15:20Z</time>
      </trkpt>
      <trkpt lat="44.05705" lon="7.00957">
        <ele>2008.3312988281</ele>
        <time>2020-01-11T11:15:31Z</time>
      </trkpt>
      <trkpt lat="44.05701" lon="7.00968">
        <ele>2006.8894042969</ele>
        <time>2020-01-11T11:15:40Z</time>
      </trkpt>
      <trkpt lat="44.05701" lon="7.00977">
        <ele>2006.4086914062</ele>
        <time>2020-01-11T11:15:55Z</time>
      </trkpt>
      <trkpt lat="44.05701" lon="7.00991">
        <ele>2005.9279785156</ele>
        <time>2020-01-11T11:16:05Z</time>
      </trkpt>
      <trkpt lat="44.05699" lon="7.01004">
        <ele>2005.4475097656</ele>
        <time>2020-01-11T11:16:14Z</time>
      </trkpt>
      <trkpt lat="44.05699" lon="7.01016">
        <ele>2005.4475097656</ele>
        <time>2020-01-11T11:16:24Z</time>
      </trkpt>
      <trkpt lat="44.05696" lon="7.01028">
        <ele>2005.9279785156</ele>
        <time>2020-01-11T11:16:34Z</time>
      </trkpt>
      <trkpt lat="44.05696" lon="7.0104">
        <ele>2006.4086914062</ele>
        <time>2020-01-11T11:16:44Z</time>
      </trkpt>
      <trkpt lat="44.05698" lon="7.01049">
        <ele>2006.4086914062</ele>
        <time>2020-01-11T11:16:55Z</time>
      </trkpt>
      <trkpt lat="44.05696" lon="7.01063">
        <ele>2005.4475097656</ele>
        <time>2020-01-11T11:17:13Z</time>
      </trkpt>
      <trkpt lat="44.05693" lon="7.01073">
        <ele>2003.0441894531</ele>
        <time>2020-01-11T11:17:40Z</time>
      </trkpt>
      <trkpt lat="44.05689" lon="7.01086">
        <ele>2002.0827636719</ele>
        <time>2020-01-11T11:18:02Z</time>
      </trkpt>
      <trkpt lat="44.05686" lon="7.01096">
        <ele>1999.6796875</ele>
        <time>2020-01-11T11:18:15Z</time>
      </trkpt>
      <trkpt lat="44.0569" lon="7.01106">
        <ele>1998.2375488281</ele>
        <time>2020-01-11T11:18:32Z</time>
      </trkpt>
      <trkpt lat="44.05691" lon="7.01119">
        <ele>1996.3151855469</ele>
        <time>2020-01-11T11:18:42Z</time>
      </trkpt>
      <trkpt lat="44.05694" lon="7.0113">
        <ele>1994.3920898438</ele>
        <time>2020-01-11T11:18:53Z</time>
      </trkpt>
      <trkpt lat="44.05695" lon="7.01144">
        <ele>1993.4309082031</ele>
        <time>2020-01-11T11:19:02Z</time>
      </trkpt>
      <trkpt lat="44.05694" lon="7.01157">
        <ele>1991.9890136719</ele>
        <time>2020-01-11T11:19:12Z</time>
      </trkpt>
      <trkpt lat="44.05692" lon="7.0117">
        <ele>1991.0275878906</ele>
        <time>2020-01-11T11:19:32Z</time>
      </trkpt>
      <trkpt lat="44.05689" lon="7.01183">
        <ele>1990.546875</ele>
        <time>2020-01-11T11:19:41Z</time>
      </trkpt>
      <trkpt lat="44.05685" lon="7.01195">
        <ele>1989.1049804688</ele>
        <time>2020-01-11T11:19:51Z</time>
      </trkpt>
      <trkpt lat="44.05684" lon="7.01209">
        <ele>1988.1437988281</ele>
        <time>2020-01-11T11:20:02Z</time>
      </trkpt>
      <trkpt lat="44.05682" lon="7.01223">
        <ele>1985.259765625</ele>
        <time>2020-01-11T11:20:19Z</time>
      </trkpt>
      <trkpt lat="44.05679" lon="7.01226">
        <ele>1983.8178710938</ele>
        <time>2020-01-11T11:20:45Z</time>
      </trkpt>
      <trkpt lat="44.05677" lon="7.01214">
        <ele>1984.2985839844</ele>
        <time>2020-01-11T11:20:55Z</time>
      </trkpt>
      <trkpt lat="44.05675" lon="7.01208">
        <ele>1985.259765625</ele>
        <time>2020-01-11T11:21:36Z</time>
      </trkpt>
      <trkpt lat="44.05675" lon="7.01223">
        <ele>1984.2985839844</ele>
        <time>2020-01-11T11:21:47Z</time>
      </trkpt>
      <trkpt lat="44.05675" lon="7.01239">
        <ele>1982.8564453125</ele>
        <time>2020-01-11T11:21:57Z</time>
      </trkpt>
      <trkpt lat="44.05676" lon="7.01251">
        <ele>1981.4145507812</ele>
        <time>2020-01-11T11:22:25Z</time>
      </trkpt>
      <trkpt lat="44.05679" lon="7.0126">
        <ele>1979.0109863281</ele>
        <time>2020-01-11T11:22:43Z</time>
      </trkpt>
      <trkpt lat="44.05679" lon="7.01273">
        <ele>1977.5690917969</ele>
        <time>2020-01-11T11:23:09Z</time>
      </trkpt>
      <trkpt lat="44.05682" lon="7.01284">
        <ele>1975.646484375</ele>
        <time>2020-01-11T11:23:19Z</time>
      </trkpt>
      <trkpt lat="44.05686" lon="7.01294">
        <ele>1974.2045898438</ele>
        <time>2020-01-11T11:23:29Z</time>
      </trkpt>
      <trkpt lat="44.05687" lon="7.01304">
        <ele>1973.2434082031</ele>
        <time>2020-01-11T11:23:48Z</time>
      </trkpt>
      <trkpt lat="44.0569" lon="7.01317">
        <ele>1971.8012695312</ele>
        <time>2020-01-11T11:23:57Z</time>
      </trkpt>
      <trkpt lat="44.05694" lon="7.01327">
        <ele>1971.3205566406</ele>
        <time>2020-01-11T11:24:06Z</time>
      </trkpt>
      <trkpt lat="44.05696" lon="7.0134">
        <ele>1969.8786621094</ele>
        <time>2020-01-11T11:24:17Z</time>
      </trkpt>
      <trkpt lat="44.05698" lon="7.01354">
        <ele>1969.8786621094</ele>
        <time>2020-01-11T11:24:27Z</time>
      </trkpt>
      <trkpt lat="44.05702" lon="7.01365">
        <ele>1968.9174804688</ele>
        <time>2020-01-11T11:24:37Z</time>
      </trkpt>
      <trkpt lat="44.05704" lon="7.01376">
        <ele>1967.9560546875</ele>
        <time>2020-01-11T11:24:47Z</time>
      </trkpt>
      <trkpt lat="44.05706" lon="7.0139">
        <ele>1966.5141601562</ele>
        <time>2020-01-11T11:24:57Z</time>
      </trkpt>
      <trkpt lat="44.05706" lon="7.01405">
        <ele>1965.072265625</ele>
        <time>2020-01-11T11:25:07Z</time>
      </trkpt>
      <trkpt lat="44.05705" lon="7.01417">
        <ele>1963.1494140625</ele>
        <time>2020-01-11T11:25:17Z</time>
      </trkpt>
      <trkpt lat="44.05705" lon="7.01426">
        <ele>1961.2268066406</ele>
        <time>2020-01-11T11:25:27Z</time>
      </trkpt>
      <trkpt lat="44.05707" lon="7.01442">
        <ele>1960.74609375</ele>
        <time>2020-01-11T11:25:37Z</time>
      </trkpt>
      <trkpt lat="44.05711" lon="7.01453">
        <ele>1960.2653808594</ele>
        <time>2020-01-11T11:25:47Z</time>
      </trkpt>
      <trkpt lat="44.05717" lon="7.01464">
        <ele>1959.7846679688</ele>
        <time>2020-01-11T11:25:57Z</time>
      </trkpt>
      <trkpt lat="44.05724" lon="7.01472">
        <ele>1960.2653808594</ele>
        <time>2020-01-11T11:26:07Z</time>
      </trkpt>
      <trkpt lat="44.05729" lon="7.01483">
        <ele>1959.7846679688</ele>
        <time>2020-01-11T11:26:17Z</time>
      </trkpt>
      <trkpt lat="44.05734" lon="7.01494">
        <ele>1960.2653808594</ele>
        <time>2020-01-11T11:26:27Z</time>
      </trkpt>
      <trkpt lat="44.0574" lon="7.01501">
        <ele>1960.2653808594</ele>
        <time>2020-01-11T11:26:39Z</time>
      </trkpt>
      <trkpt lat="44.05746" lon="7.01509">
        <ele>1960.2653808594</ele>
        <time>2020-01-11T11:26:53Z</time>
      </trkpt>
      <trkpt lat="44.0575" lon="7.01519">
        <ele>1960.74609375</ele>
        <time>2020-01-11T11:27:05Z</time>
      </trkpt>
      <trkpt lat="44.05757" lon="7.01524">
        <ele>1960.74609375</ele>
        <time>2020-01-11T11:27:18Z</time>
      </trkpt>
      <trkpt lat="44.05761" lon="7.01531">
        <ele>1960.2653808594</ele>
        <time>2020-01-11T11:27:41Z</time>
      </trkpt>
      <trkpt lat="44.05767" lon="7.01523">
        <ele>1963.6298828125</ele>
        <time>2020-01-11T11:28:01Z</time>
      </trkpt>
      <trkpt lat="44.0577" lon="7.01512">
        <ele>1966.9948730469</ele>
        <time>2020-01-11T11:28:34Z</time>
      </trkpt>
      <trkpt lat="44.05772" lon="7.01504">
        <ele>1970.359375</ele>
        <time>2020-01-11T11:28:56Z</time>
      </trkpt>
      <trkpt lat="44.05775" lon="7.01494">
        <ele>1972.7626953125</ele>
        <time>2020-01-11T11:29:19Z</time>
      </trkpt>
      <trkpt lat="44.05778" lon="7.01482">
        <ele>1975.1657714844</ele>
        <time>2020-01-11T11:29:37Z</time>
      </trkpt>
      <trkpt lat="44.05785" lon="7.01478">
        <ele>1977.0886230469</ele>
        <time>2020-01-11T11:31:16Z</time>
      </trkpt>
      <trkpt lat="44.05793" lon="7.0148">
        <ele>1978.5305175781</ele>
        <time>2020-01-11T11:31:46Z</time>
      </trkpt>
      <trkpt lat="44.05803" lon="7.01482">
        <ele>1980.4533691406</ele>
        <time>2020-01-11T11:32:07Z</time>
      </trkpt>
      <trkpt lat="44.05811" lon="7.01484">
        <ele>1981.8952636719</ele>
        <time>2020-01-11T11:32:24Z</time>
      </trkpt>
      <trkpt lat="44.05816" lon="7.01493">
        <ele>1983.3371582031</ele>
        <time>2020-01-11T11:32:38Z</time>
      </trkpt>
      <trkpt lat="44.05818" lon="7.01504">
        <ele>1983.8178710938</ele>
        <time>2020-01-11T11:32:51Z</time>
      </trkpt>
      <trkpt lat="44.05826" lon="7.0151">
        <ele>1982.3759765625</ele>
        <time>2020-01-11T11:33:00Z</time>
      </trkpt>
      <trkpt lat="44.05836" lon="7.01513">
        <ele>1983.8178710938</ele>
        <time>2020-01-11T11:33:09Z</time>
      </trkpt>
      <trkpt lat="44.05842" lon="7.01518">
        <ele>1982.8564453125</ele>
        <time>2020-01-11T11:33:18Z</time>
      </trkpt>
      <trkpt lat="44.0585" lon="7.01525">
        <ele>1982.3759765625</ele>
        <time>2020-01-11T11:33:28Z</time>
      </trkpt>
      <trkpt lat="44.05857" lon="7.01524">
        <ele>1982.8564453125</ele>
        <time>2020-01-11T11:33:37Z</time>
      </trkpt>
      <trkpt lat="44.05865" lon="7.01522">
        <ele>1983.3371582031</ele>
        <time>2020-01-11T11:33:48Z</time>
      </trkpt>
      <trkpt lat="44.0587" lon="7.01512">
        <ele>1983.8178710938</ele>
        <time>2020-01-11T11:33:58Z</time>
      </trkpt>
      <trkpt lat="44.05873" lon="7.01498">
        <ele>1983.3371582031</ele>
        <time>2020-01-11T11:34:08Z</time>
      </trkpt>
      <trkpt lat="44.05876" lon="7.01486">
        <ele>1982.8564453125</ele>
        <time>2020-01-11T11:34:19Z</time>
      </trkpt>
      <trkpt lat="44.0588" lon="7.01475">
        <ele>1982.8564453125</ele>
        <time>2020-01-11T11:34:29Z</time>
      </trkpt>
      <trkpt lat="44.05884" lon="7.01464">
        <ele>1981.4145507812</ele>
        <time>2020-01-11T11:34:39Z</time>
      </trkpt>
      <trkpt lat="44.0589" lon="7.01453">
        <ele>1980.9340820312</ele>
        <time>2020-01-11T11:34:49Z</time>
      </trkpt>
      <trkpt lat="44.05895" lon="7.01442">
        <ele>1980.4533691406</ele>
        <time>2020-01-11T11:34:59Z</time>
      </trkpt>
      <trkpt lat="44.059" lon="7.0143">
        <ele>1979.4916992188</ele>
        <time>2020-01-11T11:35:11Z</time>
      </trkpt>
      <trkpt lat="44.05906" lon="7.01421">
        <ele>1978.5305175781</ele>
        <time>2020-01-11T11:35:21Z</time>
      </trkpt>
      <trkpt lat="44.05915" lon="7.01413">
        <ele>1979.4916992188</ele>
        <time>2020-01-11T11:35:35Z</time>
      </trkpt>
      <trkpt lat="44.05924" lon="7.01406">
        <ele>1979.0109863281</ele>
        <time>2020-01-11T11:35:45Z</time>
      </trkpt>
      <trkpt lat="44.05928" lon="7.01395">
        <ele>1980.4533691406</ele>
        <time>2020-01-11T11:35:57Z</time>
      </trkpt>
      <trkpt lat="44.05934" lon="7.01386">
        <ele>1981.8952636719</ele>
        <time>2020-01-11T11:36:09Z</time>
      </trkpt>
      <trkpt lat="44.05943" lon="7.01381">
        <ele>1982.8564453125</ele>
        <time>2020-01-11T11:36:22Z</time>
      </trkpt>
      <trkpt lat="44.05949" lon="7.01377">
        <ele>1983.3371582031</ele>
        <time>2020-01-11T11:36:35Z</time>
      </trkpt>
      <trkpt lat="44.05959" lon="7.01372">
        <ele>1984.2985839844</ele>
        <time>2020-01-11T11:36:49Z</time>
      </trkpt>
      <trkpt lat="44.0597" lon="7.01372">
        <ele>1984.779296875</ele>
        <time>2020-01-11T11:37:01Z</time>
      </trkpt>
      <trkpt lat="44.05978" lon="7.01366">
        <ele>1985.7404785156</ele>
        <time>2020-01-11T11:37:12Z</time>
      </trkpt>
      <trkpt lat="44.05987" lon="7.01361">
        <ele>1985.7404785156</ele>
        <time>2020-01-11T11:37:22Z</time>
      </trkpt>
      <trkpt lat="44.05994" lon="7.01354">
        <ele>1986.2211914062</ele>
        <time>2020-01-11T11:37:43Z</time>
      </trkpt>
      <trkpt lat="44.06002" lon="7.01346">
        <ele>1985.259765625</ele>
        <time>2020-01-11T11:38:03Z</time>
      </trkpt>
      <trkpt lat="44.06011" lon="7.01342">
        <ele>1983.8178710938</ele>
        <time>2020-01-11T11:38:17Z</time>
      </trkpt>
      <trkpt lat="44.0602" lon="7.01338">
        <ele>1981.4145507812</ele>
        <time>2020-01-11T11:38:26Z</time>
      </trkpt>
      <trkpt lat="44.06029" lon="7.01335">
        <ele>1980.4533691406</ele>
        <time>2020-01-11T11:38:36Z</time>
      </trkpt>
      <trkpt lat="44.06038" lon="7.01337">
        <ele>1979.4916992188</ele>
        <time>2020-01-11T11:38:45Z</time>
      </trkpt>
      <trkpt lat="44.06046" lon="7.0134">
        <ele>1977.0886230469</ele>
        <time>2020-01-11T11:38:54Z</time>
      </trkpt>
      <trkpt lat="44.06056" lon="7.01344">
        <ele>1975.1657714844</ele>
        <time>2020-01-11T11:39:04Z</time>
      </trkpt>
      <trkpt lat="44.06064" lon="7.01348">
        <ele>1973.7238769531</ele>
        <time>2020-01-11T11:39:14Z</time>
      </trkpt>
      <trkpt lat="44.06073" lon="7.01353">
        <ele>1972.2819824219</ele>
        <time>2020-01-11T11:39:24Z</time>
      </trkpt>
      <trkpt lat="44.06082" lon="7.01351">
        <ele>1970.8400878906</ele>
        <time>2020-01-11T11:39:35Z</time>
      </trkpt>
      <trkpt lat="44.06086" lon="7.01355">
        <ele>1968.4367675781</ele>
        <time>2020-01-11T11:39:46Z</time>
      </trkpt>
      <trkpt lat="44.06086" lon="7.01365">
        <ele>1966.5141601562</ele>
        <time>2020-01-11T11:40:07Z</time>
      </trkpt>
      <trkpt lat="44.06087" lon="7.01377">
        <ele>1961.7075195312</ele>
        <time>2020-01-11T11:41:15Z</time>
      </trkpt>
      <trkpt lat="44.06095" lon="7.0139">
        <ele>1957.3815917969</ele>
        <time>2020-01-11T11:41:40Z</time>
      </trkpt>
      <trkpt lat="44.06103" lon="7.01398">
        <ele>1955.458984375</ele>
        <time>2020-01-11T11:41:49Z</time>
      </trkpt>
      <trkpt lat="44.061" lon="7.01412">
        <ele>1951.6137695312</ele>
        <time>2020-01-11T11:42:02Z</time>
      </trkpt>
      <trkpt lat="44.06108" lon="7.01418">
        <ele>1949.2104492188</ele>
        <time>2020-01-11T11:42:16Z</time>
      </trkpt>
      <trkpt lat="44.0612" lon="7.0142">
        <ele>1947.2875976562</ele>
        <time>2020-01-11T11:42:27Z</time>
      </trkpt>
      <trkpt lat="44.06131" lon="7.01421">
        <ele>1945.845703125</ele>
        <time>2020-01-11T11:42:38Z</time>
      </trkpt>
      <trkpt lat="44.06138" lon="7.01426">
        <ele>1944.4035644531</ele>
        <time>2020-01-11T11:42:48Z</time>
      </trkpt>
      <trkpt lat="44.06145" lon="7.0143">
        <ele>1944.8842773438</ele>
        <time>2020-01-11T11:43:01Z</time>
      </trkpt>
      <trkpt lat="44.0615" lon="7.01438">
        <ele>1943.9230957031</ele>
        <time>2020-01-11T11:43:15Z</time>
      </trkpt>
      <trkpt lat="44.06155" lon="7.0145">
        <ele>1942.4812011719</ele>
        <time>2020-01-11T11:43:25Z</time>
      </trkpt>
      <trkpt lat="44.06159" lon="7.01459">
        <ele>1941.5197753906</ele>
        <time>2020-01-11T11:43:35Z</time>
      </trkpt>
      <trkpt lat="44.06169" lon="7.01461">
        <ele>1942.0004882812</ele>
        <time>2020-01-11T11:43:54Z</time>
      </trkpt>
      <trkpt lat="44.06171" lon="7.01471">
        <ele>1940.5583496094</ele>
        <time>2020-01-11T11:44:22Z</time>
      </trkpt>
      <trkpt lat="44.06168" lon="7.01484">
        <ele>1937.1938476562</ele>
        <time>2020-01-11T11:44:44Z</time>
      </trkpt>
      <trkpt lat="44.06169" lon="7.01483">
        <ele>1936.7131347656</ele>
        <time>2020-01-11T11:45:16Z</time>
      </trkpt>
      <trkpt lat="44.06162" lon="7.01486">
        <ele>1934.7907714844</ele>
        <time>2020-01-11T11:46:14Z</time>
      </trkpt>
      <trkpt lat="44.06153" lon="7.0149">
        <ele>1933.8293457031</ele>
        <time>2020-01-11T11:46:37Z</time>
      </trkpt>
      <trkpt lat="44.06147" lon="7.01499">
        <ele>1933.8293457031</ele>
        <time>2020-01-11T11:46:57Z</time>
      </trkpt>
      <trkpt lat="44.06145" lon="7.01512">
        <ele>1934.3100585938</ele>
        <time>2020-01-11T11:47:16Z</time>
      </trkpt>
      <trkpt lat="44.06145" lon="7.01529">
        <ele>1933.8293457031</ele>
        <time>2020-01-11T11:47:32Z</time>
      </trkpt>
      <trkpt lat="44.06148" lon="7.01543">
        <ele>1932.3874511719</ele>
        <time>2020-01-11T11:47:48Z</time>
      </trkpt>
      <trkpt lat="44.06148" lon="7.01558">
        <ele>1929.9838867188</ele>
        <time>2020-01-11T11:48:06Z</time>
      </trkpt>
      <trkpt lat="44.06147" lon="7.01571">
        <ele>1927.5805664062</ele>
        <time>2020-01-11T11:48:18Z</time>
      </trkpt>
      <trkpt lat="44.06146" lon="7.01585">
        <ele>1924.2160644531</ele>
        <time>2020-01-11T11:48:30Z</time>
      </trkpt>
      <trkpt lat="44.06142" lon="7.01597">
        <ele>1922.2934570312</ele>
        <time>2020-01-11T11:48:47Z</time>
      </trkpt>
      <trkpt lat="44.06138" lon="7.01609">
        <ele>1919.8901367188</ele>
        <time>2020-01-11T11:48:59Z</time>
      </trkpt>
      <trkpt lat="44.06137" lon="7.01622">
        <ele>1917.0063476562</ele>
        <time>2020-01-11T11:49:10Z</time>
      </trkpt>
      <trkpt lat="44.06135" lon="7.01632">
        <ele>1915.0834960938</ele>
        <time>2020-01-11T11:49:21Z</time>
      </trkpt>
      <trkpt lat="44.06136" lon="7.01645">
        <ele>1912.6801757812</ele>
        <time>2020-01-11T11:49:32Z</time>
      </trkpt>
      <trkpt lat="44.06134" lon="7.01659">
        <ele>1911.23828125</ele>
        <time>2020-01-11T11:49:42Z</time>
      </trkpt>
      <trkpt lat="44.06139" lon="7.0167">
        <ele>1910.7575683594</ele>
        <time>2020-01-11T11:49:51Z</time>
      </trkpt>
      <trkpt lat="44.06142" lon="7.01683">
        <ele>1909.7961425781</ele>
        <time>2020-01-11T11:50:00Z</time>
      </trkpt>
      <trkpt lat="44.06148" lon="7.01694">
        <ele>1908.8349609375</ele>
        <time>2020-01-11T11:50:09Z</time>
      </trkpt>
      <trkpt lat="44.06155" lon="7.01702">
        <ele>1905.9509277344</ele>
        <time>2020-01-11T11:50:22Z</time>
      </trkpt>
      <trkpt lat="44.06167" lon="7.0171">
        <ele>1903.0671386719</ele>
        <time>2020-01-11T11:51:33Z</time>
      </trkpt>
      <trkpt lat="44.06173" lon="7.01719">
        <ele>1901.6252441406</ele>
        <time>2020-01-11T11:51:42Z</time>
      </trkpt>
      <trkpt lat="44.06178" lon="7.01728">
        <ele>1899.7023925781</ele>
        <time>2020-01-11T11:51:52Z</time>
      </trkpt>
      <trkpt lat="44.06184" lon="7.01739">
        <ele>1897.2990722656</ele>
        <time>2020-01-11T11:52:01Z</time>
      </trkpt>
      <trkpt lat="44.06189" lon="7.0175">
        <ele>1895.3764648438</ele>
        <time>2020-01-11T11:52:11Z</time>
      </trkpt>
      <trkpt lat="44.06193" lon="7.01763">
        <ele>1892.9731445312</ele>
        <time>2020-01-11T11:52:21Z</time>
      </trkpt>
      <trkpt lat="44.06196" lon="7.01774">
        <ele>1889.6086425781</ele>
        <time>2020-01-11T11:52:31Z</time>
      </trkpt>
      <trkpt lat="44.062" lon="7.01785">
        <ele>1888.6474609375</ele>
        <time>2020-01-11T11:52:41Z</time>
      </trkpt>
      <trkpt lat="44.06203" lon="7.01799">
        <ele>1886.724609375</ele>
        <time>2020-01-11T11:52:53Z</time>
      </trkpt>
      <trkpt lat="44.06204" lon="7.0181">
        <ele>1883.8405761719</ele>
        <time>2020-01-11T11:53:05Z</time>
      </trkpt>
      <trkpt lat="44.06204" lon="7.01823">
        <ele>1881.91796875</ele>
        <time>2020-01-11T11:53:18Z</time>
      </trkpt>
      <trkpt lat="44.06206" lon="7.01836">
        <ele>1879.0339355469</ele>
        <time>2020-01-11T11:53:36Z</time>
      </trkpt>
      <trkpt lat="44.06206" lon="7.01849">
        <ele>1876.1501464844</ele>
        <time>2020-01-11T11:53:51Z</time>
      </trkpt>
      <trkpt lat="44.06209" lon="7.01864">
        <ele>1873.7468261719</ele>
        <time>2020-01-11T11:54:11Z</time>
      </trkpt>
      <trkpt lat="44.06212" lon="7.01874">
        <ele>1871.82421875</ele>
        <time>2020-01-11T11:54:23Z</time>
      </trkpt>
      <trkpt lat="44.06216" lon="7.01887">
        <ele>1869.4211425781</ele>
        <time>2020-01-11T11:54:34Z</time>
      </trkpt>
      <trkpt lat="44.06219" lon="7.01898">
        <ele>1867.9787597656</ele>
        <time>2020-01-11T11:54:46Z</time>
      </trkpt>
      <trkpt lat="44.06224" lon="7.01908">
        <ele>1867.498046875</ele>
        <time>2020-01-11T11:54:57Z</time>
      </trkpt>
      <trkpt lat="44.06228" lon="7.01922">
        <ele>1866.5368652344</ele>
        <time>2020-01-11T11:55:09Z</time>
      </trkpt>
      <trkpt lat="44.06229" lon="7.01934">
        <ele>1865.0949707031</ele>
        <time>2020-01-11T11:55:21Z</time>
      </trkpt>
      <trkpt lat="44.06233" lon="7.01947">
        <ele>1864.6142578125</ele>
        <time>2020-01-11T11:55:35Z</time>
      </trkpt>
      <trkpt lat="44.0624" lon="7.01956">
        <ele>1858.3657226562</ele>
        <time>2020-01-11T12:32:46Z</time>
      </trkpt>
      <trkpt lat="44.06242" lon="7.01948">
        <ele>1859.8076171875</ele>
        <time>2020-01-11T12:39:57Z</time>
      </trkpt>
      <trkpt lat="44.06251" lon="7.01939">
        <ele>1864.1335449219</ele>
        <time>2020-01-11T12:40:21Z</time>
      </trkpt>
      <trkpt lat="44.0626" lon="7.01937">
        <ele>1866.5368652344</ele>
        <time>2020-01-11T12:40:46Z</time>
      </trkpt>
      <trkpt lat="44.06271" lon="7.01935">
        <ele>1868.4597167969</ele>
        <time>2020-01-11T12:41:06Z</time>
      </trkpt>
      <trkpt lat="44.06278" lon="7.01931">
        <ele>1870.3823242188</ele>
        <time>2020-01-11T12:41:21Z</time>
      </trkpt>
      <trkpt lat="44.06287" lon="7.0193">
        <ele>1871.3435058594</ele>
        <time>2020-01-11T12:41:35Z</time>
      </trkpt>
      <trkpt lat="44.06294" lon="7.01928">
        <ele>1872.3049316406</ele>
        <time>2020-01-11T12:41:48Z</time>
      </trkpt>
      <trkpt lat="44.06302" lon="7.0193">
        <ele>1873.2663574219</ele>
        <time>2020-01-11T12:42:02Z</time>
      </trkpt>
      <trkpt lat="44.06311" lon="7.01928">
        <ele>1873.2663574219</ele>
        <time>2020-01-11T12:42:15Z</time>
      </trkpt>
      <trkpt lat="44.06318" lon="7.01934">
        <ele>1873.2663574219</ele>
        <time>2020-01-11T12:42:25Z</time>
      </trkpt>
      <trkpt lat="44.06323" lon="7.01941">
        <ele>1873.7468261719</ele>
        <time>2020-01-11T12:42:36Z</time>
      </trkpt>
      <trkpt lat="44.0633" lon="7.0195">
        <ele>1872.7856445312</ele>
        <time>2020-01-11T12:42:47Z</time>
      </trkpt>
      <trkpt lat="44.06337" lon="7.01958">
        <ele>1873.2663574219</ele>
        <time>2020-01-11T12:42:58Z</time>
      </trkpt>
      <trkpt lat="44.06344" lon="7.01968">
        <ele>1872.7856445312</ele>
        <time>2020-01-11T12:43:08Z</time>
      </trkpt>
      <trkpt lat="44.06351" lon="7.01976">
        <ele>1872.7856445312</ele>
        <time>2020-01-11T12:43:18Z</time>
      </trkpt>
      <trkpt lat="44.06355" lon="7.01984">
        <ele>1871.3435058594</ele>
        <time>2020-01-11T12:43:45Z</time>
      </trkpt>
      <trkpt lat="44.06363" lon="7.01991">
        <ele>1871.3435058594</ele>
        <time>2020-01-11T12:43:55Z</time>
      </trkpt>
      <trkpt lat="44.06372" lon="7.02002">
        <ele>1868.9404296875</ele>
        <time>2020-01-11T12:44:05Z</time>
      </trkpt>
      <trkpt lat="44.06379" lon="7.02009">
        <ele>1869.9016113281</ele>
        <time>2020-01-11T12:44:13Z</time>
      </trkpt>
      <trkpt lat="44.06386" lon="7.02017">
        <ele>1867.9787597656</ele>
        <time>2020-01-11T12:44:27Z</time>
      </trkpt>
      <trkpt lat="44.06393" lon="7.02027">
        <ele>1868.9404296875</ele>
        <time>2020-01-11T12:44:37Z</time>
      </trkpt>
      <trkpt lat="44.06401" lon="7.02038">
        <ele>1867.9787597656</ele>
        <time>2020-01-11T12:44:47Z</time>
      </trkpt>
      <trkpt lat="44.06411" lon="7.02045">
        <ele>1867.498046875</ele>
        <time>2020-01-11T12:44:57Z</time>
      </trkpt>
      <trkpt lat="44.06422" lon="7.02049">
        <ele>1867.9787597656</ele>
        <time>2020-01-11T12:45:06Z</time>
      </trkpt>
      <trkpt lat="44.06428" lon="7.02055">
        <ele>1868.4597167969</ele>
        <time>2020-01-11T12:45:16Z</time>
      </trkpt>
      <trkpt lat="44.06435" lon="7.02059">
        <ele>1868.4597167969</ele>
        <time>2020-01-11T12:45:29Z</time>
      </trkpt>
      <trkpt lat="44.06445" lon="7.02064">
        <ele>1868.4597167969</ele>
        <time>2020-01-11T12:45:38Z</time>
      </trkpt>
      <trkpt lat="44.06451" lon="7.02068">
        <ele>1868.4597167969</ele>
        <time>2020-01-11T12:45:48Z</time>
      </trkpt>
      <trkpt lat="44.0646" lon="7.02074">
        <ele>1868.4597167969</ele>
        <time>2020-01-11T12:45:59Z</time>
      </trkpt>
      <trkpt lat="44.06467" lon="7.02077">
        <ele>1868.9404296875</ele>
        <time>2020-01-11T12:46:08Z</time>
      </trkpt>
      <trkpt lat="44.06473" lon="7.0208">
        <ele>1868.4597167969</ele>
        <time>2020-01-11T12:46:18Z</time>
      </trkpt>
      <trkpt lat="44.06481" lon="7.02081">
        <ele>1869.4211425781</ele>
        <time>2020-01-11T12:46:33Z</time>
      </trkpt>
      <trkpt lat="44.06491" lon="7.02085">
        <ele>1869.4211425781</ele>
        <time>2020-01-11T12:46:50Z</time>
      </trkpt>
      <trkpt lat="44.065" lon="7.02089">
        <ele>1869.9016113281</ele>
        <time>2020-01-11T12:47:00Z</time>
      </trkpt>
      <trkpt lat="44.0651" lon="7.02091">
        <ele>1870.3823242188</ele>
        <time>2020-01-11T12:47:10Z</time>
      </trkpt>
      <trkpt lat="44.06519" lon="7.02091">
        <ele>1870.8630371094</ele>
        <time>2020-01-11T12:47:21Z</time>
      </trkpt>
      <trkpt lat="44.06529" lon="7.02092">
        <ele>1871.3435058594</ele>
        <time>2020-01-11T12:47:33Z</time>
      </trkpt>
      <trkpt lat="44.0654" lon="7.02092">
        <ele>1872.3049316406</ele>
        <time>2020-01-11T12:47:46Z</time>
      </trkpt>
      <trkpt lat="44.06551" lon="7.02092">
        <ele>1873.7468261719</ele>
        <time>2020-01-11T12:47:58Z</time>
      </trkpt>
      <trkpt lat="44.06558" lon="7.02091">
        <ele>1874.2275390625</ele>
        <time>2020-01-11T12:48:09Z</time>
      </trkpt>
      <trkpt lat="44.06566" lon="7.0209">
        <ele>1875.6694335938</ele>
        <time>2020-01-11T12:48:21Z</time>
      </trkpt>
      <trkpt lat="44.06575" lon="7.02088">
        <ele>1877.5920410156</ele>
        <time>2020-01-11T12:48:34Z</time>
      </trkpt>
      <trkpt lat="44.06583" lon="7.02082">
        <ele>1878.0727539062</ele>
        <time>2020-01-11T12:48:47Z</time>
      </trkpt>
      <trkpt lat="44.06598" lon="7.02079">
        <ele>1878.0727539062</ele>
        <time>2020-01-11T12:48:58Z</time>
      </trkpt>
      <trkpt lat="44.06605" lon="7.02073">
        <ele>1877.5920410156</ele>
        <time>2020-01-11T12:49:15Z</time>
      </trkpt>
      <trkpt lat="44.06617" lon="7.02067">
        <ele>1878.0727539062</ele>
        <time>2020-01-11T12:49:26Z</time>
      </trkpt>
      <trkpt lat="44.06627" lon="7.02062">
        <ele>1879.0339355469</ele>
        <time>2020-01-11T12:49:35Z</time>
      </trkpt>
      <trkpt lat="44.06635" lon="7.02054">
        <ele>1879.9953613281</ele>
        <time>2020-01-11T12:49:47Z</time>
      </trkpt>
      <trkpt lat="44.06644" lon="7.02051">
        <ele>1880.4760742188</ele>
        <time>2020-01-11T12:49:58Z</time>
      </trkpt>
      <trkpt lat="44.06651" lon="7.02045">
        <ele>1880.4760742188</ele>
        <time>2020-01-11T12:50:09Z</time>
      </trkpt>
      <trkpt lat="44.06658" lon="7.0204">
        <ele>1880.4760742188</ele>
        <time>2020-01-11T12:50:20Z</time>
      </trkpt>
      <trkpt lat="44.06669" lon="7.02036">
        <ele>1881.4372558594</ele>
        <time>2020-01-11T12:50:29Z</time>
      </trkpt>
      <trkpt lat="44.06679" lon="7.02029">
        <ele>1881.4372558594</ele>
        <time>2020-01-11T12:50:39Z</time>
      </trkpt>
      <trkpt lat="44.06689" lon="7.02022">
        <ele>1882.3986816406</ele>
        <time>2020-01-11T12:50:51Z</time>
      </trkpt>
      <trkpt lat="44.06694" lon="7.02015">
        <ele>1881.91796875</ele>
        <time>2020-01-11T12:51:01Z</time>
      </trkpt>
      <trkpt lat="44.067" lon="7.02008">
        <ele>1881.91796875</ele>
        <time>2020-01-11T12:51:11Z</time>
      </trkpt>
      <trkpt lat="44.06706" lon="7.01999">
        <ele>1881.91796875</ele>
        <time>2020-01-11T12:51:26Z</time>
      </trkpt>
      <trkpt lat="44.06716" lon="7.01991">
        <ele>1881.4372558594</ele>
        <time>2020-01-11T12:51:36Z</time>
      </trkpt>
      <trkpt lat="44.06726" lon="7.01985">
        <ele>1881.4372558594</ele>
        <time>2020-01-11T12:51:45Z</time>
      </trkpt>
      <trkpt lat="44.06734" lon="7.01984">
        <ele>1880.9567871094</ele>
        <time>2020-01-11T12:51:54Z</time>
      </trkpt>
      <trkpt lat="44.06743" lon="7.01982">
        <ele>1880.4760742188</ele>
        <time>2020-01-11T12:52:04Z</time>
      </trkpt>
      <trkpt lat="44.06752" lon="7.01981">
        <ele>1879.5146484375</ele>
        <time>2020-01-11T12:52:14Z</time>
      </trkpt>
      <trkpt lat="44.06763" lon="7.01982">
        <ele>1878.5534667969</ele>
        <time>2020-01-11T12:52:26Z</time>
      </trkpt>
      <trkpt lat="44.06771" lon="7.01986">
        <ele>1878.0727539062</ele>
        <time>2020-01-11T12:52:36Z</time>
      </trkpt>
      <trkpt lat="44.0678" lon="7.0199">
        <ele>1878.0727539062</ele>
        <time>2020-01-11T12:52:45Z</time>
      </trkpt>
      <trkpt lat="44.06789" lon="7.01993">
        <ele>1877.5920410156</ele>
        <time>2020-01-11T12:52:54Z</time>
      </trkpt>
      <trkpt lat="44.06797" lon="7.01995">
        <ele>1876.630859375</ele>
        <time>2020-01-11T12:53:02Z</time>
      </trkpt>
      <trkpt lat="44.06807" lon="7.02">
        <ele>1876.630859375</ele>
        <time>2020-01-11T12:53:11Z</time>
      </trkpt>
      <trkpt lat="44.06814" lon="7.02007">
        <ele>1876.1501464844</ele>
        <time>2020-01-11T12:53:20Z</time>
      </trkpt>
      <trkpt lat="44.0682" lon="7.02013">
        <ele>1874.2275390625</ele>
        <time>2020-01-11T12:53:28Z</time>
      </trkpt>
      <trkpt lat="44.06828" lon="7.02019">
        <ele>1874.2275390625</ele>
        <time>2020-01-11T12:53:36Z</time>
      </trkpt>
      <trkpt lat="44.06835" lon="7.02024">
        <ele>1873.2663574219</ele>
        <time>2020-01-11T12:53:44Z</time>
      </trkpt>
      <trkpt lat="44.06843" lon="7.02029">
        <ele>1871.82421875</ele>
        <time>2020-01-11T12:53:51Z</time>
      </trkpt>
      <trkpt lat="44.0685" lon="7.02033">
        <ele>1871.82421875</ele>
        <time>2020-01-11T12:53:59Z</time>
      </trkpt>
      <trkpt lat="44.06863" lon="7.02033">
        <ele>1871.3435058594</ele>
        <time>2020-01-11T12:54:11Z</time>
      </trkpt>
      <trkpt lat="44.0687" lon="7.0203">
        <ele>1870.8630371094</ele>
        <time>2020-01-11T12:54:19Z</time>
      </trkpt>
      <trkpt lat="44.0688" lon="7.0203">
        <ele>1869.9016113281</ele>
        <time>2020-01-11T12:54:27Z</time>
      </trkpt>
      <trkpt lat="44.06888" lon="7.02029">
        <ele>1869.9016113281</ele>
        <time>2020-01-11T12:54:35Z</time>
      </trkpt>
      <trkpt lat="44.06897" lon="7.0203">
        <ele>1868.9404296875</ele>
        <time>2020-01-11T12:54:45Z</time>
      </trkpt>
      <trkpt lat="44.06906" lon="7.0203">
        <ele>1868.4597167969</ele>
        <time>2020-01-11T12:54:54Z</time>
      </trkpt>
      <trkpt lat="44.06915" lon="7.02027">
        <ele>1866.0561523438</ele>
        <time>2020-01-11T12:55:03Z</time>
      </trkpt>
      <trkpt lat="44.06922" lon="7.02026">
        <ele>1864.1335449219</ele>
        <time>2020-01-11T12:55:23Z</time>
      </trkpt>
      <trkpt lat="44.06932" lon="7.02027">
        <ele>1863.6528320312</ele>
        <time>2020-01-11T12:55:31Z</time>
      </trkpt>
      <trkpt lat="44.06941" lon="7.02029">
        <ele>1861.73046875</ele>
        <time>2020-01-11T12:55:38Z</time>
      </trkpt>
      <trkpt lat="44.0695" lon="7.0203">
        <ele>1860.7690429688</ele>
        <time>2020-01-11T12:55:45Z</time>
      </trkpt>
      <trkpt lat="44.06956" lon="7.02035">
        <ele>1859.8076171875</ele>
        <time>2020-01-11T12:55:57Z</time>
      </trkpt>
      <trkpt lat="44.06965" lon="7.02037">
        <ele>1858.3657226562</ele>
        <time>2020-01-11T12:56:04Z</time>
      </trkpt>
      <trkpt lat="44.06973" lon="7.02039">
        <ele>1856.923828125</ele>
        <time>2020-01-11T12:56:11Z</time>
      </trkpt>
      <trkpt lat="44.06982" lon="7.02045">
        <ele>1855.9624023438</ele>
        <time>2020-01-11T12:56:20Z</time>
      </trkpt>
      <trkpt lat="44.06988" lon="7.02055">
        <ele>1855.9624023438</ele>
        <time>2020-01-11T12:56:28Z</time>
      </trkpt>
      <trkpt lat="44.06995" lon="7.02065">
        <ele>1853.0786132812</ele>
        <time>2020-01-11T12:56:36Z</time>
      </trkpt>
      <trkpt lat="44.06999" lon="7.02075">
        <ele>1851.6364746094</ele>
        <time>2020-01-11T12:57:17Z</time>
      </trkpt>
      <trkpt lat="44.06994" lon="7.02068">
        <ele>1855.0012207031</ele>
        <time>2020-01-11T13:02:05Z</time>
      </trkpt>
      <trkpt lat="44.06983" lon="7.02074">
        <ele>1856.4431152344</ele>
        <time>2020-01-11T13:02:15Z</time>
      </trkpt>
      <trkpt lat="44.06976" lon="7.02077">
        <ele>1858.8464355469</ele>
        <time>2020-01-11T13:02:27Z</time>
      </trkpt>
      <trkpt lat="44.06965" lon="7.02082">
        <ele>1860.7690429688</ele>
        <time>2020-01-11T13:02:40Z</time>
      </trkpt>
      <trkpt lat="44.06957" lon="7.02089">
        <ele>1862.2109375</ele>
        <time>2020-01-11T13:03:00Z</time>
      </trkpt>
      <trkpt lat="44.06957" lon="7.02097">
        <ele>1862.2109375</ele>
        <time>2020-01-11T13:03:55Z</time>
      </trkpt>
      <trkpt lat="44.06964" lon="7.02105">
        <ele>1862.2109375</ele>
        <time>2020-01-11T13:04:43Z</time>
      </trkpt>
      <trkpt lat="44.06968" lon="7.02116">
        <ele>1861.2497558594</ele>
        <time>2020-01-11T13:04:54Z</time>
      </trkpt>
      <trkpt lat="44.06971" lon="7.02128">
        <ele>1861.73046875</ele>
        <time>2020-01-11T13:05:04Z</time>
      </trkpt>
      <trkpt lat="44.06973" lon="7.02138">
        <ele>1861.2497558594</ele>
        <time>2020-01-11T13:05:17Z</time>
      </trkpt>
      <trkpt lat="44.06977" lon="7.0215">
        <ele>1860.2883300781</ele>
        <time>2020-01-11T13:05:26Z</time>
      </trkpt>
      <trkpt lat="44.06982" lon="7.02162">
        <ele>1859.3271484375</ele>
        <time>2020-01-11T13:05:35Z</time>
      </trkpt>
      <trkpt lat="44.06987" lon="7.02172">
        <ele>1858.3657226562</ele>
        <time>2020-01-11T13:05:50Z</time>
      </trkpt>
      <trkpt lat="44.0699" lon="7.02185">
        <ele>1857.4045410156</ele>
        <time>2020-01-11T13:05:59Z</time>
      </trkpt>
      <trkpt lat="44.06994" lon="7.02198">
        <ele>1855.9624023438</ele>
        <time>2020-01-11T13:06:08Z</time>
      </trkpt>
      <trkpt lat="44.06997" lon="7.02211">
        <ele>1854.5205078125</ele>
        <time>2020-01-11T13:06:17Z</time>
      </trkpt>
      <trkpt lat="44.06995" lon="7.02224">
        <ele>1853.5593261719</ele>
        <time>2020-01-11T13:06:26Z</time>
      </trkpt>
      <trkpt lat="44.06997" lon="7.02237">
        <ele>1851.1557617188</ele>
        <time>2020-01-11T13:06:37Z</time>
      </trkpt>
      <trkpt lat="44.06993" lon="7.02253">
        <ele>1849.2331542969</ele>
        <time>2020-01-11T13:06:51Z</time>
      </trkpt>
      <trkpt lat="44.06993" lon="7.02265">
        <ele>1848.2717285156</ele>
        <time>2020-01-11T13:07:01Z</time>
      </trkpt>
      <trkpt lat="44.06993" lon="7.02278">
        <ele>1846.3493652344</ele>
        <time>2020-01-11T13:07:11Z</time>
      </trkpt>
      <trkpt lat="44.06989" lon="7.02291">
        <ele>1845.3879394531</ele>
        <time>2020-01-11T13:07:20Z</time>
      </trkpt>
      <trkpt lat="44.06988" lon="7.02305">
        <ele>1844.4265136719</ele>
        <time>2020-01-11T13:07:29Z</time>
      </trkpt>
      <trkpt lat="44.06997" lon="7.02309">
        <ele>1840.5812988281</ele>
        <time>2020-01-11T13:07:40Z</time>
      </trkpt>
      <trkpt lat="44.06999" lon="7.0232">
        <ele>1838.6589355469</ele>
        <time>2020-01-11T13:07:52Z</time>
      </trkpt>
      <trkpt lat="44.06994" lon="7.02333">
        <ele>1838.6589355469</ele>
        <time>2020-01-11T13:08:05Z</time>
      </trkpt>
      <trkpt lat="44.06991" lon="7.02346">
        <ele>1836.2556152344</ele>
        <time>2020-01-11T13:08:22Z</time>
      </trkpt>
      <trkpt lat="44.06989" lon="7.02359">
        <ele>1832.890625</ele>
        <time>2020-01-11T13:08:31Z</time>
      </trkpt>
      <trkpt lat="44.06991" lon="7.02372">
        <ele>1830.9682617188</ele>
        <time>2020-01-11T13:08:40Z</time>
      </trkpt>
      <trkpt lat="44.06997" lon="7.02379">
        <ele>1830.0068359375</ele>
        <time>2020-01-11T13:08:53Z</time>
      </trkpt>
      <trkpt lat="44.07003" lon="7.0239">
        <ele>1828.0842285156</ele>
        <time>2020-01-11T13:09:03Z</time>
      </trkpt>
      <trkpt lat="44.07009" lon="7.024">
        <ele>1825.2001953125</ele>
        <time>2020-01-11T13:09:13Z</time>
      </trkpt>
      <trkpt lat="44.07011" lon="7.02414">
        <ele>1823.7583007812</ele>
        <time>2020-01-11T13:09:22Z</time>
      </trkpt>
      <trkpt lat="44.07013" lon="7.02428">
        <ele>1822.31640625</ele>
        <time>2020-01-11T13:09:32Z</time>
      </trkpt>
      <trkpt lat="44.07016" lon="7.02441">
        <ele>1821.3549804688</ele>
        <time>2020-01-11T13:09:42Z</time>
      </trkpt>
      <trkpt lat="44.07017" lon="7.02454">
        <ele>1819.9128417969</ele>
        <time>2020-01-11T13:09:52Z</time>
      </trkpt>
      <trkpt lat="44.07019" lon="7.02466">
        <ele>1818.4709472656</ele>
        <time>2020-01-11T13:10:02Z</time>
      </trkpt>
      <trkpt lat="44.07022" lon="7.02481">
        <ele>1816.5483398438</ele>
        <time>2020-01-11T13:10:13Z</time>
      </trkpt>
      <trkpt lat="44.07023" lon="7.02494">
        <ele>1816.5483398438</ele>
        <time>2020-01-11T13:10:23Z</time>
      </trkpt>
      <trkpt lat="44.07025" lon="7.02507">
        <ele>1814.1450195312</ele>
        <time>2020-01-11T13:10:33Z</time>
      </trkpt>
      <trkpt lat="44.07031" lon="7.02517">
        <ele>1810.7805175781</ele>
        <time>2020-01-11T13:10:43Z</time>
      </trkpt>
      <trkpt lat="44.07037" lon="7.02528">
        <ele>1807.8967285156</ele>
        <time>2020-01-11T13:10:53Z</time>
      </trkpt>
      <trkpt lat="44.07045" lon="7.02539">
        <ele>1805.4934082031</ele>
        <time>2020-01-11T13:11:09Z</time>
      </trkpt>
      <trkpt lat="44.07052" lon="7.02546">
        <ele>1803.08984375</ele>
        <time>2020-01-11T13:11:18Z</time>
      </trkpt>
      <trkpt lat="44.0706" lon="7.02555">
        <ele>1801.1672363281</ele>
        <time>2020-01-11T13:11:27Z</time>
      </trkpt>
      <trkpt lat="44.07061" lon="7.02566">
        <ele>1799.2446289062</ele>
        <time>2020-01-11T13:11:37Z</time>
      </trkpt>
      <trkpt lat="44.07065" lon="7.02575">
        <ele>1796.8413085938</ele>
        <time>2020-01-11T13:11:45Z</time>
      </trkpt>
      <trkpt lat="44.07071" lon="7.02585">
        <ele>1795.8801269531</ele>
        <time>2020-01-11T13:11:54Z</time>
      </trkpt>
      <trkpt lat="44.07083" lon="7.02588">
        <ele>1793.9575195312</ele>
        <time>2020-01-11T13:12:06Z</time>
      </trkpt>
      <trkpt lat="44.07092" lon="7.02591">
        <ele>1793.4768066406</ele>
        <time>2020-01-11T13:12:16Z</time>
      </trkpt>
      <trkpt lat="44.07104" lon="7.02592">
        <ele>1792.515625</ele>
        <time>2020-01-11T13:12:25Z</time>
      </trkpt>
      <trkpt lat="44.07111" lon="7.02589">
        <ele>1792.515625</ele>
        <time>2020-01-11T13:12:34Z</time>
      </trkpt>
      <trkpt lat="44.07123" lon="7.02587">
        <ele>1792.0349121094</ele>
        <time>2020-01-11T13:12:43Z</time>
      </trkpt>
      <trkpt lat="44.07129" lon="7.0258">
        <ele>1792.99609375</ele>
        <time>2020-01-11T13:12:54Z</time>
      </trkpt>
      <trkpt lat="44.07138" lon="7.02575">
        <ele>1792.515625</ele>
        <time>2020-01-11T13:13:09Z</time>
      </trkpt>
      <trkpt lat="44.07145" lon="7.0257">
        <ele>1792.515625</ele>
        <time>2020-01-11T13:13:18Z</time>
      </trkpt>
      <trkpt lat="44.07153" lon="7.02565">
        <ele>1792.515625</ele>
        <time>2020-01-11T13:13:28Z</time>
      </trkpt>
      <trkpt lat="44.07162" lon="7.02559">
        <ele>1791.5541992188</ele>
        <time>2020-01-11T13:13:38Z</time>
      </trkpt>
      <trkpt lat="44.07171" lon="7.02553">
        <ele>1791.5541992188</ele>
        <time>2020-01-11T13:13:48Z</time>
      </trkpt>
      <trkpt lat="44.0718" lon="7.02549">
        <ele>1790.5927734375</ele>
        <time>2020-01-11T13:13:57Z</time>
      </trkpt>
      <trkpt lat="44.07188" lon="7.02543">
        <ele>1789.6315917969</ele>
        <time>2020-01-11T13:14:06Z</time>
      </trkpt>
      <trkpt lat="44.07196" lon="7.02538">
        <ele>1788.1896972656</ele>
        <time>2020-01-11T13:14:16Z</time>
      </trkpt>
      <trkpt lat="44.07205" lon="7.02533">
        <ele>1786.7473144531</ele>
        <time>2020-01-11T13:14:26Z</time>
      </trkpt>
      <trkpt lat="44.07213" lon="7.02527">
        <ele>1786.2668457031</ele>
        <time>2020-01-11T13:14:36Z</time>
      </trkpt>
      <trkpt lat="44.07222" lon="7.02522">
        <ele>1784.8249511719</ele>
        <time>2020-01-11T13:14:46Z</time>
      </trkpt>
      <trkpt lat="44.0723" lon="7.02514">
        <ele>1783.8635253906</ele>
        <time>2020-01-11T13:14:56Z</time>
      </trkpt>
      <trkpt lat="44.07238" lon="7.02508">
        <ele>1783.8635253906</ele>
        <time>2020-01-11T13:15:06Z</time>
      </trkpt>
      <trkpt lat="44.07248" lon="7.02503">
        <ele>1783.3828125</ele>
        <time>2020-01-11T13:15:16Z</time>
      </trkpt>
      <trkpt lat="44.07257" lon="7.02499">
        <ele>1782.4216308594</ele>
        <time>2020-01-11T13:15:25Z</time>
      </trkpt>
      <trkpt lat="44.07266" lon="7.02494">
        <ele>1781.9409179688</ele>
        <time>2020-01-11T13:15:34Z</time>
      </trkpt>
      <trkpt lat="44.07274" lon="7.02488">
        <ele>1780.9797363281</ele>
        <time>2020-01-11T13:15:44Z</time>
      </trkpt>
      <trkpt lat="44.07282" lon="7.02483">
        <ele>1780.0183105469</ele>
        <time>2020-01-11T13:15:54Z</time>
      </trkpt>
      <trkpt lat="44.07289" lon="7.02476">
        <ele>1779.5375976562</ele>
        <time>2020-01-11T13:16:50Z</time>
      </trkpt>
      <trkpt lat="44.07299" lon="7.02472">
        <ele>1778.5764160156</ele>
        <time>2020-01-11T13:17:15Z</time>
      </trkpt>
      <trkpt lat="44.07308" lon="7.0247">
        <ele>1778.5764160156</ele>
        <time>2020-01-11T13:17:25Z</time>
      </trkpt>
      <trkpt lat="44.07319" lon="7.0247">
        <ele>1778.095703125</ele>
        <time>2020-01-11T13:17:34Z</time>
      </trkpt>
      <trkpt lat="44.07329" lon="7.02469">
        <ele>1777.1345214844</ele>
        <time>2020-01-11T13:17:44Z</time>
      </trkpt>
      <trkpt lat="44.07339" lon="7.02462">
        <ele>1777.6149902344</ele>
        <time>2020-01-11T13:17:56Z</time>
      </trkpt>
      <trkpt lat="44.07346" lon="7.02456">
        <ele>1776.6538085938</ele>
        <time>2020-01-11T13:18:06Z</time>
      </trkpt>
      <trkpt lat="44.07356" lon="7.0245">
        <ele>1776.1730957031</ele>
        <time>2020-01-11T13:18:16Z</time>
      </trkpt>
      <trkpt lat="44.07364" lon="7.02443">
        <ele>1775.6923828125</ele>
        <time>2020-01-11T13:18:26Z</time>
      </trkpt>
      <trkpt lat="44.07371" lon="7.02435">
        <ele>1775.2116699219</ele>
        <time>2020-01-11T13:18:35Z</time>
      </trkpt>
      <trkpt lat="44.07379" lon="7.02427">
        <ele>1774.7312011719</ele>
        <time>2020-01-11T13:18:44Z</time>
      </trkpt>
      <trkpt lat="44.07386" lon="7.0242">
        <ele>1774.7312011719</ele>
        <time>2020-01-11T13:18:53Z</time>
      </trkpt>
      <trkpt lat="44.07393" lon="7.02412">
        <ele>1774.7312011719</ele>
        <time>2020-01-11T13:19:01Z</time>
      </trkpt>
      <trkpt lat="44.07401" lon="7.02405">
        <ele>1774.2504882812</ele>
        <time>2020-01-11T13:19:10Z</time>
      </trkpt>
      <trkpt lat="44.07408" lon="7.02397">
        <ele>1774.2504882812</ele>
        <time>2020-01-11T13:19:19Z</time>
      </trkpt>
      <trkpt lat="44.07415" lon="7.0239">
        <ele>1774.2504882812</ele>
        <time>2020-01-11T13:19:28Z</time>
      </trkpt>
      <trkpt lat="44.07424" lon="7.02382">
        <ele>1773.7697753906</ele>
        <time>2020-01-11T13:19:37Z</time>
      </trkpt>
      <trkpt lat="44.0743" lon="7.02374">
        <ele>1773.2893066406</ele>
        <time>2020-01-11T13:19:46Z</time>
      </trkpt>
      <trkpt lat="44.07438" lon="7.02366">
        <ele>1774.7312011719</ele>
        <time>2020-01-11T13:19:55Z</time>
      </trkpt>
      <trkpt lat="44.07446" lon="7.02357">
        <ele>1773.7697753906</ele>
        <time>2020-01-11T13:20:04Z</time>
      </trkpt>
      <trkpt lat="44.07453" lon="7.02348">
        <ele>1773.2893066406</ele>
        <time>2020-01-11T13:20:14Z</time>
      </trkpt>
      <trkpt lat="44.07461" lon="7.02342">
        <ele>1772.3278808594</ele>
        <time>2020-01-11T13:20:23Z</time>
      </trkpt>
      <trkpt lat="44.07468" lon="7.02334">
        <ele>1772.80859375</ele>
        <time>2020-01-11T13:20:33Z</time>
      </trkpt>
      <trkpt lat="44.07478" lon="7.02332">
        <ele>1772.3278808594</ele>
        <time>2020-01-11T13:20:43Z</time>
      </trkpt>
      <trkpt lat="44.07483" lon="7.02329">
        <ele>1771.8469238281</ele>
        <time>2020-01-11T13:22:38Z</time>
      </trkpt>
      <trkpt lat="44.07494" lon="7.0233">
        <ele>1769.4438476562</ele>
        <time>2020-01-11T13:23:00Z</time>
      </trkpt>
      <trkpt lat="44.07504" lon="7.02333">
        <ele>1766.0791015625</ele>
        <time>2020-01-11T13:23:15Z</time>
      </trkpt>
      <trkpt lat="44.07516" lon="7.02326">
        <ele>1766.0791015625</ele>
        <time>2020-01-11T13:23:24Z</time>
      </trkpt>
      <trkpt lat="44.07524" lon="7.02316">
        <ele>1765.1179199219</ele>
        <time>2020-01-11T13:23:33Z</time>
      </trkpt>
      <trkpt lat="44.07533" lon="7.02308">
        <ele>1766.0791015625</ele>
        <time>2020-01-11T13:23:42Z</time>
      </trkpt>
      <trkpt lat="44.07541" lon="7.02303">
        <ele>1764.6372070312</ele>
        <time>2020-01-11T13:23:51Z</time>
      </trkpt>
      <trkpt lat="44.0755" lon="7.02298">
        <ele>1764.1564941406</ele>
        <time>2020-01-11T13:24:00Z</time>
      </trkpt>
      <trkpt lat="44.07559" lon="7.02294">
        <ele>1765.1179199219</ele>
        <time>2020-01-11T13:24:10Z</time>
      </trkpt>
      <trkpt lat="44.0757" lon="7.02288">
        <ele>1767.0405273438</ele>
        <time>2020-01-11T13:24:21Z</time>
      </trkpt>
      <trkpt lat="44.07579" lon="7.02283">
        <ele>1766.0791015625</ele>
        <time>2020-01-11T13:24:31Z</time>
      </trkpt>
      <trkpt lat="44.07589" lon="7.02277">
        <ele>1766.0791015625</ele>
        <time>2020-01-11T13:24:41Z</time>
      </trkpt>
      <trkpt lat="44.07597" lon="7.02271">
        <ele>1766.5598144531</ele>
        <time>2020-01-11T13:24:51Z</time>
      </trkpt>
      <trkpt lat="44.07605" lon="7.02263">
        <ele>1766.0791015625</ele>
        <time>2020-01-11T13:25:01Z</time>
      </trkpt>
      <trkpt lat="44.07614" lon="7.02255">
        <ele>1766.0791015625</ele>
        <time>2020-01-11T13:25:11Z</time>
      </trkpt>
      <trkpt lat="44.07623" lon="7.02246">
        <ele>1767.0405273438</ele>
        <time>2020-01-11T13:25:21Z</time>
      </trkpt>
      <trkpt lat="44.07631" lon="7.02237">
        <ele>1767.0405273438</ele>
        <time>2020-01-11T13:25:32Z</time>
      </trkpt>
      <trkpt lat="44.07638" lon="7.02228">
        <ele>1766.0791015625</ele>
        <time>2020-01-11T13:25:43Z</time>
      </trkpt>
      <trkpt lat="44.07642" lon="7.02216">
        <ele>1768.482421875</ele>
        <time>2020-01-11T13:25:54Z</time>
      </trkpt>
      <trkpt lat="44.0765" lon="7.02205">
        <ele>1767.0405273438</ele>
        <time>2020-01-11T13:26:07Z</time>
      </trkpt>
      <trkpt lat="44.07659" lon="7.02195">
        <ele>1767.0405273438</ele>
        <time>2020-01-11T13:26:17Z</time>
      </trkpt>
      <trkpt lat="44.07666" lon="7.02183">
        <ele>1766.0791015625</ele>
        <time>2020-01-11T13:26:27Z</time>
      </trkpt>
      <trkpt lat="44.07669" lon="7.02171">
        <ele>1767.0405273438</ele>
        <time>2020-01-11T13:26:41Z</time>
      </trkpt>
      <trkpt lat="44.07675" lon="7.02161">
        <ele>1766.5598144531</ele>
        <time>2020-01-11T13:26:51Z</time>
      </trkpt>
      <trkpt lat="44.0768" lon="7.02148">
        <ele>1766.5598144531</ele>
        <time>2020-01-11T13:27:01Z</time>
      </trkpt>
      <trkpt lat="44.07682" lon="7.02136">
        <ele>1768.0017089844</ele>
        <time>2020-01-11T13:27:11Z</time>
      </trkpt>
      <trkpt lat="44.07685" lon="7.02123">
        <ele>1767.5209960938</ele>
        <time>2020-01-11T13:27:21Z</time>
      </trkpt>
      <trkpt lat="44.07689" lon="7.02112">
        <ele>1767.5209960938</ele>
        <time>2020-01-11T13:27:31Z</time>
      </trkpt>
      <trkpt lat="44.07694" lon="7.021">
        <ele>1767.0405273438</ele>
        <time>2020-01-11T13:27:40Z</time>
      </trkpt>
      <trkpt lat="44.07699" lon="7.02089">
        <ele>1766.5598144531</ele>
        <time>2020-01-11T13:27:49Z</time>
      </trkpt>
      <trkpt lat="44.07703" lon="7.02079">
        <ele>1767.0405273438</ele>
        <time>2020-01-11T13:27:58Z</time>
      </trkpt>
      <trkpt lat="44.07708" lon="7.02068">
        <ele>1767.5209960938</ele>
        <time>2020-01-11T13:28:08Z</time>
      </trkpt>
      <trkpt lat="44.07716" lon="7.02058">
        <ele>1766.0791015625</ele>
        <time>2020-01-11T13:28:18Z</time>
      </trkpt>
      <trkpt lat="44.07723" lon="7.02049">
        <ele>1765.1179199219</ele>
        <time>2020-01-11T13:28:28Z</time>
      </trkpt>
      <trkpt lat="44.07733" lon="7.02044">
        <ele>1764.6372070312</ele>
        <time>2020-01-11T13:28:37Z</time>
      </trkpt>
      <trkpt lat="44.07741" lon="7.02037">
        <ele>1763.1953125</ele>
        <time>2020-01-11T13:28:47Z</time>
      </trkpt>
      <trkpt lat="44.0775" lon="7.02034">
        <ele>1762.2338867188</ele>
        <time>2020-01-11T13:28:57Z</time>
      </trkpt>
      <trkpt lat="44.07758" lon="7.02033">
        <ele>1760.3112792969</ele>
        <time>2020-01-11T13:29:06Z</time>
      </trkpt>
      <trkpt lat="44.07769" lon="7.02032">
        <ele>1759.8305664062</ele>
        <time>2020-01-11T13:29:16Z</time>
      </trkpt>
      <trkpt lat="44.07776" lon="7.02034">
        <ele>1758.388671875</ele>
        <time>2020-01-11T13:29:31Z</time>
      </trkpt>
      <trkpt lat="44.07792" lon="7.02035">
        <ele>1755.0239257812</ele>
        <time>2020-01-11T13:29:45Z</time>
      </trkpt>
      <trkpt lat="44.07807" lon="7.02038">
        <ele>1753.1013183594</ele>
        <time>2020-01-11T13:29:56Z</time>
      </trkpt>
      <trkpt lat="44.07817" lon="7.02042">
        <ele>1751.1787109375</ele>
        <time>2020-01-11T13:30:06Z</time>
      </trkpt>
      <trkpt lat="44.07828" lon="7.02045">
        <ele>1749.7368164062</ele>
        <time>2020-01-11T13:30:16Z</time>
      </trkpt>
      <trkpt lat="44.07836" lon="7.02051">
        <ele>1747.3334960938</ele>
        <time>2020-01-11T13:30:25Z</time>
      </trkpt>
      <trkpt lat="44.07846" lon="7.02058">
        <ele>1745.4108886719</ele>
        <time>2020-01-11T13:30:37Z</time>
      </trkpt>
      <trkpt lat="44.07854" lon="7.02067">
        <ele>1743.9689941406</ele>
        <time>2020-01-11T13:30:47Z</time>
      </trkpt>
      <trkpt lat="44.07861" lon="7.02078">
        <ele>1743.0075683594</ele>
        <time>2020-01-11T13:30:58Z</time>
      </trkpt>
      <trkpt lat="44.07871" lon="7.02085">
        <ele>1741.5656738281</ele>
        <time>2020-01-11T13:31:07Z</time>
      </trkpt>
      <trkpt lat="44.0788" lon="7.02094">
        <ele>1739.6428222656</ele>
        <time>2020-01-11T13:31:16Z</time>
      </trkpt>
      <trkpt lat="44.07889" lon="7.02101">
        <ele>1738.681640625</ele>
        <time>2020-01-11T13:31:25Z</time>
      </trkpt>
      <trkpt lat="44.07896" lon="7.02113">
        <ele>1736.7587890625</ele>
        <time>2020-01-11T13:31:34Z</time>
      </trkpt>
      <trkpt lat="44.07907" lon="7.02119">
        <ele>1734.3557128906</ele>
        <time>2020-01-11T13:31:45Z</time>
      </trkpt>
      <trkpt lat="44.07917" lon="7.02125">
        <ele>1732.4331054688</ele>
        <time>2020-01-11T13:31:54Z</time>
      </trkpt>
      <trkpt lat="44.07926" lon="7.02134">
        <ele>1730.5104980469</ele>
        <time>2020-01-11T13:32:04Z</time>
      </trkpt>
      <trkpt lat="44.07935" lon="7.0214">
        <ele>1729.5490722656</ele>
        <time>2020-01-11T13:32:12Z</time>
      </trkpt>
      <trkpt lat="44.07941" lon="7.02149">
        <ele>1727.6264648438</ele>
        <time>2020-01-11T13:32:21Z</time>
      </trkpt>
      <trkpt lat="44.07949" lon="7.02155">
        <ele>1727.6264648438</ele>
        <time>2020-01-11T13:32:28Z</time>
      </trkpt>
      <trkpt lat="44.07955" lon="7.02164">
        <ele>1726.1845703125</ele>
        <time>2020-01-11T13:32:37Z</time>
      </trkpt>
      <trkpt lat="44.0796" lon="7.02173">
        <ele>1725.2231445312</ele>
        <time>2020-01-11T13:32:47Z</time>
      </trkpt>
      <trkpt lat="44.07969" lon="7.02183">
        <ele>1723.3005371094</ele>
        <time>2020-01-11T13:32:56Z</time>
      </trkpt>
      <trkpt lat="44.07977" lon="7.02193">
        <ele>1721.8583984375</ele>
        <time>2020-01-11T13:33:05Z</time>
      </trkpt>
      <trkpt lat="44.0798" lon="7.02201">
        <ele>1720.4165039062</ele>
        <time>2020-01-11T13:33:14Z</time>
      </trkpt>
      <trkpt lat="44.07986" lon="7.02208">
        <ele>1720.4165039062</ele>
        <time>2020-01-11T13:33:23Z</time>
      </trkpt>
      <trkpt lat="44.07994" lon="7.02216">
        <ele>1718.974609375</ele>
        <time>2020-01-11T13:34:10Z</time>
      </trkpt>
      <trkpt lat="44.08003" lon="7.02226">
        <ele>1718.4938964844</ele>
        <time>2020-01-11T13:34:19Z</time>
      </trkpt>
      <trkpt lat="44.08009" lon="7.02235">
        <ele>1717.0520019531</ele>
        <time>2020-01-11T13:34:28Z</time>
      </trkpt>
      <trkpt lat="44.08019" lon="7.02244">
        <ele>1715.6101074219</ele>
        <time>2020-01-11T13:34:53Z</time>
      </trkpt>
      <trkpt lat="44.08027" lon="7.02248">
        <ele>1714.16796875</ele>
        <time>2020-01-11T13:35:02Z</time>
      </trkpt>
      <trkpt lat="44.08036" lon="7.0225">
        <ele>1711.7648925781</ele>
        <time>2020-01-11T13:35:11Z</time>
      </trkpt>
      <trkpt lat="44.08045" lon="7.02253">
        <ele>1709.8420410156</ele>
        <time>2020-01-11T13:35:21Z</time>
      </trkpt>
      <trkpt lat="44.08054" lon="7.02255">
        <ele>1707.4387207031</ele>
        <time>2020-01-11T13:35:30Z</time>
      </trkpt>
      <trkpt lat="44.08064" lon="7.02257">
        <ele>1705.9965820312</ele>
        <time>2020-01-11T13:35:39Z</time>
      </trkpt>
      <trkpt lat="44.08071" lon="7.0226">
        <ele>1704.5546875</ele>
        <time>2020-01-11T13:36:23Z</time>
      </trkpt>
      <trkpt lat="44.0808" lon="7.02259">
        <ele>1703.5935058594</ele>
        <time>2020-01-11T13:36:32Z</time>
      </trkpt>
      <trkpt lat="44.08089" lon="7.02257">
        <ele>1703.1127929688</ele>
        <time>2020-01-11T13:36:41Z</time>
      </trkpt>
      <trkpt lat="44.08098" lon="7.02255">
        <ele>1702.1513671875</ele>
        <time>2020-01-11T13:36:50Z</time>
      </trkpt>
      <trkpt lat="44.08108" lon="7.02257">
        <ele>1702.6320800781</ele>
        <time>2020-01-11T13:37:00Z</time>
      </trkpt>
      <trkpt lat="44.08118" lon="7.02257">
        <ele>1703.1127929688</ele>
        <time>2020-01-11T13:37:11Z</time>
      </trkpt>
      <trkpt lat="44.08126" lon="7.02258">
        <ele>1703.5935058594</ele>
        <time>2020-01-11T13:37:21Z</time>
      </trkpt>
      <trkpt lat="44.08136" lon="7.02262">
        <ele>1705.5161132812</ele>
        <time>2020-01-11T13:37:35Z</time>
      </trkpt>
      <trkpt lat="44.08145" lon="7.02263">
        <ele>1706.4772949219</ele>
        <time>2020-01-11T13:37:51Z</time>
      </trkpt>
      <trkpt lat="44.08153" lon="7.02263">
        <ele>1708.4001464844</ele>
        <time>2020-01-11T13:38:06Z</time>
      </trkpt>
      <trkpt lat="44.08162" lon="7.02264">
        <ele>1709.3615722656</ele>
        <time>2020-01-11T13:38:20Z</time>
      </trkpt>
      <trkpt lat="44.08171" lon="7.0227">
        <ele>1711.2841796875</ele>
        <time>2020-01-11T13:38:34Z</time>
      </trkpt>
      <trkpt lat="44.08178" lon="7.02274">
        <ele>1712.7260742188</ele>
        <time>2020-01-11T13:38:49Z</time>
      </trkpt>
      <trkpt lat="44.08185" lon="7.0228">
        <ele>1715.1293945312</ele>
        <time>2020-01-11T13:39:05Z</time>
      </trkpt>
      <trkpt lat="44.08195" lon="7.02278">
        <ele>1717.5324707031</ele>
        <time>2020-01-11T13:39:23Z</time>
      </trkpt>
      <trkpt lat="44.08205" lon="7.02283">
        <ele>1719.4553222656</ele>
        <time>2020-01-11T13:39:40Z</time>
      </trkpt>
      <trkpt lat="44.08214" lon="7.02283">
        <ele>1721.8583984375</ele>
        <time>2020-01-11T13:39:58Z</time>
      </trkpt>
      <trkpt lat="44.08221" lon="7.02285">
        <ele>1723.3005371094</ele>
        <time>2020-01-11T13:40:15Z</time>
      </trkpt>
      <trkpt lat="44.08228" lon="7.02292">
        <ele>1724.7426757812</ele>
        <time>2020-01-11T13:40:30Z</time>
      </trkpt>
      <trkpt lat="44.08235" lon="7.02296">
        <ele>1726.1845703125</ele>
        <time>2020-01-11T13:40:46Z</time>
      </trkpt>
      <trkpt lat="44.08246" lon="7.02298">
        <ele>1728.1071777344</ele>
        <time>2020-01-11T13:41:04Z</time>
      </trkpt>
      <trkpt lat="44.08255" lon="7.02299">
        <ele>1730.5104980469</ele>
        <time>2020-01-11T13:41:23Z</time>
      </trkpt>
      <trkpt lat="44.08267" lon="7.02301">
        <ele>1732.4331054688</ele>
        <time>2020-01-11T13:43:15Z</time>
      </trkpt>
      <trkpt lat="44.08276" lon="7.023">
        <ele>1734.3557128906</ele>
        <time>2020-01-11T13:43:28Z</time>
      </trkpt>
      <trkpt lat="44.08285" lon="7.02301">
        <ele>1735.3168945312</ele>
        <time>2020-01-11T13:43:40Z</time>
      </trkpt>
      <trkpt lat="44.08296" lon="7.02302">
        <ele>1735.7976074219</ele>
        <time>2020-01-11T13:43:51Z</time>
      </trkpt>
      <trkpt lat="44.08305" lon="7.02302">
        <ele>1736.7587890625</ele>
        <time>2020-01-11T13:44:02Z</time>
      </trkpt>
      <trkpt lat="44.08313" lon="7.02305">
        <ele>1737.7202148438</ele>
        <time>2020-01-11T13:44:14Z</time>
      </trkpt>
      <trkpt lat="44.08321" lon="7.02304">
        <ele>1738.2009277344</ele>
        <time>2020-01-11T13:44:25Z</time>
      </trkpt>
      <trkpt lat="44.0833" lon="7.02305">
        <ele>1739.162109375</ele>
        <time>2020-01-11T13:44:40Z</time>
      </trkpt>
      <trkpt lat="44.08337" lon="7.02307">
        <ele>1740.1237792969</ele>
        <time>2020-01-11T13:44:59Z</time>
      </trkpt>
      <trkpt lat="44.08347" lon="7.02311">
        <ele>1739.6428222656</ele>
        <time>2020-01-11T13:45:13Z</time>
      </trkpt>
      <trkpt lat="44.08356" lon="7.02312">
        <ele>1739.162109375</ele>
        <time>2020-01-11T13:45:33Z</time>
      </trkpt>
      <trkpt lat="44.08365" lon="7.02313">
        <ele>1738.681640625</ele>
        <time>2020-01-11T13:45:42Z</time>
      </trkpt>
      <trkpt lat="44.08374" lon="7.02313">
        <ele>1738.681640625</ele>
        <time>2020-01-11T13:45:50Z</time>
      </trkpt>
      <trkpt lat="44.08384" lon="7.02315">
        <ele>1738.2009277344</ele>
        <time>2020-01-11T13:45:59Z</time>
      </trkpt>
      <trkpt lat="44.08391" lon="7.0232">
        <ele>1738.2009277344</ele>
        <time>2020-01-11T13:46:10Z</time>
      </trkpt>
      <trkpt lat="44.08402" lon="7.0232">
        <ele>1737.2395019531</ele>
        <time>2020-01-11T13:46:22Z</time>
      </trkpt>
      <trkpt lat="44.08412" lon="7.02312">
        <ele>1736.7587890625</ele>
        <time>2020-01-11T13:46:36Z</time>
      </trkpt>
      <trkpt lat="44.08414" lon="7.02302">
        <ele>1736.7587890625</ele>
        <time>2020-01-11T13:47:19Z</time>
      </trkpt>
      <trkpt lat="44.08412" lon="7.02304">
        <ele>1737.7202148438</ele>
        <time>2020-01-11T13:50:27Z</time>
      </trkpt>
      <trkpt lat="44.08418" lon="7.02313">
        <ele>1735.3168945312</ele>
        <time>2020-01-11T13:50:39Z</time>
      </trkpt>
      <trkpt lat="44.08424" lon="7.02324">
        <ele>1734.8364257812</ele>
        <time>2020-01-11T13:50:48Z</time>
      </trkpt>
      <trkpt lat="44.08431" lon="7.02334">
        <ele>1734.8364257812</ele>
        <time>2020-01-11T13:50:58Z</time>
      </trkpt>
      <trkpt lat="44.08442" lon="7.02335">
        <ele>1732.4331054688</ele>
        <time>2020-01-11T13:51:08Z</time>
      </trkpt>
      <trkpt lat="44.08451" lon="7.0234">
        <ele>1730.9912109375</ele>
        <time>2020-01-11T13:51:16Z</time>
      </trkpt>
      <trkpt lat="44.08462" lon="7.02342">
        <ele>1729.068359375</ele>
        <time>2020-01-11T13:51:25Z</time>
      </trkpt>
      <trkpt lat="44.08473" lon="7.02344">
        <ele>1727.1459960938</ele>
        <time>2020-01-11T13:51:34Z</time>
      </trkpt>
      <trkpt lat="44.08482" lon="7.02348">
        <ele>1726.1845703125</ele>
        <time>2020-01-11T13:51:43Z</time>
      </trkpt>
      <trkpt lat="44.08493" lon="7.02352">
        <ele>1724.7426757812</ele>
        <time>2020-01-11T13:51:53Z</time>
      </trkpt>
      <trkpt lat="44.08505" lon="7.02358">
        <ele>1724.2619628906</ele>
        <time>2020-01-11T13:52:04Z</time>
      </trkpt>
      <trkpt lat="44.08513" lon="7.02367">
        <ele>1724.7426757812</ele>
        <time>2020-01-11T13:52:14Z</time>
      </trkpt>
      <trkpt lat="44.08519" lon="7.02372">
        <ele>1724.2619628906</ele>
        <time>2020-01-11T13:52:25Z</time>
      </trkpt>
      <trkpt lat="44.08527" lon="7.02376">
        <ele>1724.2619628906</ele>
        <time>2020-01-11T13:52:34Z</time>
      </trkpt>
      <trkpt lat="44.08536" lon="7.02379">
        <ele>1724.2619628906</ele>
        <time>2020-01-11T13:52:43Z</time>
      </trkpt>
      <trkpt lat="44.08545" lon="7.0238">
        <ele>1724.2619628906</ele>
        <time>2020-01-11T13:52:53Z</time>
      </trkpt>
      <trkpt lat="44.08555" lon="7.0238">
        <ele>1723.7810058594</ele>
        <time>2020-01-11T13:53:03Z</time>
      </trkpt>
      <trkpt lat="44.08546" lon="7.02378">
        <ele>1724.2619628906</ele>
        <time>2020-01-11T13:53:32Z</time>
      </trkpt>
      <trkpt lat="44.08538" lon="7.02383">
        <ele>1723.3005371094</ele>
        <time>2020-01-11T13:54:07Z</time>
      </trkpt>
      <trkpt lat="44.08534" lon="7.02391">
        <ele>1723.3005371094</ele>
        <time>2020-01-11T13:54:26Z</time>
      </trkpt>
      <trkpt lat="44.08541" lon="7.02399">
        <ele>1721.8583984375</ele>
        <time>2020-01-11T13:54:36Z</time>
      </trkpt>
      <trkpt lat="44.08549" lon="7.02406">
        <ele>1721.8583984375</ele>
        <time>2020-01-11T13:54:45Z</time>
      </trkpt>
      <trkpt lat="44.08557" lon="7.02405">
        <ele>1721.3776855469</ele>
        <time>2020-01-11T13:54:56Z</time>
      </trkpt>
      <trkpt lat="44.08566" lon="7.02405">
        <ele>1721.8583984375</ele>
        <time>2020-01-11T13:55:07Z</time>
      </trkpt>
      <trkpt lat="44.08575" lon="7.02403">
        <ele>1723.3005371094</ele>
        <time>2020-01-11T13:55:21Z</time>
      </trkpt>
      <trkpt lat="44.08578" lon="7.02408">
        <ele>1722.8198242188</ele>
        <time>2020-01-11T13:55:41Z</time>
      </trkpt>
      <trkpt lat="44.08582" lon="7.02419">
        <ele>1722.8198242188</ele>
        <time>2020-01-11T13:55:50Z</time>
      </trkpt>
      <trkpt lat="44.08586" lon="7.02431">
        <ele>1721.3776855469</ele>
        <time>2020-01-11T13:56:00Z</time>
      </trkpt>
      <trkpt lat="44.08589" lon="7.02443">
        <ele>1720.4165039062</ele>
        <time>2020-01-11T13:56:10Z</time>
      </trkpt>
      <trkpt lat="44.08592" lon="7.02454">
        <ele>1718.974609375</ele>
        <time>2020-01-11T13:56:21Z</time>
      </trkpt>
      <trkpt lat="44.08596" lon="7.02467">
        <ele>1718.4938964844</ele>
        <time>2020-01-11T13:56:40Z</time>
      </trkpt>
      <trkpt lat="44.08601" lon="7.02476">
        <ele>1716.5712890625</ele>
        <time>2020-01-11T13:56:50Z</time>
      </trkpt>
      <trkpt lat="44.08611" lon="7.02482">
        <ele>1716.0905761719</ele>
        <time>2020-01-11T13:57:00Z</time>
      </trkpt>
      <trkpt lat="44.08618" lon="7.0249">
        <ele>1715.1293945312</ele>
        <time>2020-01-11T13:57:09Z</time>
      </trkpt>
      <trkpt lat="44.08627" lon="7.02497">
        <ele>1714.16796875</ele>
        <time>2020-01-11T13:57:20Z</time>
      </trkpt>
      <trkpt lat="44.08635" lon="7.02504">
        <ele>1713.6872558594</ele>
        <time>2020-01-11T13:57:31Z</time>
      </trkpt>
      <trkpt lat="44.08646" lon="7.0251">
        <ele>1711.7648925781</ele>
        <time>2020-01-11T13:57:42Z</time>
      </trkpt>
      <trkpt lat="44.08657" lon="7.02511">
        <ele>1710.8034667969</ele>
        <time>2020-01-11T13:57:55Z</time>
      </trkpt>
      <trkpt lat="44.0867" lon="7.02514">
        <ele>1708.880859375</ele>
        <time>2020-01-11T13:58:08Z</time>
      </trkpt>
      <trkpt lat="44.08683" lon="7.02519">
        <ele>1706.9580078125</ele>
        <time>2020-01-11T13:58:25Z</time>
      </trkpt>
      <trkpt lat="44.08695" lon="7.02526">
        <ele>1705.9965820312</ele>
        <time>2020-01-11T13:58:38Z</time>
      </trkpt>
      <trkpt lat="44.08699" lon="7.02535">
        <ele>1705.0354003906</ele>
        <time>2020-01-11T13:58:49Z</time>
      </trkpt>
      <trkpt lat="44.08704" lon="7.02545">
        <ele>1704.5546875</ele>
        <time>2020-01-11T13:58:59Z</time>
      </trkpt>
      <trkpt lat="44.08708" lon="7.02556">
        <ele>1704.07421875</ele>
        <time>2020-01-11T13:59:09Z</time>
      </trkpt>
      <trkpt lat="44.08715" lon="7.02563">
        <ele>1703.1127929688</ele>
        <time>2020-01-11T13:59:18Z</time>
      </trkpt>
      <trkpt lat="44.08724" lon="7.02572">
        <ele>1702.1513671875</ele>
        <time>2020-01-11T13:59:34Z</time>
      </trkpt>
      <trkpt lat="44.08732" lon="7.02569">
        <ele>1701.1901855469</ele>
        <time>2020-01-11T14:02:08Z</time>
      </trkpt>
      <trkpt lat="44.08741" lon="7.0257">
        <ele>1700.2290039062</ele>
        <time>2020-01-11T14:02:18Z</time>
      </trkpt>
      <trkpt lat="44.08752" lon="7.02571">
        <ele>1699.267578125</ele>
        <time>2020-01-11T14:02:28Z</time>
      </trkpt>
      <trkpt lat="44.08762" lon="7.02572">
        <ele>1698.3061523438</ele>
        <time>2020-01-11T14:02:39Z</time>
      </trkpt>
      <trkpt lat="44.0877" lon="7.02571">
        <ele>1697.8256835938</ele>
        <time>2020-01-11T14:02:50Z</time>
      </trkpt>
      <trkpt lat="44.08779" lon="7.02572">
        <ele>1696.8642578125</ele>
        <time>2020-01-11T14:03:00Z</time>
      </trkpt>
      <trkpt lat="44.0879" lon="7.02576">
        <ele>1695.4223632812</ele>
        <time>2020-01-11T14:03:11Z</time>
      </trkpt>
      <trkpt lat="44.08801" lon="7.02575">
        <ele>1694.4609375</ele>
        <time>2020-01-11T14:03:23Z</time>
      </trkpt>
      <trkpt lat="44.08812" lon="7.02577">
        <ele>1693.4997558594</ele>
        <time>2020-01-11T14:03:33Z</time>
      </trkpt>
      <trkpt lat="44.08821" lon="7.02578">
        <ele>1692.5385742188</ele>
        <time>2020-01-11T14:03:44Z</time>
      </trkpt>
      <trkpt lat="44.08831" lon="7.02576">
        <ele>1691.5769042969</ele>
        <time>2020-01-11T14:03:57Z</time>
      </trkpt>
      <trkpt lat="44.08843" lon="7.0257">
        <ele>1690.1350097656</ele>
        <time>2020-01-11T14:04:10Z</time>
      </trkpt>
      <trkpt lat="44.08853" lon="7.02568">
        <ele>1689.654296875</ele>
        <time>2020-01-11T14:04:19Z</time>
      </trkpt>
      <trkpt lat="44.08864" lon="7.02564">
        <ele>1689.654296875</ele>
        <time>2020-01-11T14:04:35Z</time>
      </trkpt>
      <trkpt lat="44.08872" lon="7.02562">
        <ele>1690.6154785156</ele>
        <time>2020-01-11T14:04:57Z</time>
      </trkpt>
      <trkpt lat="44.08884" lon="7.02566">
        <ele>1691.0961914062</ele>
        <time>2020-01-11T14:05:11Z</time>
      </trkpt>
      <trkpt lat="44.08893" lon="7.02574">
        <ele>1692.0578613281</ele>
        <time>2020-01-11T14:05:22Z</time>
      </trkpt>
      <trkpt lat="44.089" lon="7.02584">
        <ele>1692.0578613281</ele>
        <time>2020-01-11T14:05:30Z</time>
      </trkpt>
      <trkpt lat="44.08907" lon="7.02591">
        <ele>1692.0578613281</ele>
        <time>2020-01-11T14:05:44Z</time>
      </trkpt>
      <trkpt lat="44.08915" lon="7.02599">
        <ele>1692.0578613281</ele>
        <time>2020-01-11T14:05:57Z</time>
      </trkpt>
      <trkpt lat="44.08924" lon="7.02605">
        <ele>1693.0190429688</ele>
        <time>2020-01-11T14:06:10Z</time>
      </trkpt>
      <trkpt lat="44.08931" lon="7.02608">
        <ele>1693.4997558594</ele>
        <time>2020-01-11T14:06:21Z</time>
      </trkpt>
      <trkpt lat="44.08941" lon="7.0261">
        <ele>1693.4997558594</ele>
        <time>2020-01-11T14:06:33Z</time>
      </trkpt>
      <trkpt lat="44.08948" lon="7.02615">
        <ele>1693.4997558594</ele>
        <time>2020-01-11T14:06:45Z</time>
      </trkpt>
      <trkpt lat="44.0896" lon="7.02625">
        <ele>1693.98046875</ele>
        <time>2020-01-11T14:06:57Z</time>
      </trkpt>
      <trkpt lat="44.08971" lon="7.0263">
        <ele>1694.4609375</ele>
        <time>2020-01-11T14:07:11Z</time>
      </trkpt>
      <trkpt lat="44.08978" lon="7.02643">
        <ele>1694.4609375</ele>
        <time>2020-01-11T14:08:08Z</time>
      </trkpt>
      <trkpt lat="44.08988" lon="7.02644">
        <ele>1693.98046875</ele>
        <time>2020-01-11T14:08:20Z</time>
      </trkpt>
      <trkpt lat="44.08999" lon="7.02648">
        <ele>1693.98046875</ele>
        <time>2020-01-11T14:08:30Z</time>
      </trkpt>
      <trkpt lat="44.09009" lon="7.02655">
        <ele>1693.4997558594</ele>
        <time>2020-01-11T14:08:40Z</time>
      </trkpt>
      <trkpt lat="44.09019" lon="7.02659">
        <ele>1692.5385742188</ele>
        <time>2020-01-11T14:08:51Z</time>
      </trkpt>
      <trkpt lat="44.09031" lon="7.02661">
        <ele>1692.0578613281</ele>
        <time>2020-01-11T14:09:03Z</time>
      </trkpt>
      <trkpt lat="44.09043" lon="7.02659">
        <ele>1692.0578613281</ele>
        <time>2020-01-11T14:09:16Z</time>
      </trkpt>
      <trkpt lat="44.09053" lon="7.02655">
        <ele>1692.0578613281</ele>
        <time>2020-01-11T14:09:28Z</time>
      </trkpt>
      <trkpt lat="44.09064" lon="7.02654">
        <ele>1692.5385742188</ele>
        <time>2020-01-11T14:09:42Z</time>
      </trkpt>
      <trkpt lat="44.09076" lon="7.0265">
        <ele>1692.5385742188</ele>
        <time>2020-01-11T14:09:56Z</time>
      </trkpt>
      <trkpt lat="44.09083" lon="7.02646">
        <ele>1692.5385742188</ele>
        <time>2020-01-11T14:10:06Z</time>
      </trkpt>
      <trkpt lat="44.09092" lon="7.02639">
        <ele>1692.5385742188</ele>
        <time>2020-01-11T14:10:17Z</time>
      </trkpt>
      <trkpt lat="44.09101" lon="7.02636">
        <ele>1692.5385742188</ele>
        <time>2020-01-11T14:10:46Z</time>
      </trkpt>
      <trkpt lat="44.09111" lon="7.02628">
        <ele>1692.5385742188</ele>
        <time>2020-01-11T14:10:56Z</time>
      </trkpt>
      <trkpt lat="44.09117" lon="7.02621">
        <ele>1692.0578613281</ele>
        <time>2020-01-11T14:11:10Z</time>
      </trkpt>
      <trkpt lat="44.09133" lon="7.02608">
        <ele>1691.5769042969</ele>
        <time>2020-01-11T14:12:42Z</time>
      </trkpt>
      <trkpt lat="44.09141" lon="7.02598">
        <ele>1691.5769042969</ele>
        <time>2020-01-11T14:12:53Z</time>
      </trkpt>
      <trkpt lat="44.09149" lon="7.0259">
        <ele>1691.0961914062</ele>
        <time>2020-01-11T14:13:03Z</time>
      </trkpt>
      <trkpt lat="44.09155" lon="7.02581">
        <ele>1690.6154785156</ele>
        <time>2020-01-11T14:13:12Z</time>
      </trkpt>
      <trkpt lat="44.09162" lon="7.02572">
        <ele>1690.1350097656</ele>
        <time>2020-01-11T14:13:23Z</time>
      </trkpt>
      <trkpt lat="44.0917" lon="7.02561">
        <ele>1690.6154785156</ele>
        <time>2020-01-11T14:13:33Z</time>
      </trkpt>
      <trkpt lat="44.09177" lon="7.02549">
        <ele>1690.6154785156</ele>
        <time>2020-01-11T14:13:53Z</time>
      </trkpt>
      <trkpt lat="44.0918" lon="7.02537">
        <ele>1690.6154785156</ele>
        <time>2020-01-11T14:14:03Z</time>
      </trkpt>
      <trkpt lat="44.09186" lon="7.02526">
        <ele>1690.1350097656</ele>
        <time>2020-01-11T14:14:12Z</time>
      </trkpt>
      <trkpt lat="44.09191" lon="7.02516">
        <ele>1690.1350097656</ele>
        <time>2020-01-11T14:14:20Z</time>
      </trkpt>
      <trkpt lat="44.09197" lon="7.02506">
        <ele>1690.1350097656</ele>
        <time>2020-01-11T14:14:28Z</time>
      </trkpt>
      <trkpt lat="44.09202" lon="7.02494">
        <ele>1689.654296875</ele>
        <time>2020-01-11T14:14:36Z</time>
      </trkpt>
      <trkpt lat="44.09206" lon="7.02482">
        <ele>1689.1735839844</ele>
        <time>2020-01-11T14:14:45Z</time>
      </trkpt>
      <trkpt lat="44.09213" lon="7.02472">
        <ele>1689.654296875</ele>
        <time>2020-01-11T14:14:53Z</time>
      </trkpt>
      <trkpt lat="44.09218" lon="7.02461">
        <ele>1689.1735839844</ele>
        <time>2020-01-11T14:15:01Z</time>
      </trkpt>
      <trkpt lat="44.09224" lon="7.02452">
        <ele>1688.2124023438</ele>
        <time>2020-01-11T14:15:10Z</time>
      </trkpt>
      <trkpt lat="44.0923" lon="7.02443">
        <ele>1688.2124023438</ele>
        <time>2020-01-11T14:15:18Z</time>
      </trkpt>
      <trkpt lat="44.09237" lon="7.02434">
        <ele>1688.2124023438</ele>
        <time>2020-01-11T14:15:26Z</time>
      </trkpt>
      <trkpt lat="44.09238" lon="7.02424">
        <ele>1688.2124023438</ele>
        <time>2020-01-11T14:15:37Z</time>
      </trkpt>
      <trkpt lat="44.09246" lon="7.02414">
        <ele>1688.6931152344</ele>
        <time>2020-01-11T14:15:45Z</time>
      </trkpt>
      <trkpt lat="44.09253" lon="7.02404">
        <ele>1688.6931152344</ele>
        <time>2020-01-11T14:15:54Z</time>
      </trkpt>
      <trkpt lat="44.09262" lon="7.02394">
        <ele>1688.6931152344</ele>
        <time>2020-01-11T14:16:03Z</time>
      </trkpt>
      <trkpt lat="44.09269" lon="7.02384">
        <ele>1687.7316894531</ele>
        <time>2020-01-11T14:16:11Z</time>
      </trkpt>
      <trkpt lat="44.09276" lon="7.02375">
        <ele>1687.7316894531</ele>
        <time>2020-01-11T14:16:19Z</time>
      </trkpt>
      <trkpt lat="44.09282" lon="7.02366">
        <ele>1687.2509765625</ele>
        <time>2020-01-11T14:16:27Z</time>
      </trkpt>
      <trkpt lat="44.09286" lon="7.02355">
        <ele>1686.7702636719</ele>
        <time>2020-01-11T14:16:37Z</time>
      </trkpt>
      <trkpt lat="44.09292" lon="7.02348">
        <ele>1686.7702636719</ele>
        <time>2020-01-11T14:16:46Z</time>
      </trkpt>
      <trkpt lat="44.09296" lon="7.02336">
        <ele>1686.2897949219</ele>
        <time>2020-01-11T14:16:55Z</time>
      </trkpt>
      <trkpt lat="44.09301" lon="7.02324">
        <ele>1684.8479003906</ele>
        <time>2020-01-11T14:17:03Z</time>
      </trkpt>
      <trkpt lat="44.09308" lon="7.02318">
        <ele>1683.8864746094</ele>
        <time>2020-01-11T14:17:11Z</time>
      </trkpt>
      <trkpt lat="44.09318" lon="7.02322">
        <ele>1683.8864746094</ele>
        <time>2020-01-11T14:17:18Z</time>
      </trkpt>
      <trkpt lat="44.09323" lon="7.02329">
        <ele>1685.3283691406</ele>
        <time>2020-01-11T14:17:26Z</time>
      </trkpt>
      <trkpt lat="44.09328" lon="7.02337">
        <ele>1683.4057617188</ele>
        <time>2020-01-11T14:17:35Z</time>
      </trkpt>
      <trkpt lat="44.09334" lon="7.02347">
        <ele>1683.4057617188</ele>
        <time>2020-01-11T14:17:42Z</time>
      </trkpt>
      <trkpt lat="44.09337" lon="7.0236">
        <ele>1682.9250488281</ele>
        <time>2020-01-11T14:17:50Z</time>
      </trkpt>
      <trkpt lat="44.0934" lon="7.02372">
        <ele>1682.4445800781</ele>
        <time>2020-01-11T14:17:57Z</time>
      </trkpt>
      <trkpt lat="44.09344" lon="7.02385">
        <ele>1682.9250488281</ele>
        <time>2020-01-11T14:18:04Z</time>
      </trkpt>
      <trkpt lat="44.09347" lon="7.02397">
        <ele>1682.4445800781</ele>
        <time>2020-01-11T14:18:10Z</time>
      </trkpt>
      <trkpt lat="44.09351" lon="7.02407">
        <ele>1682.4445800781</ele>
        <time>2020-01-11T14:18:17Z</time>
      </trkpt>
      <trkpt lat="44.09355" lon="7.02415">
        <ele>1682.9250488281</ele>
        <time>2020-01-11T14:18:25Z</time>
      </trkpt>
      <trkpt lat="44.0936" lon="7.02426">
        <ele>1683.4057617188</ele>
        <time>2020-01-11T14:18:32Z</time>
      </trkpt>
      <trkpt lat="44.09363" lon="7.02438">
        <ele>1682.9250488281</ele>
        <time>2020-01-11T14:18:39Z</time>
      </trkpt>
      <trkpt lat="44.09368" lon="7.02446">
        <ele>1682.9250488281</ele>
        <time>2020-01-11T14:18:46Z</time>
      </trkpt>
      <trkpt lat="44.09375" lon="7.02451">
        <ele>1682.9250488281</ele>
        <time>2020-01-11T14:18:55Z</time>
      </trkpt>
      <trkpt lat="44.09388" lon="7.02448">
        <ele>1682.9250488281</ele>
        <time>2020-01-11T14:19:07Z</time>
      </trkpt>
      <trkpt lat="44.09397" lon="7.02437">
        <ele>1682.4445800781</ele>
        <time>2020-01-11T14:19:17Z</time>
      </trkpt>
      <trkpt lat="44.09404" lon="7.02429">
        <ele>1681.4831542969</ele>
        <time>2020-01-11T14:19:26Z</time>
      </trkpt>
      <trkpt lat="44.09413" lon="7.02422">
        <ele>1680.5219726562</ele>
        <time>2020-01-11T14:19:35Z</time>
      </trkpt>
      <trkpt lat="44.09422" lon="7.02418">
        <ele>1679.560546875</ele>
        <time>2020-01-11T14:19:43Z</time>
      </trkpt>
      <trkpt lat="44.09435" lon="7.02411">
        <ele>1678.5993652344</ele>
        <time>2020-01-11T14:19:53Z</time>
      </trkpt>
      <trkpt lat="44.09447" lon="7.02407">
        <ele>1678.5993652344</ele>
        <time>2020-01-11T14:20:09Z</time>
      </trkpt>
      <trkpt lat="44.09458" lon="7.02408">
        <ele>1680.0412597656</ele>
        <time>2020-01-11T14:20:20Z</time>
      </trkpt>
      <trkpt lat="44.09465" lon="7.02411">
        <ele>1680.5219726562</ele>
        <time>2020-01-11T14:20:34Z</time>
      </trkpt>
      <trkpt lat="44.09478" lon="7.02415">
        <ele>1681.4831542969</ele>
        <time>2020-01-11T14:20:45Z</time>
      </trkpt>
      <trkpt lat="44.09486" lon="7.02418">
        <ele>1682.9250488281</ele>
        <time>2020-01-11T14:20:59Z</time>
      </trkpt>
      <trkpt lat="44.09496" lon="7.02411">
        <ele>1684.3671875</ele>
        <time>2020-01-11T14:21:12Z</time>
      </trkpt>
      <trkpt lat="44.09502" lon="7.024">
        <ele>1685.3283691406</ele>
        <time>2020-01-11T14:21:26Z</time>
      </trkpt>
      <trkpt lat="44.09514" lon="7.0239">
        <ele>1685.8090820312</ele>
        <time>2020-01-11T14:21:37Z</time>
      </trkpt>
      <trkpt lat="44.09522" lon="7.02381">
        <ele>1686.2897949219</ele>
        <time>2020-01-11T14:21:49Z</time>
      </trkpt>
      <trkpt lat="44.09534" lon="7.02378">
        <ele>1686.2897949219</ele>
        <time>2020-01-11T14:22:02Z</time>
      </trkpt>
      <trkpt lat="44.09543" lon="7.02376">
        <ele>1686.7702636719</ele>
        <time>2020-01-11T14:22:13Z</time>
      </trkpt>
      <trkpt lat="44.09552" lon="7.02376">
        <ele>1686.7702636719</ele>
        <time>2020-01-11T14:22:23Z</time>
      </trkpt>
      <trkpt lat="44.09564" lon="7.02373">
        <ele>1686.7702636719</ele>
        <time>2020-01-11T14:22:33Z</time>
      </trkpt>
      <trkpt lat="44.09573" lon="7.02369">
        <ele>1687.2509765625</ele>
        <time>2020-01-11T14:22:43Z</time>
      </trkpt>
      <trkpt lat="44.09582" lon="7.02363">
        <ele>1687.7316894531</ele>
        <time>2020-01-11T14:22:58Z</time>
      </trkpt>
      <trkpt lat="44.09592" lon="7.02355">
        <ele>1687.2509765625</ele>
        <time>2020-01-11T14:23:28Z</time>
      </trkpt>
      <trkpt lat="44.09601" lon="7.02347">
        <ele>1687.2509765625</ele>
        <time>2020-01-11T14:23:36Z</time>
      </trkpt>
      <trkpt lat="44.09612" lon="7.02342">
        <ele>1687.2509765625</ele>
        <time>2020-01-11T14:23:44Z</time>
      </trkpt>
      <trkpt lat="44.0962" lon="7.02336">
        <ele>1687.2509765625</ele>
        <time>2020-01-11T14:23:52Z</time>
      </trkpt>
      <trkpt lat="44.09628" lon="7.02327">
        <ele>1687.2509765625</ele>
        <time>2020-01-11T14:24:00Z</time>
      </trkpt>
      <trkpt lat="44.09635" lon="7.0232">
        <ele>1687.2509765625</ele>
        <time>2020-01-11T14:24:07Z</time>
      </trkpt>
      <trkpt lat="44.09641" lon="7.02312">
        <ele>1686.7702636719</ele>
        <time>2020-01-11T14:24:21Z</time>
      </trkpt>
      <trkpt lat="44.09648" lon="7.02306">
        <ele>1686.2897949219</ele>
        <time>2020-01-11T14:24:29Z</time>
      </trkpt>
      <trkpt lat="44.09654" lon="7.02297">
        <ele>1685.8090820312</ele>
        <time>2020-01-11T14:24:37Z</time>
      </trkpt>
      <trkpt lat="44.09661" lon="7.02288">
        <ele>1685.8090820312</ele>
        <time>2020-01-11T14:24:45Z</time>
      </trkpt>
      <trkpt lat="44.09666" lon="7.02279">
        <ele>1685.3283691406</ele>
        <time>2020-01-11T14:24:53Z</time>
      </trkpt>
      <trkpt lat="44.09667" lon="7.02268">
        <ele>1685.3283691406</ele>
        <time>2020-01-11T14:25:01Z</time>
      </trkpt>
      <trkpt lat="44.09672" lon="7.02257">
        <ele>1685.3283691406</ele>
        <time>2020-01-11T14:25:10Z</time>
      </trkpt>
      <trkpt lat="44.09679" lon="7.02246">
        <ele>1685.3283691406</ele>
        <time>2020-01-11T14:25:20Z</time>
      </trkpt>
      <trkpt lat="44.09687" lon="7.02235">
        <ele>1685.3283691406</ele>
        <time>2020-01-11T14:25:30Z</time>
      </trkpt>
      <trkpt lat="44.09697" lon="7.02232">
        <ele>1684.3671875</ele>
        <time>2020-01-11T14:25:41Z</time>
      </trkpt>
      <trkpt lat="44.09705" lon="7.02233">
        <ele>1685.3283691406</ele>
        <time>2020-01-11T14:25:50Z</time>
      </trkpt>
      <trkpt lat="44.09716" lon="7.02236">
        <ele>1685.8090820312</ele>
        <time>2020-01-11T14:25:59Z</time>
      </trkpt>
      <trkpt lat="44.09723" lon="7.02239">
        <ele>1686.2897949219</ele>
        <time>2020-01-11T14:26:14Z</time>
      </trkpt>
      <trkpt lat="44.09733" lon="7.02243">
        <ele>1687.2509765625</ele>
        <time>2020-01-11T14:26:24Z</time>
      </trkpt>
      <trkpt lat="44.09743" lon="7.02243">
        <ele>1687.7316894531</ele>
        <time>2020-01-11T14:26:34Z</time>
      </trkpt>
      <trkpt lat="44.09752" lon="7.02244">
        <ele>1687.2509765625</ele>
        <time>2020-01-11T14:26:43Z</time>
      </trkpt>
      <trkpt lat="44.09761" lon="7.02246">
        <ele>1687.7316894531</ele>
        <time>2020-01-11T14:26:54Z</time>
      </trkpt>
      <trkpt lat="44.09773" lon="7.02246">
        <ele>1687.7316894531</ele>
        <time>2020-01-11T14:27:04Z</time>
      </trkpt>
      <trkpt lat="44.09782" lon="7.02244">
        <ele>1687.7316894531</ele>
        <time>2020-01-11T14:27:13Z</time>
      </trkpt>
      <trkpt lat="44.09791" lon="7.0224">
        <ele>1688.2124023438</ele>
        <time>2020-01-11T14:27:22Z</time>
      </trkpt>
      <trkpt lat="44.09801" lon="7.02235">
        <ele>1688.2124023438</ele>
        <time>2020-01-11T14:27:31Z</time>
      </trkpt>
      <trkpt lat="44.09811" lon="7.02233">
        <ele>1688.6931152344</ele>
        <time>2020-01-11T14:27:40Z</time>
      </trkpt>
      <trkpt lat="44.0982" lon="7.02231">
        <ele>1688.2124023438</ele>
        <time>2020-01-11T14:27:49Z</time>
      </trkpt>
      <trkpt lat="44.0983" lon="7.02235">
        <ele>1688.2124023438</ele>
        <time>2020-01-11T14:27:58Z</time>
      </trkpt>
      <trkpt lat="44.09839" lon="7.02241">
        <ele>1689.1735839844</ele>
        <time>2020-01-11T14:28:07Z</time>
      </trkpt>
      <trkpt lat="44.09849" lon="7.02242">
        <ele>1689.1735839844</ele>
        <time>2020-01-11T14:28:17Z</time>
      </trkpt>
      <trkpt lat="44.09858" lon="7.02243">
        <ele>1690.1350097656</ele>
        <time>2020-01-11T14:28:30Z</time>
      </trkpt>
      <trkpt lat="44.09869" lon="7.0225">
        <ele>1690.6154785156</ele>
        <time>2020-01-11T14:28:41Z</time>
      </trkpt>
      <trkpt lat="44.09875" lon="7.02262">
        <ele>1690.1350097656</ele>
        <time>2020-01-11T14:28:50Z</time>
      </trkpt>
      <trkpt lat="44.09884" lon="7.02268">
        <ele>1690.1350097656</ele>
        <time>2020-01-11T14:28:59Z</time>
      </trkpt>
      <trkpt lat="44.09893" lon="7.02271">
        <ele>1689.654296875</ele>
        <time>2020-01-11T14:29:10Z</time>
      </trkpt>
      <trkpt lat="44.09903" lon="7.02271">
        <ele>1689.654296875</ele>
        <time>2020-01-11T14:29:20Z</time>
      </trkpt>
      <trkpt lat="44.09913" lon="7.02275">
        <ele>1689.654296875</ele>
        <time>2020-01-11T14:29:29Z</time>
      </trkpt>
      <trkpt lat="44.09922" lon="7.02281">
        <ele>1689.1735839844</ele>
        <time>2020-01-11T14:29:41Z</time>
      </trkpt>
      <trkpt lat="44.0993" lon="7.02287">
        <ele>1689.1735839844</ele>
        <time>2020-01-11T14:29:52Z</time>
      </trkpt>
      <trkpt lat="44.09937" lon="7.0229">
        <ele>1689.1735839844</ele>
        <time>2020-01-11T14:30:02Z</time>
      </trkpt>
      <trkpt lat="44.09945" lon="7.02291">
        <ele>1688.6931152344</ele>
        <time>2020-01-11T14:30:20Z</time>
      </trkpt>
      <trkpt lat="44.09957" lon="7.02289">
        <ele>1688.2124023438</ele>
        <time>2020-01-11T14:30:31Z</time>
      </trkpt>
      <trkpt lat="44.09963" lon="7.0228">
        <ele>1688.6931152344</ele>
        <time>2020-01-11T14:30:47Z</time>
      </trkpt>
      <trkpt lat="44.09968" lon="7.0227">
        <ele>1688.2124023438</ele>
        <time>2020-01-11T14:31:01Z</time>
      </trkpt>
      <trkpt lat="44.09973" lon="7.02262">
        <ele>1687.7316894531</ele>
        <time>2020-01-11T14:32:05Z</time>
      </trkpt>
      <trkpt lat="44.09971" lon="7.02262">
        <ele>1687.2509765625</ele>
        <time>2020-01-11T14:32:48Z</time>
      </trkpt>
      <trkpt lat="44.09977" lon="7.02265">
        <ele>1686.7702636719</ele>
        <time>2020-01-11T14:33:09Z</time>
      </trkpt>
      <trkpt lat="44.09978" lon="7.02278">
        <ele>1687.2509765625</ele>
        <time>2020-01-11T14:33:26Z</time>
      </trkpt>
      <trkpt lat="44.09976" lon="7.02291">
        <ele>1687.2509765625</ele>
        <time>2020-01-11T14:34:51Z</time>
      </trkpt>
      <trkpt lat="44.09983" lon="7.02268">
        <ele>1686.7702636719</ele>
        <time>2020-01-11T14:35:41Z</time>
      </trkpt>
      <trkpt lat="44.09993" lon="7.02269">
        <ele>1686.7702636719</ele>
        <time>2020-01-11T14:35:54Z</time>
      </trkpt>
      <trkpt lat="44.1" lon="7.02257">
        <ele>1686.7702636719</ele>
        <time>2020-01-11T14:36:08Z</time>
      </trkpt>
      <trkpt lat="44.10009" lon="7.02237">
        <ele>1686.2897949219</ele>
        <time>2020-01-11T14:36:20Z</time>
      </trkpt>
      <trkpt lat="44.10017" lon="7.02233">
        <ele>1686.7702636719</ele>
        <time>2020-01-11T14:36:34Z</time>
      </trkpt>
      <trkpt lat="44.10023" lon="7.02225">
        <ele>1686.7702636719</ele>
        <time>2020-01-11T14:36:48Z</time>
      </trkpt>
    </trkseg>
  </trk>
</gpx>